Provisional Data: Apalachin Creek near Apalachin, NY


Please select a monitoring station.
Please select start date.
Please select start date.

Toggle Unit: C/F Toggle Unit: C/F
Sample Time Temperature (C) Temperature (F) Specific Conductivity (mS/cm) pH   Turbidity (NTU+) DO (mg/L)
8/9/2021 12:00:00 AM 20.92 69.656 0.225 6.88 1.46 5.85
8/9/2021 12:15:00 AM 20.88 69.584 0.224 6.88 1.43 5.83
8/9/2021 12:30:00 AM 20.85 69.53 0.225 6.88 1.43 5.84
8/9/2021 12:45:00 AM 20.81 69.458 0.226 6.88 1.4 5.79
8/9/2021 1:00:00 AM 20.78 69.404 0.223 6.88 1.47 5.79
8/9/2021 1:15:00 AM 20.73 69.314 0.225 6.88 1.65 5.82
8/9/2021 1:30:00 AM 20.71 69.278 0.226 6.88 2 5.81
8/9/2021 1:45:00 AM 20.67 69.206 0.224 6.88 1.81 5.8
8/9/2021 2:00:00 AM 20.64 69.152 0.227 6.88 1.49 5.79
8/9/2021 2:15:00 AM 20.62 69.116 0.224 6.88 1.79 5.77
8/9/2021 2:30:00 AM 20.59 69.062 0.224 6.88 1.2 5.78
8/9/2021 2:45:00 AM 20.57 69.026 0.226 6.88 1.31 5.76
8/9/2021 3:00:00 AM 20.54 68.972 0.226 6.88 1.28 5.77
8/9/2021 3:15:00 AM 20.52 68.936 0.226 6.88 1.33 5.73
8/9/2021 3:30:00 AM 20.49 68.882 0.225 6.88 1.21 5.76
8/9/2021 3:45:00 AM 20.47 68.846 0.228 6.88 1.38 5.79
8/9/2021 4:00:00 AM 20.45 68.81 0.228 6.88 1.3 5.77
8/9/2021 4:15:00 AM 20.42 68.756 0.227 6.88 1.26 5.76
8/9/2021 4:30:00 AM 20.41 68.738 0.225 6.88 1.3 5.75
8/9/2021 4:45:00 AM 20.4 68.72 0.226 6.88 1.3 5.74
8/9/2021 5:00:00 AM 20.37 68.666 0.228 6.88 1.28 5.75
8/9/2021 5:15:00 AM 20.36 68.648 0.228 6.88 1.54 5.76
8/9/2021 5:30:00 AM 20.36 68.648 0.229 6.88 1.51 5.76
8/9/2021 5:45:00 AM 20.35 68.63 0.227 6.88 1.37 5.8
8/9/2021 6:00:00 AM 20.34 68.612 0.229 6.88 1.26 5.8
8/9/2021 6:15:00 AM 20.33 68.594 0.227 6.88 1.19 5.81
8/9/2021 6:30:00 AM 20.33 68.594 0.23 6.88 1.29 5.78
8/9/2021 6:45:00 AM 20.33 68.594 0.23 6.88 1.23 5.77
8/9/2021 7:00:00 AM 20.33 68.594 0.23 6.88 1.33 5.86
8/9/2021 7:15:00 AM 20.34 68.612 0.23 6.89 1.23 5.92
8/9/2021 7:30:00 AM 20.35 68.63 0.23 6.89 1.29 6.01
8/9/2021 7:45:00 AM 20.37 68.666 0.225 6.9 1.21 6.16
8/9/2021 8:00:00 AM 20.42 68.756 0.233 6.91 1.29 6.33
8/9/2021 8:15:00 AM 20.45 68.81 0.23 6.93 1.37 6.6
8/9/2021 8:30:00 AM 20.49 68.882 0.228 6.94 1.32 6.74
8/9/2021 8:45:00 AM 20.54 68.972 0.228 6.95 1.19 6.94
8/9/2021 9:00:00 AM 20.58 69.044 0.227 6.96 1.3 7.09
8/9/2021 9:15:00 AM 20.63 69.134 0.229 6.98 1.17 7.28
8/9/2021 9:30:00 AM 20.7 69.26 0.226 6.99 1.19 7.46
8/9/2021 9:45:00 AM 20.82 69.476 0.227 7.01 1.12 7.81
8/9/2021 10:00:00 AM 20.96 69.728 0.229 7.04 1.45 8.07
8/9/2021 10:15:00 AM 21.1 69.98 0.228 7.05 1.17 8.25
8/9/2021 10:30:00 AM 21.19 70.142 0.226 7.06 1.32 8.36
8/9/2021 10:45:00 AM 21.37 70.466 0.227 7.08 1.18 8.54
8/9/2021 11:00:00 AM 21.57 70.826 0.228 7.09 1.16 8.72
8/9/2021 11:15:00 AM 21.78 71.204 0.227 7.11 1.17 8.82
8/9/2021 11:30:00 AM 21.94 71.492 0.225 7.12 1.09 8.9
8/9/2021 11:45:00 AM 22.17 71.906 0.228 7.13 1.07 9
8/9/2021 12:00:00 PM 22.35 72.23 0.228 7.14 1.21 9.12
8/9/2021 12:15:00 PM 22.57 72.626 0.228 7.15 1.11 9.22
8/9/2021 12:30:00 PM 22.74 72.932 0.228 7.16 1.19 9.29
8/9/2021 12:45:00 PM 22.9 73.22 0.228 7.17 1.07 9.35
8/9/2021 1:00:00 PM 23.05 73.49 0.224 7.17 1.07 9.38
8/9/2021 1:15:00 PM 23.24 73.832 0.228 7.18 1.15 9.45
8/9/2021 1:30:00 PM 23.32 73.976 0.227 7.19 1.25 9.51
8/9/2021 1:45:00 PM 23.36 74.048 0.228 7.19 1.09 9.54
8/9/2021 2:00:00 PM 23.41 74.138 0.225 7.2 1.53 9.63
8/9/2021 2:15:00 PM 23.46 74.228 0.226 7.2 1.2 9.63
8/9/2021 2:30:00 PM 23.66 74.588 0.23 7.2 0.98 9.63
8/9/2021 2:45:00 PM 23.81 74.858 0.227 7.22 1.17 9.75
8/9/2021 3:00:00 PM 23.93 75.074 0.226 7.22 0.97 9.81
8/9/2021 3:15:00 PM 23.98 75.164 0.227 7.23 1.42 9.86
8/9/2021 3:30:00 PM 23.98 75.164 0.228 7.22 1.19 9.76
8/9/2021 3:45:00 PM 23.92 75.056 0.227 7.21 1.12 9.65
8/9/2021 4:00:00 PM 23.89 75.002 0.226 7.2 1.16 9.57
8/9/2021 4:15:00 PM 23.84 74.912 0.227 7.19 1.22 9.56
8/9/2021 4:30:00 PM 23.8 74.84 0.227 7.19 1.17 9.4
8/9/2021 4:45:00 PM 23.74 74.732 0.228 7.17 1.53 9.31
8/9/2021 5:00:00 PM 23.5 74.3 0.228 7.13 1.56 8.84
8/9/2021 5:15:00 PM 23.31 73.958 0.229 7.09 1.44 8.46
8/9/2021 5:30:00 PM 23.24 73.832 0.224 7.09 1.7 8.46
8/9/2021 5:45:00 PM 23.19 73.742 0.224 7.09 1.48 8.5
8/9/2021 6:00:00 PM 23.14 73.652 0.227 7.09 1.6 8.53
8/9/2021 6:15:00 PM 23.04 73.472 0.229 7.08 1.59 8.44
8/9/2021 6:30:00 PM 22.93 73.274 0.228 7.06 1.58 8.28
8/9/2021 6:45:00 PM 22.81 73.058 0.226 7.04 1.91 8.02
8/9/2021 7:00:00 PM 22.7 72.86 0.225 7.02 1.48 7.79
8/9/2021 7:15:00 PM 22.61 72.698 0.228 7.01 1.48 7.6
8/9/2021 7:30:00 PM 22.48 72.464 0.231 6.99 1.52 7.34
8/9/2021 7:45:00 PM 22.36 72.248 0.231 6.97 1.37 7.1
8/9/2021 8:00:00 PM 22.25 72.05 0.231 6.95 1.26 6.86
8/9/2021 8:15:00 PM 22.15 71.87 0.23 6.93 1.11 6.65
8/9/2021 8:30:00 PM 22.05 71.69 0.23 6.92 1.45 6.44
8/9/2021 8:45:00 PM 21.97 71.546 0.232 6.91 1.26 6.26
8/9/2021 9:00:00 PM 21.93 71.474 0.231 6.91 1.13 6.15
8/9/2021 9:15:00 PM 21.87 71.366 0.232 6.92 1.22 6.08
8/9/2021 9:30:00 PM 21.82 71.276 0.231 6.92 1.28 6.03
8/9/2021 9:45:00 PM 21.77 71.186 0.231 6.91 1.54 5.97
8/9/2021 10:00:00 PM 21.72 71.096 0.231 6.91 1.21 5.92
8/9/2021 10:15:00 PM 21.68 71.024 0.23 6.91 1.2 5.88
8/9/2021 10:30:00 PM 21.62 70.916 0.23 6.91 1.27 5.83
8/9/2021 10:45:00 PM 21.57 70.826 0.229 6.9 1.21 5.81
8/9/2021 11:00:00 PM 21.52 70.736 0.23 6.9 1.15 5.78
8/9/2021 11:15:00 PM 21.47 70.646 0.23 6.89 1.15 5.76
8/9/2021 11:30:00 PM 21.44 70.592 0.229 6.89 1.16 5.68
8/9/2021 11:45:00 PM 21.4 70.52 0.229 6.88 1.17 5.64
8/10/2021 12:00:00 AM 21.36 70.448 0.229 6.88 1.17 5.63
8/10/2021 12:15:00 AM 21.32 70.376 0.231 6.88 1.03 5.6
8/10/2021 12:30:00 AM 21.29 70.32201 0.229 6.88 1.18 5.58
8/10/2021 12:45:00 AM 21.26 70.268 0.228 6.87 1.39 5.54
8/10/2021 1:00:00 AM 21.23 70.214 0.229 6.87 1.22 5.52
8/10/2021 1:15:00 AM 21.2 70.16 0.23 6.87 1.21 5.49
8/10/2021 1:30:00 AM 21.18 70.124 0.23 6.87 1.17 5.49
8/10/2021 1:45:00 AM 21.16 70.088 0.228 6.86 1.16 5.47
8/10/2021 2:00:00 AM 21.14 70.052 0.232 6.86 1.1 5.45
8/10/2021 2:15:00 AM 21.12 70.016 0.232 6.86 0.99 5.41
8/10/2021 2:30:00 AM 21.1 69.98 0.23 6.86 1.1 5.41
8/10/2021 2:45:00 AM 21.08 69.944 0.23 6.86 1.16 5.41
8/10/2021 3:00:00 AM 21.05 69.89 0.233 6.86 1.06 5.41
8/10/2021 3:15:00 AM 21.04 69.872 0.231 6.86 1.24 5.39
8/10/2021 3:30:00 AM 21.02 69.836 0.232 6.86 1.23 5.39
8/10/2021 3:45:00 AM 21 69.8 0.23 6.86 1.08 5.38
8/10/2021 4:00:00 AM 20.97 69.746 0.231 6.85 1 5.37
8/10/2021 4:15:00 AM 20.96 69.728 0.23 6.86 1.09 5.35
8/10/2021 4:30:00 AM 20.94 69.692 0.232 6.85 0.98 5.36
8/10/2021 4:45:00 AM 20.92 69.656 0.231 6.85 1 5.34
8/10/2021 5:00:00 AM 20.89 69.602 0.233 6.85 1.09 5.39
8/10/2021 5:15:00 AM 20.88 69.584 0.232 6.85 1.27 5.37
8/10/2021 5:30:00 AM 20.88 69.584 0.232 6.85 1.28 5.34
8/10/2021 5:45:00 AM 20.86 69.548 0.232 6.85 1.3 5.32
8/10/2021 6:00:00 AM 20.85 69.53 0.231 6.85 1.18 5.31
8/10/2021 6:15:00 AM 20.84 69.512 0.232 6.85 1.09 5.34
8/10/2021 6:30:00 AM 20.84 69.512 0.233 6.85 1.07 5.38
8/10/2021 6:45:00 AM 20.84 69.512 0.233 6.85 1.1 5.4
8/10/2021 7:00:00 AM 20.85 69.53 0.232 6.85 1.08 5.4
8/10/2021 7:15:00 AM 20.87 69.566 0.231 6.86 1.14 5.45
8/10/2021 7:30:00 AM 20.89 69.602 0.236 6.86 1.12 5.63
8/10/2021 7:45:00 AM 20.91 69.638 0.231 6.87 1.16 5.7
8/10/2021 8:00:00 AM 20.95 69.71 0.234 6.88 1 5.95
8/10/2021 8:15:00 AM 20.98 69.764 0.233 6.89 1.11 6.15
8/10/2021 8:30:00 AM 21.03 69.854 0.23 6.91 1.1 6.3
8/10/2021 8:45:00 AM 21.1 69.98 0.235 6.92 1.13 6.58
8/10/2021 9:00:00 AM 21.17 70.106 0.233 6.94 1.06 6.81
8/10/2021 9:15:00 AM 21.27 70.286 0.234 6.95 1.01 7.01
8/10/2021 9:30:00 AM 21.42 70.556 0.234 6.98 1.17 7.31
8/10/2021 9:45:00 AM 21.49 70.682 0.233 6.98 1.01 7.45
8/10/2021 10:00:00 AM 21.54 70.772 0.234 6.98 1.07 7.48
8/10/2021 10:15:00 AM 21.62 70.916 0.232 7 1.15 7.65
8/10/2021 10:30:00 AM 21.66 70.988 0.231 7 1.3 7.72
8/10/2021 10:45:00 AM 21.67 71.006 0.235 7 1.21 7.62
8/10/2021 11:00:00 AM 21.69 71.042 0.231 6.99 1.15 7.58
8/10/2021 11:15:00 AM 21.72 71.096 0.233 7 1.22 7.67
8/10/2021 11:30:00 AM 21.76 71.168 0.232 7.01 1.23 7.78
8/10/2021 11:45:00 AM 21.84 71.312 0.232 7.02 1.06 7.95
8/10/2021 12:00:00 PM 21.94 71.492 0.233 7.04 0.99 8.21
8/10/2021 12:15:00 PM 22.01 71.618 0.23 7.05 0.95 8.4
8/10/2021 12:30:00 PM 22.18 71.924 0.231 7.07 0.96 8.56
8/10/2021 12:45:00 PM 22.3 72.14 0.23 7.08 0.84 8.75
8/10/2021 1:00:00 PM 22.43 72.374 0.231 7.08 0.91 8.77
8/10/2021 1:15:00 PM 22.53 72.554 0.231 7.09 0.97 8.89
8/10/2021 1:30:00 PM 22.59 72.662 0.23 7.1 0.94 8.91
8/10/2021 1:45:00 PM 22.66 72.788 0.23 7.1 1.14 9.03
8/10/2021 2:00:00 PM 22.8 73.04 0.231 7.11 0.88 9.11
8/10/2021 2:15:00 PM 22.88 73.184 0.231 7.12 0.97 9.15
8/10/2021 2:30:00 PM 22.9 73.22 0.229 7.13 0.91 9.17
8/10/2021 2:45:00 PM 22.92 73.256 0.234 7.1 1.24 9
8/10/2021 3:00:00 PM 23.05 73.49 0.231 7.12 0.88 9.18
8/10/2021 3:15:00 PM 23.2 73.76 0.226 7.13 0.84 9.35
8/10/2021 3:30:00 PM 23.25 73.85 0.227 7.14 0.84 9.32
8/10/2021 3:45:00 PM 23.23 73.814 0.228 7.13 4.58 9.32
8/10/2021 4:00:00 PM 23.29 73.922 0.229 7.13 0.91 9.32
8/10/2021 4:15:00 PM 23.32 73.976 0.231 7.14 0.93 9.28
8/10/2021 4:30:00 PM 23.32 73.976 0.231 7.14 0.77 9.32
8/10/2021 4:45:00 PM 23.3 73.94 0.233 7.13 0.85 9.27
8/10/2021 5:00:00 PM 23.28 73.904 0.231 7.13 0.83 9.18
8/10/2021 5:15:00 PM 23.24 73.832 0.229 7.11 4.3 9.01
8/10/2021 5:30:00 PM 23.16 73.688 0.233 7.1 1.02 8.92
8/10/2021 5:45:00 PM 23.08 73.544 0.232 7.09 0.92 8.77
8/10/2021 6:00:00 PM 23.06 73.508 0.231 7.08 1.22 8.72
8/10/2021 6:15:00 PM 23.02 73.436 0.231 7.07 0.94 8.64
8/10/2021 6:30:00 PM 22.91 73.238 0.23 7.05 2.96 8.41
8/10/2021 6:45:00 PM 22.8 73.04 0.232 7.02 1.16 8.09
8/10/2021 7:00:00 PM 22.7 72.86 0.234 7.01 1.21 7.85
8/10/2021 7:15:00 PM 22.6 72.68 0.236 6.99 1.03 7.57
8/10/2021 7:30:00 PM 22.48 72.464 0.234 6.97 0.91 7.27
8/10/2021 7:45:00 PM 22.37 72.266 0.236 6.94 0.85 6.97
8/10/2021 8:00:00 PM 22.28 72.104 0.235 6.92 1.07 6.68
8/10/2021 8:15:00 PM 22.17 71.906 0.235 6.9 0.97 6.42
8/10/2021 8:30:00 PM 22.09 71.762 0.236 6.89 0.89 6.17
8/10/2021 8:45:00 PM 22.01 71.618 0.237 6.88 1.22 5.98
8/10/2021 9:00:00 PM 21.93 71.474 0.235 6.87 1.01 5.81
8/10/2021 9:15:00 PM 21.88 71.384 0.234 6.86 1.98 5.68
8/10/2021 9:30:00 PM 21.82 71.276 0.237 6.85 1.02 5.59
8/10/2021 9:45:00 PM 21.78 71.204 0.237 6.85 0.91 5.52
8/10/2021 10:00:00 PM 21.74 71.132 0.237 6.84 0.98 5.43
8/10/2021 10:15:00 PM 21.69 71.042 0.237 6.84 1.21 5.4
8/10/2021 10:30:00 PM 21.65 70.97 0.236 6.84 0.9 5.35
8/10/2021 10:45:00 PM 21.63 70.934 0.233 6.84 1.08 5.31
8/10/2021 11:00:00 PM 21.59 70.862 0.236 6.83 0.91 5.3
8/10/2021 11:15:00 PM 21.57 70.826 0.237 6.83 0.9 5.25
8/10/2021 11:30:00 PM 21.54 70.772 0.235 6.83 0.93 5.24
8/10/2021 11:45:00 PM 21.52 70.736 0.238 6.83 1 5.21
8/11/2021 12:00:00 AM 21.49 70.682 0.236 6.83 1 5.2
8/11/2021 12:15:00 AM 21.47 70.646 0.237 6.83 1 5.21
8/11/2021 12:30:00 AM 21.45 70.61 0.238 6.83 1.01 5.17
8/11/2021 12:45:00 AM 21.45 70.61 0.236 6.83 1.13 5.16
8/11/2021 1:00:00 AM 21.44 70.592 0.238 6.83 0.93 5.15
8/11/2021 1:15:00 AM 21.43 70.574 0.238 6.83 1.43 5.13
8/11/2021 1:30:00 AM 21.41 70.538 0.238 6.83 1.13 5.13
8/11/2021 1:45:00 AM 21.4 70.52 0.233 6.83 0.9 5.12
8/11/2021 2:00:00 AM 21.37 70.466 0.238 6.83 1.08 5.1
8/11/2021 2:15:00 AM 21.35 70.43 0.238 6.83 1.1 5.12
8/11/2021 2:30:00 AM 21.34 70.412 0.237 6.83 1.07 5.12
8/11/2021 2:45:00 AM 21.32 70.376 0.238 6.83 1.11 5.14
8/11/2021 3:00:00 AM 21.31 70.358 0.238 6.83 1.07 5.13
8/11/2021 3:15:00 AM 21.3 70.34 0.237 6.83 1.2 5.12
8/11/2021 3:30:00 AM 21.28 70.304 0.237 6.83 1.19 5.09
8/11/2021 3:45:00 AM 21.27 70.286 0.238 6.83 1 5.08
8/11/2021 4:00:00 AM 21.25 70.25 0.237 6.83 0.99 5.1
8/11/2021 4:15:00 AM 21.24 70.232 0.236 6.83 1.17 5.07
8/11/2021 4:30:00 AM 21.22 70.196 0.238 6.83 0.96 5.08
8/11/2021 4:45:00 AM 21.2 70.16 0.238 6.83 1.02 5.06
8/11/2021 5:00:00 AM 21.19 70.142 0.236 6.83 0.92 5.09
8/11/2021 5:15:00 AM 21.17 70.106 0.237 6.83 1.02 5.07
8/11/2021 5:30:00 AM 21.16 70.088 0.237 6.83 0.87 5.04
8/11/2021 5:45:00 AM 21.14 70.052 0.237 6.83 1.07 5.07
8/11/2021 6:00:00 AM 21.13 70.034 0.237 6.83 0.97 5.07
8/11/2021 6:15:00 AM 21.11 69.998 0.236 6.83 0.94 5.08
8/11/2021 6:30:00 AM 21.1 69.98 0.242 6.83 0.91 5.1
8/11/2021 6:45:00 AM 21.08 69.944 0.239 6.83 1.16 5.12
8/11/2021 7:00:00 AM 21.07 69.926 0.239 6.84 1 5.16
8/11/2021 7:15:00 AM 21.07 69.926 0.239 6.84 1.02 5.19
8/11/2021 7:30:00 AM 21.08 69.944 0.238 6.84 0.98 5.28
8/11/2021 7:45:00 AM 21.1 69.98 0.239 6.85 1.05 5.46
8/11/2021 8:00:00 AM 21.13 70.034 0.24 6.86 1.14 5.65
8/11/2021 8:15:00 AM 21.19 70.142 0.239 6.88 0.96 5.95
8/11/2021 8:30:00 AM 21.24 70.232 0.239 6.89 0.87 6.14
8/11/2021 8:45:00 AM 21.3 70.34 0.239 6.9 0.91 6.27
8/11/2021 9:00:00 AM 21.37 70.466 0.238 6.91 0.96 6.43
8/11/2021 9:15:00 AM 21.44 70.592 0.238 6.92 0.96 6.63
8/11/2021 9:30:00 AM 21.49 70.682 0.239 6.93 0.95 6.81
8/11/2021 9:45:00 AM 21.56 70.808 0.239 6.94 1.29 7.02
8/11/2021 10:00:00 AM 21.63 70.934 0.239 6.95 1.08 7.18
8/11/2021 10:15:00 AM 21.72 71.096 0.239 6.96 0.94 7.31
8/11/2021 10:30:00 AM 21.81 71.258 0.238 6.97 0.99 7.49
8/11/2021 10:45:00 AM 21.98 71.564 0.236 7 0.97 7.82
8/11/2021 11:00:00 AM 22.09 71.762 0.239 7.01 0.8 7.99
8/11/2021 11:15:00 AM 22.26 72.068 0.237 7.02 0.98 8.16
8/11/2021 11:30:00 AM 22.36 72.248 0.238 7.03 1.01 8.26
8/11/2021 11:45:00 AM 22.41 72.338 0.236 7.03 0.92 8.22
8/11/2021 12:00:00 PM 22.47 72.446 0.235 7.03 0.95 8.24
8/11/2021 12:15:00 PM 22.63 72.734 0.239 7.05 0.92 8.49
8/11/2021 12:30:00 PM 22.82 73.076 0.237 7.06 1.14 8.67
8/11/2021 12:45:00 PM 23.02 73.436 0.238 7.08 1.65 8.86
8/11/2021 1:00:00 PM 23.12 73.616 0.237 7.08 1.2 8.93
8/11/2021 1:15:00 PM 23.21 73.778 0.237 7.08 0.94 9.01
8/11/2021 1:30:00 PM 23.38 74.084 0.237 7.09 0.93 9.02
8/11/2021 1:45:00 PM 23.51 74.318 0.237 7.1 0.9 9.09
8/11/2021 2:00:00 PM 23.58 74.444 0.235 7.11 0.96 9.23
8/11/2021 2:15:00 PM 23.6 74.48 0.236 7.11 0.91 9.24
8/11/2021 2:30:00 PM 23.56 74.408 0.235 7.11 1.41 9.23
8/11/2021 2:45:00 PM 23.59 74.462 0.237 7.1 0.73 9.2
8/11/2021 3:00:00 PM 23.59 74.462 0.238 7.09 11.56 9.1
8/11/2021 3:15:00 PM 23.61 74.498 0.238 7.09 1.24 9.13
8/11/2021 3:30:00 PM 23.61 74.498 0.238 7.1 0.69 9.12
8/11/2021 3:45:00 PM 23.53 74.354 0.236 7.09 0.8 9.03
8/11/2021 4:00:00 PM 23.46 74.228 0.237 7.07 0.83 8.88
8/11/2021 4:15:00 PM 23.38 74.084 0.237 7.07 0.81 8.8
8/11/2021 4:30:00 PM 23.3 73.94 0.238 7.05 0.73 8.65
8/11/2021 4:45:00 PM 23.23 73.814 0.238 7.05 0.79 8.58
8/11/2021 5:00:00 PM 23.18 73.724 0.238 7.04 0.81 8.54
8/11/2021 5:15:00 PM 23.16 73.688 0.237 7.04 0.74 8.54
8/11/2021 5:30:00 PM 23.16 73.688 0.237 7.04 0.85 8.57
8/11/2021 5:45:00 PM 23.16 73.688 0.239 7.03 2 8.42
8/11/2021 6:00:00 PM 23.15 73.67 0.239 7.02 2.48 8.3
8/11/2021 6:15:00 PM 23.07 73.526 0.238 7.01 0.98 8.19
8/11/2021 6:30:00 PM 23 73.4 0.237 7 0.98 8.07
8/11/2021 6:45:00 PM 22.93 73.274 0.239 6.98 0.93 7.81
8/11/2021 7:00:00 PM 22.85 73.13 0.238 6.97 0.95 7.55
8/11/2021 7:15:00 PM 22.79 73.022 0.241 6.95 0.88 7.33
8/11/2021 7:30:00 PM 22.7 72.86 0.237 6.93 0.96 7.05
8/11/2021 7:45:00 PM 22.62 72.716 0.241 6.91 1.01 6.73
8/11/2021 8:00:00 PM 22.53 72.554 0.241 6.89 1.02 6.46
8/11/2021 8:15:00 PM 22.44 72.392 0.238 6.88 1.04 6.18
8/11/2021 8:30:00 PM 22.38 72.284 0.241 6.86 1.67 5.92
8/11/2021 8:45:00 PM 22.29 72.122 0.24 6.85 0.89 5.69
8/11/2021 9:00:00 PM 22.22 71.996 0.242 6.84 0.86 5.54
8/11/2021 9:15:00 PM 22.18 71.924 0.24 6.83 0.88 5.42
8/11/2021 9:30:00 PM 22.11 71.798 0.241 6.82 0.91 5.3
8/11/2021 9:45:00 PM 22.05 71.69 0.242 6.82 0.81 5.24
8/11/2021 10:00:00 PM 22 71.6 0.242 6.82 0.85 5.2
8/11/2021 10:15:00 PM 21.96 71.528 0.243 6.82 0.89 5.15
8/11/2021 10:30:00 PM 21.91 71.438 0.242 6.81 0.96 5.11
8/11/2021 10:45:00 PM 21.89 71.402 0.241 6.81 1.01 5.04
8/11/2021 11:00:00 PM 21.86 71.348 0.243 6.81 0.96 5.03
8/11/2021 11:15:00 PM 21.84 71.312 0.245 6.81 0.78 5
8/11/2021 11:30:00 PM 21.81 71.258 0.243 6.81 0.84 5
8/11/2021 11:45:00 PM 21.79 71.222 0.242 6.81 0.89 4.95
8/12/2021 12:00:00 AM 21.76 71.168 0.243 6.81 0.84 4.93
8/12/2021 12:15:00 AM 21.73 71.114 0.242 6.81 0.95 4.95
8/12/2021 12:30:00 AM 21.7 71.06 0.242 6.81 1.41 4.95
8/12/2021 12:45:00 AM 21.67 71.006 0.242 6.81 0.98 4.92
8/12/2021 1:00:00 AM 21.65 70.97 0.242 6.81 0.89 4.92
8/12/2021 1:15:00 AM 21.63 70.934 0.242 6.81 2.14 4.9
8/12/2021 1:30:00 AM 21.61 70.898 0.243 6.81 0.8 4.88
8/12/2021 1:45:00 AM 21.6 70.88 0.243 6.81 0.94 4.89
8/12/2021 2:00:00 AM 21.59 70.862 0.244 6.81 0.82 4.9
8/12/2021 2:15:00 AM 21.58 70.844 0.243 6.81 0.87 4.89
8/12/2021 2:30:00 AM 21.56 70.808 0.243 6.81 0.79 4.89
8/12/2021 2:45:00 AM 21.54 70.772 0.243 6.81 0.8 4.88
8/12/2021 3:00:00 AM 21.52 70.736 0.242 6.81 0.72 4.87
8/12/2021 3:15:00 AM 21.49 70.682 0.245 6.81 0.84 4.88
8/12/2021 3:30:00 AM 21.46 70.628 0.244 6.81 0.8 4.87
8/12/2021 3:45:00 AM 21.43 70.574 0.24 6.81 0.81 4.87
8/12/2021 4:00:00 AM 21.42 70.556 0.241 6.81 0.82 4.85
8/12/2021 4:15:00 AM 21.4 70.52 0.242 6.81 0.89 4.86
8/12/2021 4:30:00 AM 21.39 70.502 0.242 6.81 0.89 4.86
8/12/2021 4:45:00 AM 21.36 70.448 0.242 6.81 0.86 4.81
8/12/2021 5:00:00 AM 21.35 70.43 0.242 6.81 1.3 4.84
8/12/2021 5:15:00 AM 21.33 70.394 0.241 6.81 0.85 4.85
8/12/2021 5:30:00 AM 21.33 70.394 0.241 6.81 0.85 4.85
8/12/2021 5:45:00 AM 21.32 70.376 0.242 6.81 1.57 4.86
8/12/2021 6:00:00 AM 21.32 70.376 0.242 6.81 0.84 4.83
8/12/2021 6:15:00 AM 21.31 70.358 0.243 6.81 1.01 4.86
8/12/2021 6:30:00 AM 21.31 70.358 0.243 6.81 0.93 4.84
8/12/2021 6:45:00 AM 21.31 70.358 0.242 6.81 0.9 4.88
8/12/2021 7:00:00 AM 21.3 70.34 0.242 6.81 0.78 4.9
8/12/2021 7:15:00 AM 21.3 70.34 0.241 6.81 0.96 4.88
8/12/2021 7:30:00 AM 21.3 70.34 0.243 6.82 0.88 5.01
8/12/2021 7:45:00 AM 21.31 70.358 0.243 6.83 1.02 5.21
8/12/2021 8:00:00 AM 21.32 70.376 0.24 6.83 0.9 5.24
8/12/2021 8:15:00 AM 21.37 70.466 0.246 6.84 0.88 5.47
8/12/2021 8:30:00 AM 21.42 70.556 0.244 6.85 1 5.65
8/12/2021 8:45:00 AM 21.48 70.664 0.244 6.86 0.95 5.84
8/12/2021 9:00:00 AM 21.56 70.808 0.244 6.87 0.91 6.04
8/12/2021 9:15:00 AM 21.65 70.97 0.245 6.89 1.03 6.3
8/12/2021 9:30:00 AM 21.72 71.096 0.243 6.9 0.86 6.51
8/12/2021 9:45:00 AM 21.84 71.312 0.243 6.91 0.74 6.74
8/12/2021 10:00:00 AM 21.97 71.546 0.243 6.92 0.84 6.87
8/12/2021 10:15:00 AM 22.11 71.798 0.244 6.93 0.8 7.08
8/12/2021 10:30:00 AM 22.32 72.176 0.243 6.94 0.89 7.31
8/12/2021 10:45:00 AM 22.47 72.446 0.244 6.96 0.85 7.52
8/12/2021 11:00:00 AM 22.6 72.68 0.244 6.97 1.02 7.68
8/12/2021 11:15:00 AM 22.69 72.842 0.242 6.97 0.84 7.8
8/12/2021 11:30:00 AM 22.72 72.896 0.242 6.98 0.94 7.88
8/12/2021 11:45:00 AM 22.72 72.896 0.241 6.98 0.93 7.87
8/12/2021 12:00:00 PM 22.77 72.986 0.239 6.98 0.79 7.97
8/12/2021 12:15:00 PM 22.97 73.346 0.241 7.01 1.09 8.29
8/12/2021 12:30:00 PM 23.04 73.472 0.239 7.01 0.8 8.4
8/12/2021 12:45:00 PM 23.03 73.454 0.241 7.01 0.82 8.41
8/12/2021 1:00:00 PM 23.04 73.472 0.239 7.01 0.81 8.45
8/12/2021 1:15:00 PM 23.26 73.868 0.241 7.01 0.74 8.45
8/12/2021 1:30:00 PM 23.44 74.192 0.239 7.02 0.7 8.59
8/12/2021 1:45:00 PM 23.66 74.588 0.239 7.03 0.67 8.68
8/12/2021 2:00:00 PM 23.69 74.642 0.241 7.03 0.97 8.7
8/12/2021 2:15:00 PM 23.68 74.624 0.237 7.04 0.74 8.81
8/12/2021 2:30:00 PM 23.68 74.624 0.241 7.04 0.79 8.88
8/12/2021 2:45:00 PM 23.72 74.696 0.239 7.05 0.7 8.93
8/12/2021 3:00:00 PM 23.77 74.786 0.239 7.05 0.78 8.91
8/12/2021 3:15:00 PM 23.72 74.696 0.242 7.05 0.83 8.86
8/12/2021 3:30:00 PM 23.49 74.282 0.241 7.02 0.77 8.37
8/12/2021 3:45:00 PM 23.23 73.814 0.242 6.97 0.85 7.67
8/12/2021 4:00:00 PM 23.06 73.508 0.243 6.94 1.1 7.18
8/12/2021 4:15:00 PM 22.92 73.256 0.244 6.92 0.91 6.9
8/12/2021 4:30:00 PM 22.86 73.148 0.244 6.92 0.78 6.97
8/12/2021 4:45:00 PM 22.9 73.22 0.24 6.92 0.78 7.11
8/12/2021 5:00:00 PM 23.06 73.508 0.244 6.95 0.96 7.42
8/12/2021 5:15:00 PM 23.12 73.616 0.241 6.97 0.99 7.86
8/12/2021 5:30:00 PM 23.15 73.67 0.241 6.97 0.81 7.93
8/12/2021 5:45:00 PM 23.11 73.598 0.241 6.98 0.79 8.07
8/12/2021 6:00:00 PM 23.1 73.58 0.24 6.98 0.74 8.07
8/12/2021 6:15:00 PM 23.06 73.508 0.24 6.97 1 7.99
8/12/2021 6:30:00 PM 22.95 73.31 0.24 6.96 0.8 7.73
8/12/2021 6:45:00 PM 22.85 73.13 0.242 6.94 0.75 7.44
8/12/2021 7:00:00 PM 22.75 72.95 0.243 6.92 0.75 7.09
8/12/2021 7:15:00 PM 22.63 72.734 0.243 6.9 0.81 6.66
8/12/2021 7:30:00 PM 22.52 72.536 0.244 6.87 0.78 6.31
8/12/2021 7:45:00 PM 22.44 72.392 0.244 6.86 0.84 6.11
8/12/2021 8:00:00 PM 22.38 72.284 0.244 6.85 0.76 6
8/12/2021 8:15:00 PM 22.31 72.158 0.246 6.84 0.89 5.78
8/12/2021 8:30:00 PM 22.25 72.05 0.247 6.83 0.8 5.61
8/12/2021 8:45:00 PM 22.18 71.924 0.246 6.82 0.78 5.42
8/12/2021 9:00:00 PM 22.13 71.834 0.247 6.81 0.92 5.28
8/12/2021 9:15:00 PM 22.08 71.744 0.247 6.8 1 5.14
8/12/2021 9:30:00 PM 22.04 71.672 0.248 6.8 0.95 5.06
8/12/2021 9:45:00 PM 22.01 71.618 0.248 6.8 0.89 4.99
8/12/2021 10:00:00 PM 21.97 71.546 0.248 6.8 0.85 4.96
8/12/2021 10:15:00 PM 21.94 71.492 0.248 6.8 0.78 4.92
8/12/2021 10:30:00 PM 21.92 71.456 0.247 6.79 0.79 4.89
8/12/2021 10:45:00 PM 21.91 71.438 0.246 6.79 0.79 4.83
8/12/2021 11:00:00 PM 21.89 71.402 0.247 6.79 0.81 4.81
8/12/2021 11:15:00 PM 21.88 71.384 0.247 6.79 1.02 4.81
8/12/2021 11:30:00 PM 21.88 71.384 0.246 6.79 0.7 4.78
8/12/2021 11:45:00 PM 21.86 71.348 0.246 6.79 0.89 4.69
8/13/2021 12:00:00 AM 21.86 71.348 0.246 6.79 0.92 4.73
8/13/2021 12:15:00 AM 21.84 71.312 0.246 6.79 0.73 4.76
8/13/2021 12:30:00 AM 21.83 71.294 0.247 6.79 1 4.7
8/13/2021 12:45:00 AM 21.82 71.276 0.246 6.79 0.86 4.69
8/13/2021 1:00:00 AM 21.82 71.276 0.245 6.79 1.29 4.67
8/13/2021 1:15:00 AM 21.81 71.258 0.246 6.79 0.82 4.66
8/13/2021 1:30:00 AM 21.8 71.24 0.246 6.79 0.93 4.66
8/13/2021 1:45:00 AM 21.78 71.204 0.246 6.79 0.76 4.66
8/13/2021 2:00:00 AM 21.77 71.186 0.246 6.79 0.83 4.66
8/13/2021 2:15:00 AM 21.76 71.168 0.246 6.79 0.79 4.67
8/13/2021 2:30:00 AM 21.74 71.132 0.246 6.79 0.75 4.68
8/13/2021 2:45:00 AM 21.72 71.096 0.248 6.79 0.74 4.67
8/13/2021 3:00:00 AM 21.71 71.078 0.248 6.79 0.74 4.68
8/13/2021 3:15:00 AM 21.7 71.06 0.247 6.79 0.77 4.65
8/13/2021 3:30:00 AM 21.68 71.024 0.248 6.79 0.96 4.62
8/13/2021 3:45:00 AM 21.67 71.006 0.248 6.79 0.86 4.65
8/13/2021 4:00:00 AM 21.66 70.988 0.248 6.79 0.89 4.67
8/13/2021 4:15:00 AM 21.65 70.97 0.246 6.79 0.68 4.64
8/13/2021 4:30:00 AM 21.62 70.916 0.247 6.79 1.05 4.63
8/13/2021 4:45:00 AM 21.59 70.862 0.248 6.79 0.73 4.68
8/13/2021 5:00:00 AM 21.56 70.808 0.248 6.79 1.28 4.68
8/13/2021 5:15:00 AM 21.54 70.772 0.248 6.79 0.88 4.64
8/13/2021 5:30:00 AM 21.51 70.718 0.249 6.79 0.72 4.69
8/13/2021 5:45:00 AM 21.5 70.7 0.248 6.79 0.72 4.67
8/13/2021 6:00:00 AM 21.48 70.664 0.247 6.79 0.84 4.67
8/13/2021 6:15:00 AM 21.46 70.628 0.247 6.79 0.91 4.65
8/13/2021 6:30:00 AM 21.45 70.61 0.247 6.79 0.77 4.67
8/13/2021 6:45:00 AM 21.43 70.574 0.247 6.79 0.89 4.68
8/13/2021 7:00:00 AM 21.42 70.556 0.247 6.79 1.39 4.69
8/13/2021 7:15:00 AM 21.41 70.538 0.246 6.8 2.69 4.74
8/13/2021 7:30:00 AM 21.41 70.538 0.248 6.8 1.88 4.61
8/13/2021 7:45:00 AM 21.42 70.556 0.249 6.81 0.83 5
8/13/2021 8:00:00 AM 21.45 70.61 0.247 6.82 0.87 5.19
8/13/2021 8:15:00 AM 21.51 70.718 0.248 6.83 0.87 5.41
8/13/2021 8:30:00 AM 21.59 70.862 0.249 6.85 0.78 5.74
8/13/2021 8:45:00 AM 21.65 70.97 0.247 6.86 0.84 5.94
8/13/2021 9:00:00 AM 21.73 71.114 0.246 6.87 0.78 6.17
8/13/2021 9:15:00 AM 21.77 71.186 0.249 6.87 1.26 6.27
8/13/2021 9:30:00 AM 21.83 71.294 0.246 6.88 0.72 6.36
8/13/2021 9:45:00 AM 21.88 71.384 0.247 6.88 0.76 6.43
8/13/2021 10:00:00 AM 22 71.6 0.247 6.9 0.82 6.7
8/13/2021 10:15:00 AM 22.18 71.924 0.247 6.92 0.74 7.08
8/13/2021 10:30:00 AM 22.31 72.158 0.252 6.93 0.76 7.34
8/13/2021 10:45:00 AM 22.47 72.446 0.25 6.94 0.82 7.53
8/13/2021 11:00:00 AM 22.62 72.716 0.247 6.95 0.81 7.68
8/13/2021 11:15:00 AM 22.73 72.914 0.25 6.96 0.75 7.84
8/13/2021 11:30:00 AM 22.77 72.986 0.246 6.97 0.77 7.84
8/13/2021 11:45:00 AM 22.94 73.292 0.249 6.98 0.69 8.05
8/13/2021 12:00:00 PM 23.15 73.67 0.25 6.99 0.85 8.21
8/13/2021 12:15:00 PM 23.26 73.868 0.248 7 0.68 8.37
8/13/2021 12:30:00 PM 23.43 74.174 0.247 7 1.14 8.38
8/13/2021 12:45:00 PM 23.63 74.534 0.248 7.01 1.07 8.53
8/13/2021 1:00:00 PM 23.78 74.804 0.246 7.02 0.69 8.6
8/13/2021 1:15:00 PM 23.92 75.056 0.243 7.02 0.76 8.72
8/13/2021 1:30:00 PM 23.98 75.164 0.247 7.02 0.66 8.77
8/13/2021 1:45:00 PM 24.08 75.344 0.243 7.03 0.65 8.92
8/13/2021 2:00:00 PM 24.18 75.524 0.244 7.03 0.69 9.01
8/13/2021 2:15:00 PM 24.22 75.596 0.249 7.04 0.65 9.08
8/13/2021 2:30:00 PM 24.33 75.794 0.242 7.05 0.63 9.11
8/13/2021 2:45:00 PM 24.36 75.848 0.241 7.05 0.64 9.16
8/13/2021 3:00:00 PM 24.34 75.812 0.244 7.05 1.03 9.14
8/13/2021 3:15:00 PM 24.3 75.74 0.248 7.04 0.7 9.04
8/13/2021 3:30:00 PM 24.15 75.47 0.248 7.03 0.78 8.81
8/13/2021 3:45:00 PM 24.01 75.218 0.249 7.01 0.7 8.59
8/13/2021 4:00:00 PM 23.83 74.894 0.249 7 0.67 8.39
8/13/2021 4:15:00 PM 23.72 74.696 0.248 7 0.81 8.33
8/13/2021 4:30:00 PM 23.5 74.3 0.248 6.98 0.71 8.03
8/13/2021 4:45:00 PM 23.33 73.994 0.246 6.95 1.74 7.69
8/13/2021 5:00:00 PM 23.2 73.76 0.245 6.94 0.99 7.51
8/13/2021 5:15:00 PM 23.11 73.598 0.245 6.93 0.69 7.37
8/13/2021 5:30:00 PM 23.06 73.508 0.246 6.93 0.76 7.39
8/13/2021 5:45:00 PM 23 73.4 0.245 6.92 1.3 7.35
8/13/2021 6:00:00 PM 22.91 73.238 0.245 6.91 0.79 7.12
8/13/2021 6:15:00 PM 22.83 73.094 0.246 6.9 3.09 6.87
8/13/2021 6:30:00 PM 22.72 72.896 0.246 6.88 0.99 6.55
8/13/2021 6:45:00 PM 22.65 72.77 0.245 6.87 1.07 6.28
8/13/2021 7:00:00 PM 22.61 72.698 0.244 6.86 1.29 6.17
8/13/2021 7:15:00 PM 22.58 72.644 0.25 6.86 1.15 6.16
8/13/2021 7:30:00 PM 22.56 72.608 0.247 6.86 1.14 6.19
8/13/2021 7:45:00 PM 22.54 72.57201 0.248 6.86 0.91 6.16
8/13/2021 8:00:00 PM 22.51 72.518 0.249 6.86 1.04 6.12
8/13/2021 8:15:00 PM 22.47 72.446 0.251 6.85 1.25 5.9
8/13/2021 8:30:00 PM 22.44 72.392 0.25 6.84 1.07 5.69
8/13/2021 8:45:00 PM 22.39 72.302 0.252 6.83 0.87 5.49
8/13/2021 9:00:00 PM 22.35 72.23 0.252 6.83 0.92 5.37
8/13/2021 9:15:00 PM 22.31 72.158 0.252 6.82 1.26 5.26
8/13/2021 9:30:00 PM 22.28 72.104 0.249 6.82 0.95 5.17
8/13/2021 9:45:00 PM 22.24 72.032 0.25 6.82 0.77 5.11
8/13/2021 10:00:00 PM 22.21 71.978 0.253 6.82 0.79 5.06
8/13/2021 10:15:00 PM 22.18 71.924 0.252 6.82 0.91 5.02
8/13/2021 10:30:00 PM 22.17 71.906 0.252 6.82 0.8 4.98
8/13/2021 10:45:00 PM 22.16 71.888 0.249 6.82 0.81 4.94
8/13/2021 11:00:00 PM 22.15 71.87 0.251 6.82 0.79 4.95
8/13/2021 11:15:00 PM 22.14 71.852 0.253 6.82 1 4.92
8/13/2021 11:30:00 PM 22.12 71.816 0.251 6.82 0.91 4.91
8/13/2021 11:45:00 PM 22.11 71.798 0.248 6.82 0.88 4.82
8/14/2021 12:00:00 AM 22.08 71.744 0.252 6.82 0.79 4.83
8/14/2021 12:15:00 AM 22.06 71.708 0.251 6.82 0.97 4.86
8/14/2021 12:30:00 AM 22.04 71.672 0.253 6.82 1.23 4.87
8/14/2021 12:45:00 AM 22.01 71.618 0.253 6.82 0.81 4.88
8/14/2021 1:00:00 AM 21.99 71.582 0.252 6.82 1.01 4.87
8/14/2021 1:15:00 AM 21.97 71.546 0.252 6.82 0.83 4.87
8/14/2021 1:30:00 AM 21.95 71.51 0.252 6.82 0.76 4.86
8/14/2021 1:45:00 AM 21.93 71.474 0.252 6.82 1 4.86
8/14/2021 2:00:00 AM 21.91 71.438 0.251 6.82 0.81 4.83
8/14/2021 2:15:00 AM 21.9 71.42 0.251 6.82 0.91 4.81
8/14/2021 2:30:00 AM 21.89 71.402 0.25 6.82 0.83 4.83
8/14/2021 2:45:00 AM 21.88 71.384 0.25 6.82 0.83 4.82
8/14/2021 3:00:00 AM 21.86 71.348 0.251 6.82 0.74 4.82
8/14/2021 3:15:00 AM 21.86 71.348 0.251 6.81 0.87 4.78
8/14/2021 3:30:00 AM 21.86 71.348 0.251 6.81 1.22 4.74
8/14/2021 3:45:00 AM 21.84 71.312 0.252 6.81 0.72 4.77
8/14/2021 4:00:00 AM 21.83 71.294 0.251 6.81 0.78 4.76
8/14/2021 4:15:00 AM 21.82 71.276 0.251 6.81 0.81 4.76
8/14/2021 4:30:00 AM 21.81 71.258 0.251 6.81 0.85 4.73
8/14/2021 4:45:00 AM 21.8 71.24 0.251 6.81 1.03 4.78
8/14/2021 5:00:00 AM 21.79 71.222 0.251 6.81 0.88 4.75
8/14/2021 5:15:00 AM 21.77 71.186 0.251 6.81 0.79 4.75
8/14/2021 5:30:00 AM 21.76 71.168 0.251 6.81 0.87 4.76
8/14/2021 5:45:00 AM 21.75 71.15 0.251 6.81 0.81 4.76
8/14/2021 6:00:00 AM 21.74 71.132 0.252 6.81 0.87 4.81
8/14/2021 6:15:00 AM 21.74 71.132 0.253 6.81 0.84 4.8
8/14/2021 6:30:00 AM 21.74 71.132 0.252 6.81 0.79 4.8
8/14/2021 6:45:00 AM 21.73 71.114 0.253 6.81 0.8 4.81
8/14/2021 7:00:00 AM 21.73 71.114 0.253 6.81 0.89 4.82
8/14/2021 7:15:00 AM 21.73 71.114 0.253 6.81 0.79 4.83
8/14/2021 7:30:00 AM 21.73 71.114 0.256 6.81 0.79 4.86
8/14/2021 7:45:00 AM 21.73 71.114 0.256 6.83 0.76 5.08
8/14/2021 8:00:00 AM 21.73 71.114 0.257 6.83 1.26 5.24
8/14/2021 8:15:00 AM 21.72 71.096 0.254 6.84 1.26 5.3
8/14/2021 8:30:00 AM 21.73 71.114 0.254 6.85 0.75 5.48
8/14/2021 8:45:00 AM 21.73 71.114 0.254 6.85 0.74 5.58
8/14/2021 9:00:00 AM 21.74 71.132 0.253 6.86 0.79 5.72
8/14/2021 9:15:00 AM 21.75 71.15 0.253 6.86 0.81 5.83
8/14/2021 9:30:00 AM 21.76 71.168 0.254 6.87 0.78 5.98
8/14/2021 9:45:00 AM 21.77 71.186 0.254 6.88 0.76 6.08
8/14/2021 10:00:00 AM 21.76 71.168 0.253 6.88 0.93 6.14
8/14/2021 10:15:00 AM 21.76 71.168 0.253 6.88 0.73 6.23
8/14/2021 10:30:00 AM 21.76 71.168 0.253 6.89 0.85 6.37
8/14/2021 10:45:00 AM 21.8 71.24 0.252 6.9 0.78 6.56
8/14/2021 11:00:00 AM 21.82 71.276 0.252 6.92 0.75 6.86
8/14/2021 11:15:00 AM 21.85 71.33 0.251 6.92 0.73 7.03
8/14/2021 11:30:00 AM 21.84 71.312 0.251 6.92 0.84 7.01
8/14/2021 11:45:00 AM 21.84 71.312 0.25 6.92 0.72 6.95
8/14/2021 12:00:00 PM 21.84 71.312 0.25 6.92 0.72 6.96
8/14/2021 12:15:00 PM 21.91 71.438 0.251 6.94 0.68 7.33
8/14/2021 12:30:00 PM 22.03 71.654 0.251 6.96 0.8 7.71
8/14/2021 12:45:00 PM 22.09 71.762 0.25 6.97 0.76 7.84
8/14/2021 1:00:00 PM 22.1 71.78 0.249 6.97 0.72 7.9
8/14/2021 1:15:00 PM 22.12 71.816 0.248 6.98 0.75 7.89
8/14/2021 1:30:00 PM 22.16 71.888 0.251 6.98 0.72 7.97
8/14/2021 1:45:00 PM 22.26 72.068 0.248 6.99 0.65 8.15
8/14/2021 2:00:00 PM 22.44 72.392 0.249 7.01 0.65 8.48
8/14/2021 2:15:00 PM 22.55 72.59 0.248 7.02 0.72 8.61
8/14/2021 2:30:00 PM 22.62 72.716 0.251 7.03 0.6 8.68
8/14/2021 2:45:00 PM 22.68 72.824 0.249 7.03 0.62 8.76
8/14/2021 3:00:00 PM 22.78 73.004 0.245 7.04 0.77 8.88
8/14/2021 3:15:00 PM 22.98 73.364 0.247 7.04 0.66 9.04
8/14/2021 3:30:00 PM 23.1 73.58 0.246 7.04 0.65 8.93
8/14/2021 3:45:00 PM 23.17 73.706 0.246 7.04 0.67 8.99
8/14/2021 4:00:00 PM 23.29 73.922 0.246 7.04 0.75 9.02
8/14/2021 4:15:00 PM 23.27 73.886 0.248 7.04 0.73 8.9
8/14/2021 4:30:00 PM 23.23 73.814 0.247 7.03 0.92 8.71
8/14/2021 4:45:00 PM 23.19 73.742 0.248 7.02 0.71 8.67
8/14/2021 5:00:00 PM 23.16 73.688 0.248 7.01 0.77 8.52
8/14/2021 5:15:00 PM 23.15 73.67 0.248 7.01 0.98 8.45
8/14/2021 5:30:00 PM 23.1 73.58 0.247 7.01 0.83 8.37
8/14/2021 5:45:00 PM 23.01 73.418 0.252 6.99 1.42 8.16
8/14/2021 6:00:00 PM 22.95 73.31 0.251 6.98 2.15 8.02
8/14/2021 6:15:00 PM 22.86 73.148 0.251 6.97 1.02 7.9
8/14/2021 6:30:00 PM 22.74 72.932 0.25 6.96 0.94 7.76
8/14/2021 6:45:00 PM 22.6 72.68 0.251 6.94 0.75 7.46
8/14/2021 7:00:00 PM 22.49 72.482 0.251 6.93 0.7 7.21
8/14/2021 7:15:00 PM 22.4 72.32 0.252 6.92 0.8 7.01
8/14/2021 7:30:00 PM 22.31 72.158 0.25 6.9 0.69 6.78
8/14/2021 7:45:00 PM 22.21 71.978 0.248 6.89 0.85 6.58
8/14/2021 8:00:00 PM 22.13 71.834 0.25 6.88 0.72 6.37
8/14/2021 8:15:00 PM 22.04 71.672 0.251 6.87 0.7 6.14
8/14/2021 8:30:00 PM 21.96 71.528 0.251 6.86 0.68 5.95
8/14/2021 8:45:00 PM 21.88 71.384 0.251 6.84 0.78 5.75
8/14/2021 9:00:00 PM 21.8 71.24 0.253 6.84 1.15 5.59
8/14/2021 9:15:00 PM 21.73 71.114 0.252 6.83 0.68 5.47
8/14/2021 9:30:00 PM 21.67 71.006 0.251 6.82 0.76 5.36
8/14/2021 9:45:00 PM 21.63 70.934 0.252 6.82 0.91 5.22
8/14/2021 10:00:00 PM 21.59 70.862 0.252 6.82 1.01 5.22
8/14/2021 10:15:00 PM 21.53 70.754 0.251 6.82 0.79 5.17
8/14/2021 10:30:00 PM 21.5 70.7 0.251 6.82 0.95 5.13
8/14/2021 10:45:00 PM 21.46 70.628 0.252 6.81 0.92 5.07
8/14/2021 11:00:00 PM 21.43 70.574 0.252 6.81 1.28 5.07
8/14/2021 11:15:00 PM 21.39 70.502 0.252 6.81 0.91 5.02
8/14/2021 11:30:00 PM 21.36 70.448 0.252 6.81 0.76 4.99
8/14/2021 11:45:00 PM 21.33 70.394 0.252 6.81 0.75 4.96
8/15/2021 12:00:00 AM 21.28 70.304 0.252 6.81 0.72 4.96
8/15/2021 12:15:00 AM 21.24 70.232 0.251 6.81 0.77 4.93
8/15/2021 12:30:00 AM 21.2 70.16 0.252 6.81 0.66 4.91
8/15/2021 12:45:00 AM 21.17 70.106 0.252 6.81 0.69 4.96
8/15/2021 1:00:00 AM 21.12 70.016 0.252 6.81 0.83 4.95
8/15/2021 1:15:00 AM 21.1 69.98 0.251 6.81 0.91 4.96
8/15/2021 1:30:00 AM 21.06 69.908 0.251 6.81 0.81 4.99
8/15/2021 1:45:00 AM 21.02 69.836 0.252 6.81 0.8 5
8/15/2021 2:00:00 AM 20.98 69.764 0.253 6.81 0.77 5.02
8/15/2021 2:15:00 AM 20.95 69.71 0.252 6.81 0.71 5.02
8/15/2021 2:30:00 AM 20.91 69.638 0.253 6.82 0.72 5.07
8/15/2021 2:45:00 AM 20.88 69.584 0.253 6.82 0.79 5.07
8/15/2021 3:00:00 AM 20.85 69.53 0.254 6.82 0.69 5.08
8/15/2021 3:15:00 AM 20.81 69.458 0.253 6.82 0.73 5.1
8/15/2021 3:30:00 AM 20.8 69.44 0.254 6.82 0.7 5.11
8/15/2021 3:45:00 AM 20.78 69.404 0.253 6.82 0.67 5.13
8/15/2021 4:00:00 AM 20.74 69.332 0.252 6.82 0.67 5.09
8/15/2021 4:15:00 AM 20.74 69.332 0.254 6.82 0.73 5.11
8/15/2021 4:30:00 AM 20.72 69.296 0.255 6.82 0.83 5.15
8/15/2021 4:45:00 AM 20.69 69.242 0.256 6.82 0.76 5.17
8/15/2021 5:00:00 AM 20.66 69.188 0.256 6.82 0.72 5.18
8/15/2021 5:15:00 AM 20.62 69.116 0.256 6.82 0.77 5.17
8/15/2021 5:30:00 AM 20.6 69.08 0.255 6.82 0.7 5.2
8/15/2021 5:45:00 AM 20.58 69.044 0.255 6.82 0.78 5.2
8/15/2021 6:00:00 AM 20.54 68.972 0.255 6.83 1.05 5.2
8/15/2021 6:15:00 AM 20.52 68.936 0.255 6.83 0.77 5.21
8/15/2021 6:30:00 AM 20.51 68.918 0.256 6.83 0.77 5.22
8/15/2021 6:45:00 AM 20.48 68.864 0.255 6.83 0.69 5.23
8/15/2021 7:00:00 AM 20.46 68.828 0.255 6.83 0.8 5.31
8/15/2021 7:15:00 AM 20.45 68.81 0.253 6.83 0.71 5.36
8/15/2021 7:30:00 AM 20.5 68.9 0.254 6.84 0.62 5.45
8/15/2021 7:45:00 AM 20.54 68.972 0.254 6.84 0.76 5.58
8/15/2021 8:00:00 AM 20.56 69.008 0.254 6.85 0.67 5.7
8/15/2021 8:15:00 AM 20.62 69.116 0.254 6.86 0.61 5.89
8/15/2021 8:30:00 AM 20.68 69.224 0.254 6.87 0.7 6.08
8/15/2021 8:45:00 AM 20.73 69.314 0.254 6.88 0.66 6.31
8/15/2021 9:00:00 AM 20.77 69.386 0.254 6.88 0.65 6.4
8/15/2021 9:15:00 AM 20.85 69.53 0.254 6.89 0.87 6.6
8/15/2021 9:30:00 AM 20.91 69.638 0.253 6.9 0.7 6.73
8/15/2021 9:45:00 AM 21.02 69.836 0.259 6.92 0.57 7.03
8/15/2021 10:00:00 AM 21.08 69.944 0.254 6.92 0.62 7.09
8/15/2021 10:15:00 AM 21.2 70.16 0.253 6.92 0.67 7.15
8/15/2021 10:30:00 AM 21.37 70.466 0.257 6.93 0.58 7.34
8/15/2021 10:45:00 AM 21.5 70.7 0.255 6.94 0.66 7.49
8/15/2021 11:00:00 AM 21.57 70.826 0.253 6.95 0.63 7.61
8/15/2021 11:15:00 AM 21.74 71.132 0.254 6.96 0.63 7.78
8/15/2021 11:30:00 AM 21.84 71.312 0.254 6.97 0.62 7.86
8/15/2021 11:45:00 AM 21.96 71.528 0.253 6.97 0.64 7.96
8/15/2021 12:00:00 PM 22.04 71.672 0.253 6.97 0.54 7.99
8/15/2021 12:15:00 PM 22.17 71.906 0.253 6.98 0.72 8.15
8/15/2021 12:30:00 PM 22.3 72.14 0.253 6.99 0.66 8.25
8/15/2021 12:45:00 PM 22.5 72.5 0.254 6.99 0.59 8.35
8/15/2021 1:00:00 PM 22.6 72.68 0.253 7 1.27 8.47
8/15/2021 1:15:00 PM 22.73 72.914 0.253 7.01 0.61 8.6
8/15/2021 1:30:00 PM 22.83 73.094 0.254 7.02 0.62 8.71
8/15/2021 1:45:00 PM 22.9 73.22 0.254 7.02 0.53 8.85
8/15/2021 2:00:00 PM 22.93 73.274 0.251 7.02 0.57 8.94
8/15/2021 2:15:00 PM 23 73.4 0.251 7.03 0.58 9.02
8/15/2021 2:30:00 PM 23.09 73.562 0.252 7.03 0.52 9.17
8/15/2021 2:45:00 PM 23.2 73.76 0.252 7.03 0.52 9.19
8/15/2021 3:00:00 PM 23.29 73.922 0.252 7.04 0.97 9.28
8/15/2021 3:15:00 PM 23.33 73.994 0.252 7.05 0.56 9.36
8/15/2021 3:30:00 PM 23.3 73.94 0.251 7.05 0.8 9.29
8/15/2021 3:45:00 PM 23.26 73.868 0.25 7.04 0.64 9.29
8/15/2021 4:00:00 PM 23.16 73.688 0.254 7.03 0.65 9.14
8/15/2021 4:15:00 PM 23.09 73.562 0.249 7.03 0.95 9.04
8/15/2021 4:30:00 PM 23.05 73.49 0.25 7.02 0.74 9
8/15/2021 4:45:00 PM 23.02 73.436 0.25 7.02 0.65 8.88
8/15/2021 5:00:00 PM 22.98 73.364 0.25 7.01 0.66 8.81
8/15/2021 5:15:00 PM 22.89 73.202 0.251 7 0.62 8.67
8/15/2021 5:30:00 PM 22.78 73.004 0.25 7 0.68 8.53
8/15/2021 5:45:00 PM 22.63 72.734 0.251 6.98 0.74 8.3
8/15/2021 6:00:00 PM 22.56 72.608 0.25 6.97 0.99 8.21
8/15/2021 6:15:00 PM 22.48 72.464 0.25 6.96 0.64 8.16
8/15/2021 6:30:00 PM 22.39 72.302 0.252 6.95 0.72 8
8/15/2021 6:45:00 PM 22.3 72.14 0.25 6.94 0.55 7.8
8/15/2021 7:00:00 PM 22.21 71.978 0.251 6.93 0.67 7.55
8/15/2021 7:15:00 PM 22.13 71.834 0.251 6.92 0.56 7.31
8/15/2021 7:30:00 PM 22.03 71.654 0.252 6.9 0.64 7.03
8/15/2021 7:45:00 PM 21.93 71.474 0.252 6.88 1.44 6.71
8/15/2021 8:00:00 PM 21.84 71.312 0.252 6.87 0.73 6.45
8/15/2021 8:15:00 PM 21.78 71.204 0.253 6.86 0.62 6.2
8/15/2021 8:30:00 PM 21.71 71.078 0.254 6.84 0.71 5.94
8/15/2021 8:45:00 PM 21.65 70.97 0.255 6.83 0.73 5.76
8/15/2021 9:00:00 PM 21.59 70.862 0.254 6.83 0.67 5.66
8/15/2021 9:15:00 PM 21.53 70.754 0.253 6.82 0.71 5.54
8/15/2021 9:30:00 PM 21.48 70.664 0.253 6.82 1.28 5.44
8/15/2021 9:45:00 PM 21.44 70.592 0.252 6.81 0.8 5.3
8/15/2021 10:00:00 PM 21.39 70.502 0.253 6.81 0.67 5.22
8/15/2021 10:15:00 PM 21.33 70.394 0.253 6.81 0.93 5.23
8/15/2021 10:30:00 PM 21.29 70.32201 0.254 6.81 0.73 5.16
8/15/2021 10:45:00 PM 21.24 70.232 0.255 6.81 0.62 5.11
8/15/2021 11:00:00 PM 21.2 70.16 0.254 6.81 0.6 5.08
8/15/2021 11:15:00 PM 21.17 70.106 0.254 6.81 1.12 5.08
8/15/2021 11:30:00 PM 21.15 70.07 0.254 6.8 0.89 5.06
8/15/2021 11:45:00 PM 21.11 69.998 0.253 6.8 0.74 5.02
8/16/2021 12:00:00 AM 21.09 69.962 0.254 6.8 0.77 4.97
8/16/2021 12:15:00 AM 21.07 69.926 0.255 6.8 0.79 5.02
8/16/2021 12:30:00 AM 21.06 69.908 0.256 6.8 0.78 5.02
8/16/2021 12:45:00 AM 21.03 69.854 0.257 6.8 0.73 5.01
8/16/2021 1:00:00 AM 21 69.8 0.258 6.8 0.73 5.02
8/16/2021 1:15:00 AM 20.98 69.764 0.258 6.8 0.73 5.02
8/16/2021 1:30:00 AM 20.97 69.746 0.257 6.8 0.65 5.03
8/16/2021 1:45:00 AM 20.94 69.692 0.257 6.8 0.79 5.02
8/16/2021 2:00:00 AM 20.92 69.656 0.257 6.8 0.72 5.02
8/16/2021 2:15:00 AM 20.9 69.62 0.258 6.8 0.67 5.01
8/16/2021 2:30:00 AM 20.86 69.548 0.258 6.8 0.62 5
8/16/2021 2:45:00 AM 20.87 69.566 0.259 6.8 0.61 4.99
8/16/2021 3:00:00 AM 20.85 69.53 0.258 6.8 0.64 4.99
8/16/2021 3:15:00 AM 20.85 69.53 0.258 6.8 0.66 4.97
8/16/2021 3:30:00 AM 20.84 69.512 0.258 6.8 0.61 4.98
8/16/2021 3:45:00 AM 20.83 69.494 0.257 6.8 0.82 4.98
8/16/2021 4:00:00 AM 20.81 69.458 0.257 6.8 0.59 4.98
8/16/2021 4:15:00 AM 20.8 69.44 0.257 6.8 1.08 4.98
8/16/2021 4:30:00 AM 20.79 69.422 0.259 6.8 0.7 5
8/16/2021 4:45:00 AM 20.78 69.404 0.259 6.8 0.64 5.01
8/16/2021 5:00:00 AM 20.76 69.368 0.259 6.8 0.66 5
8/16/2021 5:15:00 AM 20.76 69.368 0.257 6.8 0.78 4.99
8/16/2021 5:30:00 AM 20.73 69.314 0.255 6.8 0.75 4.97
8/16/2021 5:45:00 AM 20.74 69.332 0.257 6.8 0.61 5
8/16/2021 6:00:00 AM 20.73 69.314 0.258 6.8 0.64 4.99
8/16/2021 6:15:00 AM 20.69 69.242 0.258 6.8 0.7 4.99
8/16/2021 6:30:00 AM 20.68 69.224 0.259 6.8 0.62 4.98
8/16/2021 6:45:00 AM 20.68 69.224 0.259 6.8 0.7 5.01
8/16/2021 7:00:00 AM 20.66 69.188 0.258 6.81 0.74 5.06
8/16/2021 7:15:00 AM 20.66 69.188 0.258 6.81 0.66 5.12
8/16/2021 7:30:00 AM 20.66 69.188 0.258 6.81 0.73 5.24
8/16/2021 7:45:00 AM 20.68 69.224 0.258 6.82 0.69 5.37
8/16/2021 8:00:00 AM 20.69 69.242 0.258 6.83 0.65 5.49
8/16/2021 8:15:00 AM 20.73 69.314 0.258 6.84 0.69 5.67
8/16/2021 8:30:00 AM 20.75 69.35 0.261 6.84 0.77 5.83
8/16/2021 8:45:00 AM 20.79 69.422 0.257 6.85 0.65 6
8/16/2021 9:00:00 AM 20.83 69.494 0.26 6.86 0.76 6.14
8/16/2021 9:15:00 AM 20.91 69.638 0.26 6.87 0.61 6.45
8/16/2021 9:30:00 AM 21.01 69.818 0.259 6.88 0.64 6.61
8/16/2021 9:45:00 AM 21.12 70.016 0.259 6.89 0.63 6.87
8/16/2021 10:00:00 AM 21.23 70.214 0.258 6.9 0.76 7.08
8/16/2021 10:15:00 AM 21.3 70.34 0.258 6.91 0.59 7.22
8/16/2021 10:30:00 AM 21.4 70.52 0.256 6.92 0.57 7.4
8/16/2021 10:45:00 AM 21.48 70.664 0.258 6.93 0.73 7.54
8/16/2021 11:00:00 AM 21.54 70.772 0.257 6.93 0.6 7.64
8/16/2021 11:15:00 AM 21.61 70.898 0.256 6.93 0.66 7.71
8/16/2021 11:30:00 AM 21.66 70.988 0.256 6.94 0.56 7.8
8/16/2021 11:45:00 AM 21.76 71.168 0.257 6.95 0.65 7.97
8/16/2021 12:00:00 PM 21.84 71.312 0.258 6.95 0.72 8.06
8/16/2021 12:15:00 PM 21.89 71.402 0.256 6.96 0.55 8.16
8/16/2021 12:30:00 PM 21.93 71.474 0.256 6.96 0.65 8.18
8/16/2021 12:45:00 PM 21.98 71.564 0.255 6.96 0.59 8.24
8/16/2021 1:00:00 PM 22.05 71.69 0.256 6.96 0.53 8.31
8/16/2021 1:15:00 PM 22.16 71.888 0.256 6.97 0.63 8.53
8/16/2021 1:30:00 PM 22.27 72.086 0.255 6.98 0.55 8.62
8/16/2021 1:45:00 PM 22.43 72.374 0.256 6.99 0.6 8.69
8/16/2021 2:00:00 PM 22.56 72.608 0.255 6.99 0.57 8.88
8/16/2021 2:15:00 PM 22.6 72.68 0.256 7 0.63 8.89
8/16/2021 2:30:00 PM 22.62 72.716 0.255 7 0.73 8.94
8/16/2021 2:45:00 PM 22.56 72.608 0.256 7 0.69 8.89
8/16/2021 3:00:00 PM 22.48 72.464 0.257 6.99 0.67 8.82
8/16/2021 3:15:00 PM 22.43 72.374 0.256 6.98 0.62 8.66
8/16/2021 3:30:00 PM 22.39 72.302 0.257 6.97 0.59 8.58
8/16/2021 3:45:00 PM 22.38 72.284 0.257 6.98 0.67 8.58
8/16/2021 4:00:00 PM 22.36 72.248 0.255 6.97 0.75 8.58
8/16/2021 4:15:00 PM 22.34 72.212 0.256 6.97 0.67 8.54
8/16/2021 4:30:00 PM 22.29 72.122 0.256 6.97 0.59 8.44
8/16/2021 4:45:00 PM 22.21 71.978 0.256 6.95 0.62 8.15
8/16/2021 5:00:00 PM 22.12 71.816 0.256 6.93 0.58 7.82
8/16/2021 5:15:00 PM 22.06 71.708 0.257 6.92 0.56 7.59
8/16/2021 5:30:00 PM 22.02 71.636 0.257 6.91 0.8 7.51
8/16/2021 5:45:00 PM 21.99 71.582 0.257 6.91 0.87 7.46
8/16/2021 6:00:00 PM 21.96 71.528 0.256 6.9 0.6 7.44
8/16/2021 6:15:00 PM 21.92 71.456 0.256 6.9 0.59 7.37
8/16/2021 6:30:00 PM 21.89 71.402 0.256 6.89 0.67 7.26
8/16/2021 6:45:00 PM 21.84 71.312 0.257 6.88 0.65 7.08
8/16/2021 7:00:00 PM 21.81 71.258 0.256 6.88 0.77 6.95
8/16/2021 7:15:00 PM 21.77 71.186 0.257 6.87 0.78 6.81
8/16/2021 7:30:00 PM 21.73 71.114 0.255 6.86 0.69 6.58
8/16/2021 7:45:00 PM 21.69 71.042 0.259 6.85 0.62 6.39
8/16/2021 8:00:00 PM 21.65 70.97 0.258 6.84 0.62 6.2
8/16/2021 8:15:00 PM 21.61 70.898 0.258 6.83 0.74 5.94
8/16/2021 8:30:00 PM 21.57 70.826 0.26 6.82 0.66 5.7
8/16/2021 8:45:00 PM 21.53 70.754 0.26 6.81 1.07 5.53
8/16/2021 9:00:00 PM 21.49 70.682 0.261 6.8 0.65 5.38
8/16/2021 9:15:00 PM 21.46 70.628 0.26 6.8 0.72 5.25
8/16/2021 9:30:00 PM 21.43 70.574 0.26 6.79 0.8 5.17
8/16/2021 9:45:00 PM 21.39 70.502 0.26 6.79 1.1 5.06
8/16/2021 10:00:00 PM 21.36 70.448 0.26 6.79 0.78 5.01
8/16/2021 10:15:00 PM 21.34 70.412 0.26 6.79 0.75 4.99
8/16/2021 10:30:00 PM 21.32 70.376 0.26 6.79 0.96 4.95
8/16/2021 10:45:00 PM 21.31 70.358 0.259 6.79 0.65 4.9
8/16/2021 11:00:00 PM 21.29 70.32201 0.26 6.78 1.64 4.84
8/16/2021 11:15:00 PM 21.28 70.304 0.26 6.78 0.64 4.79
8/16/2021 11:30:00 PM 21.27 70.286 0.26 6.78 0.68 4.72
8/16/2021 11:45:00 PM 21.26 70.268 0.26 6.78 0.92 4.73
8/17/2021 12:00:00 AM 21.25 70.25 0.261 6.78 0.75 4.75
8/17/2021 12:15:00 AM 21.24 70.232 0.261 6.78 0.77 4.69
8/17/2021 12:30:00 AM 21.23 70.214 0.261 6.77 1.85 4.66
8/17/2021 12:45:00 AM 21.22 70.196 0.26 6.77 0.76 4.62
8/17/2021 1:00:00 AM 21.21 70.17799 0.26 6.77 0.71 4.58
8/17/2021 1:15:00 AM 21.2 70.16 0.261 6.77 0.75 4.57
8/17/2021 1:30:00 AM 21.2 70.16 0.261 6.77 0.87 4.56
8/17/2021 1:45:00 AM 21.19 70.142 0.261 6.77 0.71 4.56
8/17/2021 2:00:00 AM 21.18 70.124 0.261 6.77 0.79 4.49
8/17/2021 2:15:00 AM 21.17 70.106 0.261 6.77 0.71 4.47
8/17/2021 2:30:00 AM 21.17 70.106 0.261 6.77 0.66 4.51
8/17/2021 2:45:00 AM 21.16 70.088 0.261 6.77 0.73 4.5
8/17/2021 3:00:00 AM 21.15 70.07 0.262 6.77 0.67 4.51
8/17/2021 3:15:00 AM 21.14 70.052 0.264 6.77 0.65 4.56
8/17/2021 3:30:00 AM 21.13 70.034 0.263 6.77 0.72 4.56
8/17/2021 3:45:00 AM 21.12 70.016 0.265 6.78 0.63 4.62
8/17/2021 4:00:00 AM 21.12 70.016 0.265 6.78 0.68 4.65
8/17/2021 4:15:00 AM 21.11 69.998 0.264 6.78 0.64 4.63
8/17/2021 4:30:00 AM 21.11 69.998 0.265 6.78 1.21 4.65
8/17/2021 4:45:00 AM 21.1 69.98 0.265 6.78 0.63 4.62
8/17/2021 5:00:00 AM 21.11 69.998 0.263 6.78 0.65 4.61
8/17/2021 5:15:00 AM 21.11 69.998 0.264 6.78 0.55 4.59
8/17/2021 5:30:00 AM 21.11 69.998 0.264 6.78 0.58 4.62
8/17/2021 5:45:00 AM 21.11 69.998 0.265 6.78 0.58 4.61
8/17/2021 6:00:00 AM 21.1 69.98 0.264 6.78 0.59 4.62
8/17/2021 6:15:00 AM 21.11 69.998 0.261 6.78 0.6 4.65
8/17/2021 6:30:00 AM 21.11 69.998 0.267 6.78 0.69 4.64
8/17/2021 6:45:00 AM 21.11 69.998 0.26 6.78 0.58 4.59
8/17/2021 7:00:00 AM 21.11 69.998 0.264 6.78 0.66 4.63
8/17/2021 7:15:00 AM 21.11 69.998 0.262 6.79 0.68 4.67
8/17/2021 7:30:00 AM 21.11 69.998 0.263 6.79 0.59 4.7
8/17/2021 7:45:00 AM 21.12 70.016 0.267 6.79 0.76 4.74
8/17/2021 8:00:00 AM 21.13 70.034 0.264 6.79 0.65 4.78
8/17/2021 8:15:00 AM 21.15 70.07 0.262 6.79 0.73 4.95
8/17/2021 8:30:00 AM 21.17 70.106 0.266 6.8 0.62 5.11
8/17/2021 8:45:00 AM 21.2 70.16 0.266 6.81 0.57 5.32
8/17/2021 9:00:00 AM 21.23 70.214 0.266 6.82 0.66 5.48
8/17/2021 9:15:00 AM 21.27 70.286 0.266 6.82 0.64 5.62
8/17/2021 9:30:00 AM 21.29 70.32201 0.263 6.83 0.61 5.76
8/17/2021 9:45:00 AM 21.36 70.448 0.265 6.84 0.55 6.09
8/17/2021 10:00:00 AM 21.4 70.52 0.264 6.85 0.6 6.27
8/17/2021 10:15:00 AM 21.47 70.646 0.265 6.87 0.64 6.52
8/17/2021 10:30:00 AM 21.48 70.664 0.265 6.87 0.58 6.56
8/17/2021 10:45:00 AM 21.49 70.682 0.264 6.87 0.63 6.57
8/17/2021 11:00:00 AM 21.5 70.7 0.264 6.87 0.63 6.56
8/17/2021 11:15:00 AM 21.53 70.754 0.261 6.87 0.66 6.6
8/17/2021 11:30:00 AM 21.57 70.826 0.262 6.88 0.61 6.8
8/17/2021 11:45:00 AM 21.6 70.88 0.262 6.89 0.56 6.9
8/17/2021 12:00:00 PM 21.64 70.952 0.263 6.89 0.72 7.04
8/17/2021 12:15:00 PM 21.66 70.988 0.262 6.9 0.54 7.13
8/17/2021 12:30:00 PM 21.69 71.042 0.262 6.9 0.63 7.15
8/17/2021 12:45:00 PM 21.73 71.114 0.261 6.9 0.59 7.28
8/17/2021 1:00:00 PM 21.78 71.204 0.262 6.92 0.68 7.43
8/17/2021 1:15:00 PM 21.79 71.222 0.261 6.92 0.52 7.44
8/17/2021 1:30:00 PM 21.79 71.222 0.26 6.92 0.57 7.44
8/17/2021 1:45:00 PM 21.8 71.24 0.258 6.92 0.52 7.47
8/17/2021 2:00:00 PM 21.9 71.42 0.263 6.92 0.57 7.66
8/17/2021 2:15:00 PM 22.01 71.618 0.261 6.94 0.5 7.79
8/17/2021 2:30:00 PM 22.11 71.798 0.262 6.95 0.77 8.07
8/17/2021 2:45:00 PM 22.16 71.888 0.263 6.96 0.63 8.17
8/17/2021 3:00:00 PM 22.2 71.96 0.262 6.96 0.62 8.2
8/17/2021 3:15:00 PM 22.2 71.96 0.261 6.97 0.58 8.23
8/17/2021 3:30:00 PM 22.19 71.942 0.261 6.97 0.59 8.27
8/17/2021 3:45:00 PM 22.16 71.888 0.261 6.96 1.41 8.23
8/17/2021 4:00:00 PM 22.12 71.816 0.26 6.95 0.63 8.14
8/17/2021 4:15:00 PM 22.08 71.744 0.261 6.94 0.6 7.93
8/17/2021 4:30:00 PM 22.03 71.654 0.261 6.93 0.62 7.74
8/17/2021 4:45:00 PM 22.02 71.636 0.26 6.93 0.79 7.68
8/17/2021 5:00:00 PM 22 71.6 0.26 6.93 0.83 7.64
8/17/2021 5:15:00 PM 21.99 71.582 0.261 6.93 0.74 7.7
8/17/2021 5:30:00 PM 21.97 71.546 0.262 6.93 0.71 7.66
8/17/2021 5:45:00 PM 21.96 71.528 0.261 6.92 0.78 7.59
8/17/2021 6:00:00 PM 21.94 71.492 0.262 6.92 0.71 7.61
8/17/2021 6:15:00 PM 21.92 71.456 0.262 6.91 0.81 7.49
8/17/2021 6:30:00 PM 21.89 71.402 0.262 6.91 0.92 7.44
8/17/2021 6:45:00 PM 21.87 71.366 0.261 6.91 0.78 7.29
8/17/2021 7:00:00 PM 21.83 71.294 0.263 6.89 0.76 7.08
8/17/2021 7:15:00 PM 21.78 71.204 0.262 6.88 0.86 6.82
8/17/2021 7:30:00 PM 21.72 71.096 0.265 6.86 0.83 6.49
8/17/2021 7:45:00 PM 21.67 71.006 0.264 6.85 0.67 6.22
8/17/2021 8:00:00 PM 21.63 70.934 0.264 6.83 0.73 6
8/17/2021 8:15:00 PM 21.59 70.862 0.264 6.82 1.56 5.75
8/17/2021 8:30:00 PM 21.55 70.79 0.263 6.82 0.77 5.6
8/17/2021 8:45:00 PM 21.52 70.736 0.264 6.81 0.78 5.47
8/17/2021 9:00:00 PM 21.48 70.664 0.264 6.8 1.03 5.33
8/17/2021 9:15:00 PM 21.46 70.628 0.264 6.8 0.83 5.24
8/17/2021 9:30:00 PM 21.43 70.574 0.264 6.79 0.7 5.17
8/17/2021 9:45:00 PM 21.4 70.52 0.265 6.79 0.74 5.11
8/17/2021 10:00:00 PM 21.38 70.484 0.264 6.79 0.58 5.04
8/17/2021 10:15:00 PM 21.37 70.466 0.265 6.79 0.68 4.99
8/17/2021 10:30:00 PM 21.35 70.43 0.264 6.79 0.59 4.9
8/17/2021 10:45:00 PM 21.34 70.412 0.265 6.79 0.67 4.91
8/17/2021 11:00:00 PM 21.32 70.376 0.265 6.79 0.74 4.88
8/17/2021 11:15:00 PM 21.31 70.358 0.265 6.78 0.59 4.86
8/17/2021 11:30:00 PM 21.3 70.34 0.264 6.78 0.68 4.83
8/17/2021 11:45:00 PM 21.29 70.32201 0.265 6.78 0.6 4.79
8/18/2021 12:00:00 AM 21.28 70.304 0.264 6.78 0.95 4.77
8/18/2021 12:15:00 AM 21.26 70.268 0.264 6.78 0.61 4.8
8/18/2021 12:30:00 AM 21.25 70.25 0.265 6.78 0.76 4.76
8/18/2021 12:45:00 AM 21.24 70.232 0.263 6.78 0.63 4.72
8/18/2021 1:00:00 AM 21.23 70.214 0.266 6.78 0.58 4.74
8/18/2021 1:15:00 AM 21.23 70.214 0.265 6.78 0.64 4.74
8/18/2021 1:30:00 AM 21.22 70.196 0.264 6.78 0.68 4.67
8/18/2021 1:45:00 AM 21.21 70.17799 0.267 6.78 0.74 4.68
8/18/2021 2:00:00 AM 21.21 70.17799 0.266 6.78 0.78 4.66
8/18/2021 2:15:00 AM 21.2 70.16 0.265 6.78 0.72 4.64
8/18/2021 2:30:00 AM 21.2 70.16 0.265 6.78 1.17 4.66
8/18/2021 2:45:00 AM 21.19 70.142 0.265 6.78 0.6 4.65
8/18/2021 3:00:00 AM 21.18 70.124 0.265 6.78 0.77 4.67
8/18/2021 3:15:00 AM 21.17 70.106 0.267 6.78 0.72 4.68
8/18/2021 3:30:00 AM 21.17 70.106 0.268 6.78 0.62 4.69
8/18/2021 3:45:00 AM 21.16 70.088 0.265 6.78 0.58 4.68
8/18/2021 4:00:00 AM 21.16 70.088 0.264 6.78 0.67 4.67
8/18/2021 4:15:00 AM 21.16 70.088 0.265 6.78 0.78 4.65
8/18/2021 4:30:00 AM 21.15 70.07 0.265 6.78 0.62 4.62
8/18/2021 4:45:00 AM 21.15 70.07 0.264 6.78 0.59 4.62
8/18/2021 5:00:00 AM 21.15 70.07 0.264 6.78 0.72 4.58
8/18/2021 5:15:00 AM 21.15 70.07 0.265 6.78 0.6 4.64
8/18/2021 5:30:00 AM 21.15 70.07 0.264 6.78 0.8 4.61
8/18/2021 5:45:00 AM 21.14 70.052 0.265 6.78 0.79 4.65
8/18/2021 6:00:00 AM 21.14 70.052 0.264 6.78 0.78 4.6
8/18/2021 6:15:00 AM 21.13 70.034 0.264 6.78 0.6 4.6
8/18/2021 6:30:00 AM 21.13 70.034 0.265 6.78 0.64 4.62
8/18/2021 6:45:00 AM 21.13 70.034 0.263 6.78 0.72 4.61
8/18/2021 7:00:00 AM 21.13 70.034 0.264 6.78 0.66 4.6
8/18/2021 7:15:00 AM 21.12 70.016 0.263 6.78 0.74 4.6
8/18/2021 7:30:00 AM 21.13 70.034 0.265 6.78 0.57 4.71
8/18/2021 7:45:00 AM 21.13 70.034 0.263 6.79 0.87 4.77
8/18/2021 8:00:00 AM 21.14 70.052 0.265 6.79 0.66 4.86
8/18/2021 8:15:00 AM 21.15 70.07 0.265 6.79 0.64 4.96
8/18/2021 8:30:00 AM 21.17 70.106 0.266 6.8 0.95 5.06
8/18/2021 8:45:00 AM 21.18 70.124 0.267 6.8 0.76 5.17
8/18/2021 9:00:00 AM 21.2 70.16 0.266 6.81 0.62 5.3
8/18/2021 9:15:00 AM 21.23 70.214 0.265 6.81 0.62 5.36
8/18/2021 9:30:00 AM 21.28 70.304 0.265 6.82 0.71 5.71
8/18/2021 9:45:00 AM 21.34 70.412 0.265 6.84 0.66 5.97
8/18/2021 10:00:00 AM 21.39 70.502 0.265 6.85 1.12 6.22
8/18/2021 10:15:00 AM 21.46 70.628 0.264 6.86 0.65 6.43
8/18/2021 10:30:00 AM 21.54 70.772 0.264 6.87 0.57 6.59
8/18/2021 10:45:00 AM 21.63 70.934 0.264 6.89 0.67 6.89
8/18/2021 11:00:00 AM 21.71 71.078 0.263 6.89 1.13 7.07
8/18/2021 11:15:00 AM 21.86 71.348 0.264 6.91 0.62 7.35
8/18/2021 11:30:00 AM 21.94 71.492 0.262 6.92 0.63 7.51
8/18/2021 11:45:00 AM 21.99 71.582 0.263 6.93 0.57 7.58
8/18/2021 12:00:00 PM 22 71.6 0.262 6.93 0.68 7.62
8/18/2021 12:15:00 PM 21.99 71.582 0.262 6.93 0.68 7.62
8/18/2021 12:30:00 PM 21.96 71.528 0.264 6.92 0.72 7.49
8/18/2021 12:45:00 PM 21.93 71.474 0.26 6.92 0.63 7.51
8/18/2021 1:00:00 PM 21.92 71.456 0.265 6.92 0.7 7.51
8/18/2021 1:15:00 PM 21.9 71.42 0.263 6.92 0.65 7.48
8/18/2021 1:30:00 PM 21.89 71.402 0.264 6.92 0.6 7.48
8/18/2021 1:45:00 PM 21.88 71.384 0.267 6.92 0.64 7.44
8/18/2021 2:00:00 PM 21.87 71.366 0.265 6.92 0.57 7.43
8/18/2021 2:15:00 PM 21.85 71.33 0.265 6.91 0.76 7.4
8/18/2021 2:30:00 PM 21.85 71.33 0.265 6.91 0.62 7.39
8/18/2021 2:45:00 PM 21.89 71.402 0.265 6.92 0.63 7.53
8/18/2021 3:00:00 PM 21.92 71.456 0.265 6.93 0.71 7.64
8/18/2021 3:15:00 PM 21.92 71.456 0.265 6.93 0.64 7.71
8/18/2021 3:30:00 PM 21.92 71.456 0.264 6.93 2.98 7.69
8/18/2021 3:45:00 PM 21.89 71.402 0.265 6.93 0.61 7.62
8/18/2021 4:00:00 PM 21.87 71.366 0.265 6.92 0.76 7.44
8/18/2021 4:15:00 PM 21.85 71.33 0.266 6.91 0.56 7.36
8/18/2021 4:30:00 PM 21.87 71.366 0.265 6.92 0.72 7.39
8/18/2021 4:45:00 PM 21.88 71.384 0.262 6.92 0.62 7.4
8/18/2021 5:00:00 PM 21.86 71.348 0.263 6.91 0.67 7.34
8/18/2021 5:15:00 PM 21.84 71.312 0.262 6.91 0.61 7.24
8/18/2021 5:30:00 PM 21.82 71.276 0.263 6.9 0.79 7.15
8/18/2021 5:45:00 PM 21.78 71.204 0.264 6.89 1.42 6.97
8/18/2021 6:00:00 PM 21.74 71.132 0.265 6.88 1.09 6.76
8/18/2021 6:15:00 PM 21.71 71.078 0.264 6.87 0.92 6.6
8/18/2021 6:30:00 PM 21.67 71.006 0.264 6.86 0.88 6.41
8/18/2021 6:45:00 PM 21.64 70.952 0.263 6.85 0.86 6.15
8/18/2021 7:00:00 PM 21.59 70.862 0.264 6.84 0.77 6.05
8/18/2021 7:15:00 PM 21.57 70.826 0.263 6.84 0.71 6
8/18/2021 7:30:00 PM 21.54 70.772 0.264 6.84 3.24 5.88
8/18/2021 7:45:00 PM 21.51 70.718 0.265 6.83 1.02 5.7
8/18/2021 8:00:00 PM 21.49 70.682 0.268 6.82 0.89 5.59
8/18/2021 8:15:00 PM 21.47 70.646 0.267 6.83 1.4 5.5
8/18/2021 8:30:00 PM 21.46 70.628 0.264 6.82 1.19 5.42
8/18/2021 8:45:00 PM 21.44 70.592 0.264 6.83 1.57 5.37
8/18/2021 9:00:00 PM 21.44 70.592 0.262 6.83 1.86 5.36
8/18/2021 9:15:00 PM 21.44 70.592 0.259 6.84 2.57 5.41
8/18/2021 9:30:00 PM 21.49 70.682 0.249 6.88 7.63 5.79
8/18/2021 9:45:00 PM 21.5 70.7 0.242 6.94 9.25 6.25
8/18/2021 10:00:00 PM 21.53 70.754 0.237 6.95 13.28 6.38
8/18/2021 10:15:00 PM 21.58 70.844 0.239 6.97 8.66 6.43
8/18/2021 10:30:00 PM 21.6 70.88 0.233 7.01 7.71 6.59
8/18/2021 10:45:00 PM 21.67 71.006 0.196 7.11 112.09 7.23
8/18/2021 11:00:00 PM 21.96 71.528 0.141 7.27 838.96 7.87
8/18/2021 11:15:00 PM 21.58 70.844 0.111 7.35 1382.62 8.24
8/18/2021 11:30:00 PM 21.59 70.862 0.098 7.31 1345.07 8.32
8/18/2021 11:45:00 PM 21.45 70.61 0.087 7.24 1296.78 8.41
8/19/2021 12:00:00 AM 21.36 70.448 0.085 7.21 1447.73 8.43
8/19/2021 12:15:00 AM 21.26 70.268 0.078 7.22 2072.1 8.47
8/19/2021 12:30:00 AM 21.22 70.196 0.074 7.23 2168.49 8.51
8/19/2021 12:45:00 AM 21.17 70.106 0.07 7.2 2104.62 8.53
8/19/2021 1:00:00 AM 21.14 70.052 0.067 7.13 2063.65 8.53
8/19/2021 1:15:00 AM 21.12 70.016 0.067 7.1 1763.38 8.53
8/19/2021 1:30:00 AM 21.09 69.962 0.067 7.1 1583.19 8.54
8/19/2021 1:45:00 AM 21.06 69.908 0.069 7.09 1275.6 8.53
8/19/2021 2:00:00 AM 21.04 69.872 0.071 7.09 1424.71 8.52
8/19/2021 2:15:00 AM 21.02 69.836 0.073 7.08 1207.54 8.51
8/19/2021 2:30:00 AM 21.01 69.818 0.075 7.08 900.31 8.49
8/19/2021 2:45:00 AM 21 69.8 0.077 7.08 957.82 8.46
8/19/2021 3:00:00 AM 20.98 69.764 0.079 7.09 1052.09 8.45
8/19/2021 3:15:00 AM 20.96 69.728 0.081 7.09 669 8.44
8/19/2021 3:30:00 AM 20.93 69.674 0.082 7.09 938.2 8.42
8/19/2021 3:45:00 AM 20.9 69.62 0.084 7.09 977.96 8.41
8/19/2021 4:00:00 AM 20.87 69.566 0.085 7.09 590.69 8.4
8/19/2021 4:15:00 AM 20.84 69.512 0.087 7.09 669.84 8.39
8/19/2021 4:30:00 AM 20.81 69.458 0.088 7.08 483.87 8.38
8/19/2021 4:45:00 AM 20.79 69.422 0.09 7.09 441.15 8.37
8/19/2021 5:00:00 AM 20.76 69.368 0.091 7.08 453.47 8.36
8/19/2021 5:15:00 AM 20.74 69.332 0.093 7.08 333.73 8.35
8/19/2021 5:30:00 AM 20.73 69.314 0.094 7.09 372.65 8.34
8/19/2021 5:45:00 AM 20.72 69.296 0.096 7.09 319.87 8.33
8/19/2021 6:00:00 AM 20.71 69.278 0.098 7.09 442.62 8.31
8/19/2021 6:15:00 AM 20.7 69.26 0.099 7.09 291.53 8.3
8/19/2021 6:30:00 AM 20.69 69.242 0.101 7.09 274.66 8.29
8/19/2021 6:45:00 AM 20.69 69.242 0.102 7.09 279.35 8.27
8/19/2021 7:00:00 AM 20.69 69.242 0.104 7.09 383.79 8.27
8/19/2021 7:15:00 AM 20.7 69.26 0.105 7.1 466.4 8.25
8/19/2021 7:30:00 AM 20.71 69.278 0.106 7.11 260.62 8.25
8/19/2021 7:45:00 AM 20.74 69.332 0.108 7.12 231.24 8.24
8/19/2021 8:00:00 AM 20.75 69.35 0.109 7.13 164.55 8.23
8/19/2021 8:15:00 AM 20.77 69.386 0.11 7.13 204.49 8.22
8/19/2021 8:30:00 AM 20.79 69.422 0.111 7.14 150.31 8.21
8/19/2021 8:45:00 AM 20.8 69.44 0.112 7.15 182.29 8.2
8/19/2021 9:00:00 AM 20.85 69.53 0.113 7.15 163.06 8.19
8/19/2021 9:15:00 AM 20.89 69.602 0.114 7.15 133.47 8.18
8/19/2021 9:30:00 AM 20.96 69.728 0.115 7.15 153.66 8.18
8/19/2021 9:45:00 AM 21 69.8 0.116 7.16 140.81 8.16
8/19/2021 10:00:00 AM 21.03 69.854 0.118 7.16 138.78 8.16
8/19/2021 10:15:00 AM 21.05 69.89 0.118 7.16 131.36 8.14
8/19/2021 10:30:00 AM 21.06 69.908 0.119 7.16 150.05 8.14
8/19/2021 10:45:00 AM 21.11 69.998 0.119 7.17 131.9 8.13
8/19/2021 11:00:00 AM 21.16 70.088 0.121 7.16 112.14 8.13
8/19/2021 11:15:00 AM 21.24 70.232 0.121 7.17 110.45 8.11
8/19/2021 11:30:00 AM 21.35 70.43 0.122 7.17 141.91 8.1
8/19/2021 11:45:00 AM 21.43 70.574 0.123 7.17 141.66 8.09
8/19/2021 12:00:00 PM 21.53 70.754 0.123 7.17 93.51 8.07
8/19/2021 12:15:00 PM 21.64 70.952 0.125 7.17 80.88 8.06
8/19/2021 12:30:00 PM 21.75 71.15 0.126 7.18 113.71 8.04
8/19/2021 12:45:00 PM 21.8 71.24 0.126 7.18 79.21 8.03
8/19/2021 1:00:00 PM 21.79 71.222 0.127 7.18 118.72 8.02
8/19/2021 1:15:00 PM 21.83 71.294 0.128 7.18 95.38 8
8/19/2021 1:30:00 PM 21.96 71.528 0.129 7.18 99.06 8
8/19/2021 1:45:00 PM 21.98 71.564 0.13 7.18 85.54 7.98
8/19/2021 2:00:00 PM 22.01 71.618 0.131 7.18 84.61 7.96
8/19/2021 2:15:00 PM 21.99 71.582 0.132 7.19 82.88 7.95
8/19/2021 2:30:00 PM 21.98 71.564 0.132 7.18 82.64 7.94
8/19/2021 2:45:00 PM 21.96 71.528 0.133 7.18 107.42 7.95
8/19/2021 3:00:00 PM 21.98 71.564 0.133 7.18 101.07 7.93
8/19/2021 3:15:00 PM 21.99 71.582 0.134 7.18 49.09 7.93
8/19/2021 3:30:00 PM 22.06 71.708 0.135 7.18 60.16 7.93
8/19/2021 3:45:00 PM 22.16 71.888 0.136 7.19 51.57 7.92
8/19/2021 4:00:00 PM 22.18 71.924 0.136 7.19 61.59 7.9
8/19/2021 4:15:00 PM 22.22 71.996 0.137 7.19 63.8 7.89
8/19/2021 4:30:00 PM 22.22 71.996 0.137 7.19 87.75 7.87
8/19/2021 4:45:00 PM 22.26 72.068 0.138 7.19 69.85 7.87
8/19/2021 5:00:00 PM 22.26 72.068 0.138 7.19 58.2 7.86
8/19/2021 5:15:00 PM 22.24 72.032 0.139 7.19 53.68 7.85
8/19/2021 5:30:00 PM 22.24 72.032 0.14 7.19 74.03 7.84
8/19/2021 5:45:00 PM 22.2 71.96 0.141 7.18 46.73 7.84
8/19/2021 6:00:00 PM 22.2 71.96 0.142 7.18 66.71 7.84
8/19/2021 6:15:00 PM 22.17 71.906 0.142 7.18 61.3 7.83
8/19/2021 6:30:00 PM 22.09 71.762 0.142 7.18 56.31 7.82
8/19/2021 6:45:00 PM 22.04 71.672 0.143 7.18 56.23 7.82
8/19/2021 7:00:00 PM 21.98 71.564 0.144 7.18 54.7 7.82
8/19/2021 7:15:00 PM 21.91 71.438 0.144 7.18 48.15 7.81
8/19/2021 7:30:00 PM 21.84 71.312 0.144 7.18 37.58 7.8
8/19/2021 7:45:00 PM 21.78 71.204 0.145 7.17 40.1 7.8
8/19/2021 8:00:00 PM 21.72 71.096 0.146 7.17 39.2 7.8
8/19/2021 8:15:00 PM 21.67 71.006 0.146 7.17 51.44 7.8
8/19/2021 8:30:00 PM 21.61 70.898 0.147 7.17 45.87 7.81
8/19/2021 8:45:00 PM 21.56 70.808 0.147 7.17 62.8 7.81
8/19/2021 9:00:00 PM 21.51 70.718 0.148 7.16 43.44 7.81
8/19/2021 9:15:00 PM 21.46 70.628 0.148 7.16 35.57 7.81
8/19/2021 9:30:00 PM 21.41 70.538 0.149 7.16 35.77 7.82
8/19/2021 9:45:00 PM 21.35 70.43 0.15 7.16 45.71 7.82
8/19/2021 10:00:00 PM 21.31 70.358 0.149 7.16 37 7.83
8/19/2021 10:15:00 PM 21.27 70.286 0.149 7.16 77.08 7.83
8/19/2021 10:30:00 PM 21.23 70.214 0.15 7.15 43.75 7.84
8/19/2021 10:45:00 PM 21.18 70.124 0.151 7.16 46.98 7.84
8/19/2021 11:00:00 PM 21.14 70.052 0.15 7.16 32.51 7.85
8/19/2021 11:15:00 PM 21.1 69.98 0.15 7.16 35.9 7.85
8/19/2021 11:30:00 PM 21.05 69.89 0.152 7.15 34.26 7.87
8/19/2021 11:45:00 PM 21.02 69.836 0.152 7.15 35.56 7.87
8/20/2021 12:00:00 AM 20.98 69.764 0.152 7.16 35.09 7.88
8/20/2021 12:15:00 AM 20.96 69.728 0.151 7.16 30.74 7.88
8/20/2021 12:30:00 AM 20.93 69.674 0.151 7.16 38.44 7.88
8/20/2021 12:45:00 AM 20.9 69.62 0.151 7.16 24.11 7.89
8/20/2021 1:00:00 AM 20.87 69.566 0.152 7.16 27.88 7.89
8/20/2021 1:15:00 AM 20.84 69.512 0.153 7.16 33.38 7.89
8/20/2021 1:30:00 AM 20.8 69.44 0.153 7.15 29.21 7.9
8/20/2021 1:45:00 AM 20.77 69.386 0.153 7.15 31.64 7.9
8/20/2021 2:00:00 AM 20.74 69.332 0.154 7.15 33.55 7.9
8/20/2021 2:15:00 AM 20.7 69.26 0.154 7.15 30.19 7.9
8/20/2021 2:30:00 AM 20.67 69.206 0.154 7.15 41.51 7.9
8/20/2021 2:45:00 AM 20.65 69.17 0.156 7.15 29.94 7.9
8/20/2021 3:00:00 AM 20.63 69.134 0.155 7.15 31.99 7.89
8/20/2021 3:15:00 AM 20.61 69.098 0.156 7.15 30.98 7.9
8/20/2021 3:30:00 AM 20.59 69.062 0.156 7.15 30.3 7.9
8/20/2021 3:45:00 AM 20.57 69.026 0.157 7.15 29.04 7.9
8/20/2021 4:00:00 AM 20.56 69.008 0.157 7.15 28 7.89
8/20/2021 4:15:00 AM 20.54 68.972 0.157 7.15 23.98 7.9
8/20/2021 4:30:00 AM 20.51 68.918 0.158 7.15 23.21 7.9
8/20/2021 4:45:00 AM 20.49 68.882 0.158 7.15 24.41 7.89
8/20/2021 5:00:00 AM 20.47 68.846 0.159 7.15 24.51 7.9
8/20/2021 5:15:00 AM 20.45 68.81 0.159 7.15 22.39 7.89
8/20/2021 5:30:00 AM 20.43 68.774 0.16 7.15 24.35 7.89
8/20/2021 5:45:00 AM 20.42 68.756 0.16 7.15 21.6 7.89
8/20/2021 6:00:00 AM 20.4 68.72 0.161 7.15 25.12 7.89
8/20/2021 6:15:00 AM 20.38 68.684 0.161 7.15 21.31 7.88
8/20/2021 6:30:00 AM 20.37 68.666 0.161 7.15 20.17 7.88
8/20/2021 6:45:00 AM 20.36 68.648 0.162 7.15 19.15 7.88
8/20/2021 7:00:00 AM 20.35 68.63 0.162 7.14 20.01 7.89
8/20/2021 7:15:00 AM 20.35 68.63 0.162 7.15 20.38 7.89
8/20/2021 7:30:00 AM 20.35 68.63 0.162 7.15 24.11 7.89
8/20/2021 7:45:00 AM 20.36 68.648 0.163 7.15 19.31 7.9
8/20/2021 8:00:00 AM 20.37 68.666 0.164 7.15 17.77 7.91
8/20/2021 8:15:00 AM 20.39 68.702 0.163 7.16 17.45 7.92
8/20/2021 8:30:00 AM 20.42 68.756 0.164 7.16 18.01 7.92
8/20/2021 8:45:00 AM 20.46 68.828 0.164 7.16 17.35 7.93
8/20/2021 9:00:00 AM 20.53 68.954 0.165 7.16 18.45 7.95
8/20/2021 9:15:00 AM 20.61 69.098 0.165 7.17 17.77 7.95
8/20/2021 9:30:00 AM 20.76 69.368 0.166 7.17 16.63 7.95
8/20/2021 9:45:00 AM 20.91 69.638 0.166 7.18 15.14 7.95
8/20/2021 10:00:00 AM 21.04 69.872 0.166 7.18 14.81 7.93
8/20/2021 10:15:00 AM 21.14 70.052 0.166 7.19 14.24 7.93
8/20/2021 10:30:00 AM 21.17 70.106 0.168 7.19 16.08 7.92
8/20/2021 10:45:00 AM 21.2 70.16 0.168 7.19 14.55 7.92
8/20/2021 11:00:00 AM 21.25 70.25 0.168 7.19 14.52 7.91
8/20/2021 11:15:00 AM 21.31 70.358 0.168 7.19 13.45 7.9
8/20/2021 11:30:00 AM 21.37 70.466 0.168 7.19 16.17 7.89
8/20/2021 11:45:00 AM 21.42 70.556 0.169 7.2 15.39 7.89
8/20/2021 12:00:00 PM 21.49 70.682 0.169 7.2 14.49 7.87
8/20/2021 12:15:00 PM 21.58 70.844 0.169 7.2 12.39 7.88
8/20/2021 12:30:00 PM 21.68 71.024 0.168 7.2 13.95 7.86
8/20/2021 12:45:00 PM 21.78 71.204 0.17 7.2 13.55 7.85
8/20/2021 1:00:00 PM 21.9 71.42 0.169 7.21 13.04 7.84
8/20/2021 1:15:00 PM 22.06 71.708 0.17 7.21 13.07 7.85
8/20/2021 1:30:00 PM 22.2 71.96 0.169 7.21 13.08 7.82
8/20/2021 1:45:00 PM 22.3 72.14 0.17 7.21 13.09 7.79
8/20/2021 2:00:00 PM 22.33 72.194 0.169 7.21 12.43 7.76
8/20/2021 2:15:00 PM 22.29 72.122 0.17 7.21 11.64 7.73
8/20/2021 2:30:00 PM 22.23 72.014 0.171 7.21 12.29 7.72
8/20/2021 2:45:00 PM 22.2 71.96 0.171 7.21 11.33 7.72
8/20/2021 3:00:00 PM 22.18 71.924 0.17 7.21 12.27 7.71
8/20/2021 3:15:00 PM 22.17 71.906 0.171 7.21 11.02 7.72
8/20/2021 3:30:00 PM 22.15 71.87 0.172 7.21 11.32 7.71
8/20/2021 3:45:00 PM 22.11 71.798 0.171 7.2 11.12 7.69
8/20/2021 4:00:00 PM 22.08 71.744 0.171 7.2 10.67 7.67
8/20/2021 4:15:00 PM 22.04 71.672 0.173 7.2 11.18 7.68
8/20/2021 4:30:00 PM 22.03 71.654 0.171 7.2 9.71 7.69
8/20/2021 4:45:00 PM 22.03 71.654 0.172 7.2 11.73 7.69
8/20/2021 5:00:00 PM 22.02 71.636 0.172 7.2 12 7.69
8/20/2021 5:15:00 PM 21.99 71.582 0.172 7.2 10.06 7.67
8/20/2021 5:30:00 PM 21.94 71.492 0.172 7.19 10.25 7.65
8/20/2021 5:45:00 PM 21.89 71.402 0.172 7.19 10.86 7.63
8/20/2021 6:00:00 PM 21.83 71.294 0.173 7.19 9.89 7.62
8/20/2021 6:15:00 PM 21.78 71.204 0.173 7.18 9.72 7.62
8/20/2021 6:30:00 PM 21.73 71.114 0.173 7.18 9.48 7.61
8/20/2021 6:45:00 PM 21.68 71.024 0.174 7.18 10.29 7.61
8/20/2021 7:00:00 PM 21.63 70.934 0.173 7.18 10.23 7.61
8/20/2021 7:15:00 PM 21.58 70.844 0.174 7.18 9.53 7.6
8/20/2021 7:30:00 PM 21.54 70.772 0.173 7.18 8.75 7.6
8/20/2021 7:45:00 PM 21.49 70.682 0.175 7.17 10.14 7.61
8/20/2021 8:00:00 PM 21.45 70.61 0.173 7.18 10.31 7.63
8/20/2021 8:15:00 PM 21.41 70.538 0.173 7.19 11.43 7.66
8/20/2021 8:30:00 PM 21.38 70.484 0.173 7.19 10.89 7.67
8/20/2021 8:45:00 PM 21.35 70.43 0.171 7.19 11.34 7.67
8/20/2021 9:00:00 PM 21.32 70.376 0.17 7.19 12.27 7.68
8/20/2021 9:15:00 PM 21.3 70.34 0.17 7.19 12.73 7.7
8/20/2021 9:30:00 PM 21.29 70.32201 0.169 7.19 12.37 7.7
8/20/2021 9:45:00 PM 21.27 70.286 0.168 7.19 13.31 7.71
8/20/2021 10:00:00 PM 21.25 70.25 0.167 7.19 11.48 7.72
8/20/2021 10:15:00 PM 21.24 70.232 0.167 7.19 13.83 7.73
8/20/2021 10:30:00 PM 21.22 70.196 0.166 7.19 12.4 7.73
8/20/2021 10:45:00 PM 21.2 70.16 0.167 7.19 13.74 7.74
8/20/2021 11:00:00 PM 21.18 70.124 0.166 7.19 11.54 7.74
8/20/2021 11:15:00 PM 21.15 70.07 0.166 7.19 12.86 7.75
8/20/2021 11:30:00 PM 21.13 70.034 0.166 7.19 12.62 7.76
8/20/2021 11:45:00 PM 21.1 69.98 0.165 7.19 13.2 7.76
8/21/2021 12:00:00 AM 21.07 69.926 0.166 7.18 13.65 7.77
8/21/2021 12:15:00 AM 21.05 69.89 0.166 7.18 12.31 7.77
8/21/2021 12:30:00 AM 21.03 69.854 0.165 7.18 14.56 7.78
8/21/2021 12:45:00 AM 21 69.8 0.166 7.18 13.01 7.78
8/21/2021 1:00:00 AM 20.97 69.746 0.166 7.17 14.23 7.78
8/21/2021 1:15:00 AM 20.95 69.71 0.166 7.17 14.26 7.78
8/21/2021 1:30:00 AM 20.93 69.674 0.165 7.17 15.71 7.78
8/21/2021 1:45:00 AM 20.9 69.62 0.165 7.17 14.73 7.78
8/21/2021 2:00:00 AM 20.88 69.584 0.166 7.17 15.19 7.79
8/21/2021 2:15:00 AM 20.86 69.548 0.166 7.17 14.83 7.78
8/21/2021 2:30:00 AM 20.84 69.512 0.166 7.17 15.51 7.8
8/21/2021 2:45:00 AM 20.83 69.494 0.166 7.17 14.16 7.8
8/21/2021 3:00:00 AM 20.82 69.476 0.166 7.16 14.03 7.8
8/21/2021 3:15:00 AM 20.8 69.44 0.165 7.16 14.26 7.8
8/21/2021 3:30:00 AM 20.79 69.422 0.165 7.16 15.33 7.79
8/21/2021 3:45:00 AM 20.78 69.404 0.166 7.16 13.8 7.79
8/21/2021 4:00:00 AM 20.77 69.386 0.165 7.16 14.42 7.78
8/21/2021 4:15:00 AM 20.76 69.368 0.165 7.16 12.6 7.78
8/21/2021 4:30:00 AM 20.74 69.332 0.165 7.16 14.64 7.78
8/21/2021 4:45:00 AM 20.74 69.332 0.165 7.15 12.94 7.78
8/21/2021 5:00:00 AM 20.72 69.296 0.166 7.15 12.95 7.78
8/21/2021 5:15:00 AM 20.71 69.278 0.167 7.15 12.45 7.78
8/21/2021 5:30:00 AM 20.7 69.26 0.167 7.15 13.1 7.77
8/21/2021 5:45:00 AM 20.69 69.242 0.167 7.15 11.98 7.77
8/21/2021 6:00:00 AM 20.69 69.242 0.167 7.15 11.96 7.77
8/21/2021 6:15:00 AM 20.68 69.224 0.168 7.15 11.87 7.78
8/21/2021 6:30:00 AM 20.67 69.206 0.168 7.15 11.62 7.77
8/21/2021 6:45:00 AM 20.66 69.188 0.168 7.15 10.68 7.78
8/21/2021 7:00:00 AM 20.66 69.188 0.168 7.15 11.12 7.77
8/21/2021 7:15:00 AM 20.65 69.17 0.169 7.15 10.6 7.78
8/21/2021 7:30:00 AM 20.65 69.17 0.168 7.15 9.07 7.78
8/21/2021 7:45:00 AM 20.66 69.188 0.169 7.15 10.73 7.79
8/21/2021 8:00:00 AM 20.67 69.206 0.169 7.16 9.36 7.8
8/21/2021 8:15:00 AM 20.69 69.242 0.168 7.16 8.73 7.82
8/21/2021 8:30:00 AM 20.71 69.278 0.169 7.17 10.1 7.83
8/21/2021 8:45:00 AM 20.73 69.314 0.169 7.17 9.12 7.84
8/21/2021 9:00:00 AM 20.75 69.35 0.169 7.17 9.88 7.84
8/21/2021 9:15:00 AM 20.76 69.368 0.169 7.17 8.57 7.84
8/21/2021 9:30:00 AM 20.77 69.386 0.17 7.18 9.34 7.84
8/21/2021 9:45:00 AM 20.79 69.422 0.169 7.18 8.58 7.85
8/21/2021 10:00:00 AM 20.8 69.44 0.17 7.18 7.14 7.84
8/21/2021 10:15:00 AM 20.86 69.548 0.171 7.19 7.98 7.89
8/21/2021 10:30:00 AM 20.93 69.674 0.171 7.19 7.65 7.9
8/21/2021 10:45:00 AM 21 69.8 0.17 7.2 8.12 7.92
8/21/2021 11:00:00 AM 21.08 69.944 0.171 7.2 7.89 7.94
8/21/2021 11:15:00 AM 21.16 70.088 0.17 7.2 6.73 7.94
8/21/2021 11:30:00 AM 21.25 70.25 0.172 7.21 6.75 7.95
8/21/2021 11:45:00 AM 21.29 70.32201 0.171 7.21 6.57 7.94
8/21/2021 12:00:00 PM 21.32 70.376 0.172 7.21 6.41 7.93
8/21/2021 12:15:00 PM 21.4 70.52 0.173 7.21 6.15 7.94
8/21/2021 12:30:00 PM 21.47 70.646 0.172 7.21 6.52 7.94
8/21/2021 12:45:00 PM 21.51 70.718 0.174 7.21 6.25 7.93
8/21/2021 1:00:00 PM 21.6 70.88 0.175 7.22 6.43 7.94
8/21/2021 1:15:00 PM 21.75 71.15 0.174 7.22 5.75 7.95
8/21/2021 1:30:00 PM 21.9 71.42 0.173 7.23 6.55 7.94
8/21/2021 1:45:00 PM 21.98 71.564 0.174 7.23 6.58 7.93
8/21/2021 2:00:00 PM 22.11 71.798 0.174 7.23 5.94 7.91
8/21/2021 2:15:00 PM 22.2 71.96 0.174 7.23 6.16 7.9
8/21/2021 2:30:00 PM 22.35 72.23 0.174 7.23 6.34 7.9
8/21/2021 2:45:00 PM 22.4 72.32 0.176 7.23 5.98 7.86
8/21/2021 3:00:00 PM 22.54 72.57201 0.174 7.24 6.05 7.86
8/21/2021 3:15:00 PM 22.68 72.824 0.175 7.24 5.09 7.84
8/21/2021 3:30:00 PM 22.76 72.968 0.176 7.24 5.82 7.82
8/21/2021 3:45:00 PM 22.76 72.968 0.176 7.24 5.54 7.79
8/21/2021 4:00:00 PM 22.77 72.986 0.173 7.24 5.94 7.77
8/21/2021 4:15:00 PM 22.76 72.968 0.174 7.23 5.62 7.76
8/21/2021 4:30:00 PM 22.74 72.932 0.175 7.23 5.14 7.74
8/21/2021 4:45:00 PM 22.7 72.86 0.175 7.23 5.83 7.73
8/21/2021 5:00:00 PM 22.67 72.806 0.176 7.23 5.53 7.71
8/21/2021 5:15:00 PM 22.65 72.77 0.174 7.22 5.65 7.7
8/21/2021 5:30:00 PM 22.62 72.716 0.174 7.22 4.85 7.69
8/21/2021 5:45:00 PM 22.54 72.57201 0.175 7.22 5.52 7.67
8/21/2021 6:00:00 PM 22.47 72.446 0.175 7.21 5.42 7.65
8/21/2021 6:15:00 PM 22.39 72.302 0.176 7.21 5.03 7.65
8/21/2021 6:30:00 PM 22.33 72.194 0.176 7.2 5.27 7.64
8/21/2021 6:45:00 PM 22.27 72.086 0.175 7.2 5.45 7.62
8/21/2021 7:00:00 PM 22.21 71.978 0.176 7.19 4.9 7.61
8/21/2021 7:15:00 PM 22.13 71.834 0.177 7.19 4.8 7.6
8/21/2021 7:30:00 PM 22.06 71.708 0.177 7.19 4.89 7.59
8/21/2021 7:45:00 PM 21.98 71.564 0.176 7.18 5 7.57
8/21/2021 8:00:00 PM 21.91 71.438 0.176 7.18 4.94 7.55
8/21/2021 8:15:00 PM 21.84 71.312 0.176 7.17 4.67 7.53
8/21/2021 8:30:00 PM 21.76 71.168 0.176 7.17 5.36 7.52
8/21/2021 8:45:00 PM 21.69 71.042 0.177 7.16 4.5 7.51
8/21/2021 9:00:00 PM 21.64 70.952 0.178 7.16 4.65 7.5
8/21/2021 9:15:00 PM 21.57 70.826 0.176 7.16 4.95 7.5
8/21/2021 9:30:00 PM 21.51 70.718 0.177 7.15 5.16 7.5
8/21/2021 9:45:00 PM 21.46 70.628 0.178 7.15 5.16 7.51
8/21/2021 10:00:00 PM 21.41 70.538 0.178 7.15 5.26 7.51
8/21/2021 10:15:00 PM 21.39 70.502 0.177 7.15 5.75 7.51
8/21/2021 10:30:00 PM 21.35 70.43 0.178 7.15 6.52 7.52
8/21/2021 10:45:00 PM 21.32 70.376 0.179 7.15 5.53 7.52
8/21/2021 11:00:00 PM 21.28 70.304 0.178 7.15 5.79 7.52
8/21/2021 11:15:00 PM 21.25 70.25 0.178 7.15 6.45 7.52
8/21/2021 11:30:00 PM 21.22 70.196 0.179 7.15 5.66 7.51
8/21/2021 11:45:00 PM 21.2 70.16 0.179 7.14 5.42 7.53
8/22/2021 12:00:00 AM 21.16 70.088 0.179 7.14 5.76 7.52
8/22/2021 12:15:00 AM 21.13 70.034 0.179 7.14 5.56 7.52
8/22/2021 12:30:00 AM 21.1 69.98 0.178 7.14 5.38 7.53
8/22/2021 12:45:00 AM 21.08 69.944 0.179 7.14 4.83 7.53
8/22/2021 1:00:00 AM 21.04 69.872 0.179 7.14 5.47 7.53
8/22/2021 1:15:00 AM 21.01 69.818 0.179 7.14 5.79 7.54
8/22/2021 1:30:00 AM 20.98 69.764 0.179 7.14 5.38 7.54
8/22/2021 1:45:00 AM 20.95 69.71 0.18 7.14 5.23 7.54
8/22/2021 2:00:00 AM 20.92 69.656 0.18 7.14 5.22 7.54
8/22/2021 2:15:00 AM 20.9 69.62 0.18 7.14 5.22 7.54
8/22/2021 2:30:00 AM 20.87 69.566 0.18 7.14 5.57 7.54
8/22/2021 2:45:00 AM 20.84 69.512 0.18 7.14 4.98 7.55
8/22/2021 3:00:00 AM 20.81 69.458 0.18 7.14 5.32 7.55
8/22/2021 3:15:00 AM 20.78 69.404 0.18 7.14 4.6 7.56
8/22/2021 3:30:00 AM 20.76 69.368 0.18 7.13 5.36 7.56
8/22/2021 3:45:00 AM 20.74 69.332 0.18 7.13 5.24 7.55
8/22/2021 4:00:00 AM 20.72 69.296 0.18 7.13 5.26 7.56
8/22/2021 4:15:00 AM 20.71 69.278 0.181 7.13 5.05 7.56
8/22/2021 4:30:00 AM 20.69 69.242 0.181 7.13 4.94 7.56
8/22/2021 4:45:00 AM 20.67 69.206 0.181 7.13 4.8 7.56
8/22/2021 5:00:00 AM 20.65 69.17 0.182 7.13 4.44 7.57
8/22/2021 5:15:00 AM 20.64 69.152 0.181 7.13 4.04 7.57
8/22/2021 5:30:00 AM 20.63 69.134 0.182 7.13 4.69 7.57
8/22/2021 5:45:00 AM 20.62 69.116 0.182 7.13 4.84 7.56
8/22/2021 6:00:00 AM 20.61 69.098 0.182 7.13 5.34 7.57
8/22/2021 6:15:00 AM 20.59 69.062 0.181 7.13 4.23 7.56
8/22/2021 6:30:00 AM 20.58 69.044 0.182 7.13 4.26 7.57
8/22/2021 6:45:00 AM 20.57 69.026 0.183 7.13 4.44 7.57
8/22/2021 7:00:00 AM 20.56 69.008 0.183 7.13 4.55 7.58
8/22/2021 7:15:00 AM 20.57 69.026 0.183 7.14 4.28 7.59
8/22/2021 7:30:00 AM 20.58 69.044 0.182 7.14 3.75 7.61
8/22/2021 7:45:00 AM 20.61 69.098 0.183 7.14 4.29 7.65
8/22/2021 8:00:00 AM 20.63 69.134 0.184 7.15 3.36 7.67
8/22/2021 8:15:00 AM 20.67 69.206 0.184 7.15 3.29 7.68
8/22/2021 8:30:00 AM 20.69 69.242 0.184 7.15 4.05 7.71
8/22/2021 8:45:00 AM 20.73 69.314 0.184 7.15 3.76 7.72
8/22/2021 9:00:00 AM 20.78 69.404 0.185 7.16 3.69 7.75
8/22/2021 9:15:00 AM 20.83 69.494 0.185 7.16 3.64 7.78
8/22/2021 9:30:00 AM 20.91 69.638 0.185 7.17 3.25 7.81
8/22/2021 9:45:00 AM 20.96 69.728 0.184 7.17 3.31 7.83
8/22/2021 10:00:00 AM 21.03 69.854 0.186 7.17 3.55 7.84
8/22/2021 10:15:00 AM 21.09 69.962 0.186 7.18 3.53 7.86
8/22/2021 10:30:00 AM 21.17 70.106 0.185 7.18 3.22 7.88
8/22/2021 10:45:00 AM 21.27 70.286 0.185 7.19 3.15 7.9
8/22/2021 11:00:00 AM 21.38 70.484 0.185 7.2 2.81 7.91
8/22/2021 11:15:00 AM 21.5 70.7 0.185 7.2 3.17 7.91
8/22/2021 11:30:00 AM 21.57 70.826 0.185 7.2 3.39 7.91
8/22/2021 11:45:00 AM 21.66 70.988 0.186 7.2 3.24 7.9
8/22/2021 12:00:00 PM 21.72 71.096 0.186 7.2 3.08 7.89
8/22/2021 12:15:00 PM 21.75 71.15 0.186 7.2 4.75 7.87
8/22/2021 12:30:00 PM 21.78 71.204 0.186 7.2 3.53 7.87
8/22/2021 12:45:00 PM 21.81 71.258 0.185 7.2 2.86 7.86
8/22/2021 1:00:00 PM 21.84 71.312 0.186 7.2 3.16 7.85
8/22/2021 1:15:00 PM 21.87 71.366 0.185 7.2 2.64 7.84
8/22/2021 1:30:00 PM 21.89 71.402 0.186 7.2 3.06 7.84
8/22/2021 1:45:00 PM 21.9 71.42 0.186 7.2 3.04 7.83
8/22/2021 2:00:00 PM 21.9 71.42 0.186 7.2 2.95 7.81
8/22/2021 2:15:00 PM 21.88 71.384 0.186 7.19 3.06 7.77
8/22/2021 2:30:00 PM 21.83 71.294 0.185 7.19 3.4 7.73
8/22/2021 2:45:00 PM 21.83 71.294 0.185 7.19 2.85 7.73
8/22/2021 3:00:00 PM 21.83 71.294 0.185 7.19 3.32 7.76
8/22/2021 3:15:00 PM 21.88 71.384 0.184 7.2 3.31 7.79
8/22/2021 3:30:00 PM 21.92 71.456 0.184 7.2 3.14 7.8
8/22/2021 3:45:00 PM 22.06 71.708 0.186 7.21 3.46 7.85
8/22/2021 4:00:00 PM 22.15 71.87 0.185 7.22 3.14 7.86
8/22/2021 4:15:00 PM 22.21 71.978 0.187 7.22 2.82 7.87
8/22/2021 4:30:00 PM 22.27 72.086 0.186 7.22 3.31 7.87
8/22/2021 4:45:00 PM 22.33 72.194 0.185 7.23 2.65 7.85
8/22/2021 5:00:00 PM 22.4 72.32 0.186 7.23 3.25 7.85
8/22/2021 5:15:00 PM 22.47 72.446 0.185 7.23 2.84 7.84
8/22/2021 5:30:00 PM 22.44 72.392 0.185 7.22 2.92 7.79
8/22/2021 5:45:00 PM 22.38 72.284 0.184 7.22 2.96 7.73
8/22/2021 6:00:00 PM 22.33 72.194 0.185 7.21 3.15 7.7
8/22/2021 6:15:00 PM 22.29 72.122 0.184 7.21 3.13 7.66
8/22/2021 6:30:00 PM 22.23 72.014 0.185 7.2 4.15 7.65
8/22/2021 6:45:00 PM 22.18 71.924 0.184 7.2 4.36 7.64
8/22/2021 7:00:00 PM 22.11 71.798 0.184 7.2 5.09 7.61
8/22/2021 7:15:00 PM 22.07 71.726 0.184 7.2 5.01 7.61
8/22/2021 7:30:00 PM 22.02 71.636 0.183 7.2 4.93 7.59
8/22/2021 7:45:00 PM 21.97 71.546 0.182 7.2 5.59 7.58
8/22/2021 8:00:00 PM 21.92 71.456 0.183 7.2 5.62 7.55
8/22/2021 8:15:00 PM 21.88 71.384 0.182 7.2 5.08 7.53
8/22/2021 8:30:00 PM 21.83 71.294 0.183 7.19 5.03 7.52
8/22/2021 8:45:00 PM 21.81 71.258 0.181 7.19 4.96 7.51
8/22/2021 9:00:00 PM 21.77 71.186 0.182 7.19 4.57 7.5
8/22/2021 9:15:00 PM 21.73 71.114 0.182 7.19 4.98 7.5
8/22/2021 9:30:00 PM 21.7 71.06 0.181 7.19 4.54 7.52
8/22/2021 9:45:00 PM 21.68 71.024 0.18 7.19 5.45 7.52
8/22/2021 10:00:00 PM 21.65 70.97 0.179 7.19 4.96 7.52
8/22/2021 10:15:00 PM 21.63 70.934 0.178 7.19 5.57 7.54
8/22/2021 10:30:00 PM 21.62 70.916 0.173 7.21 12.57 7.61
8/22/2021 10:45:00 PM 21.59 70.862 0.172 7.22 15.69 7.7
8/22/2021 11:00:00 PM 21.56 70.808 0.17 7.23 12.71 7.7
8/22/2021 11:15:00 PM 21.52 70.736 0.17 7.22 12.62 7.69
8/22/2021 11:30:00 PM 21.49 70.682 0.167 7.21 15.52 7.67
8/22/2021 11:45:00 PM 21.48 70.664 0.166 7.21 19.02 7.68
8/23/2021 12:00:00 AM 21.35 70.43 0.177 7.12 132.88 7.51
8/23/2021 12:15:00 AM 21.28 70.304 0.138 7.34 487.49 8.29
8/23/2021 12:30:00 AM 21.01 69.818 0.104 7.32 1171.64 8.5
8/23/2021 12:45:00 AM 20.95 69.71 0.093 7.24 1465.74 8.54
8/23/2021 1:00:00 AM 20.92 69.656 0.087 7.21 1524.69 8.56
8/23/2021 1:15:00 AM 20.87 69.566 0.082 7.17 1519.86 8.56
8/23/2021 1:30:00 AM 20.85 69.53 0.079 7.13 1414.52 8.56
8/23/2021 1:45:00 AM 20.82 69.476 0.077 7.1 1286.86 8.55
8/23/2021 2:00:00 AM 20.77 69.386 0.075 7.08 1215.93 8.55
8/23/2021 2:15:00 AM 20.73 69.314 0.073 7.07 1075.75 8.56
8/23/2021 2:30:00 AM 20.69 69.242 0.072 7.06 1105.91 8.55
8/23/2021 2:45:00 AM 20.65 69.17 0.071 7.04 953.62 8.55
8/23/2021 3:00:00 AM 20.62 69.116 0.071 7.03 670.13 8.54
8/23/2021 3:15:00 AM 20.58 69.044 0.071 7.03 754.38 8.54
8/23/2021 3:30:00 AM 20.55 68.99 0.071 7.02 635.23 8.54
8/23/2021 3:45:00 AM 20.53 68.954 0.071 7.02 644.68 8.53
8/23/2021 4:00:00 AM 20.51 68.918 0.072 7.02 572.17 8.53
8/23/2021 4:15:00 AM 20.49 68.882 0.074 7.02 667.14 8.53
8/23/2021 4:30:00 AM 20.48 68.864 0.075 7.03 450.96 8.52
8/23/2021 4:45:00 AM 20.46 68.828 0.076 7.03 475.29 8.52
8/23/2021 5:00:00 AM 20.45 68.81 0.077 7.03 389.81 8.52
8/23/2021 5:15:00 AM 20.44 68.792 0.078 7.04 370.84 8.52
8/23/2021 5:30:00 AM 20.43 68.774 0.08 7.04 346.14 8.52
8/23/2021 5:45:00 AM 20.42 68.756 0.08 7.05 317.09 8.51
8/23/2021 6:00:00 AM 20.41 68.738 0.082 7.06 264.18 8.51
8/23/2021 6:15:00 AM 20.4 68.72 0.083 7.06 287.64 8.51
8/23/2021 6:30:00 AM 20.39 68.702 0.084 7.07 261.22 8.51
8/23/2021 6:45:00 AM 20.39 68.702 0.085 7.07 238.55 8.51
8/23/2021 7:00:00 AM 20.38 68.684 0.086 7.09 236.17 8.51
8/23/2021 7:15:00 AM 20.37 68.666 0.087 7.09 307.31 8.5
8/23/2021 7:30:00 AM 20.37 68.666 0.087 7.1 238.19 8.5
8/23/2021 7:45:00 AM 20.37 68.666 0.088 7.1 249.1 8.5
8/23/2021 8:00:00 AM 20.37 68.666 0.089 7.11 209.44 8.49
8/23/2021 8:15:00 AM 20.38 68.684 0.09 7.12 194.23 8.49
8/23/2021 8:30:00 AM 20.4 68.72 0.09 7.13 189.98 8.49
8/23/2021 8:45:00 AM 20.44 68.792 0.092 7.14 270.46 8.49
8/23/2021 9:00:00 AM 20.46 68.828 0.092 7.14 228.17 8.49
8/23/2021 9:15:00 AM 20.49 68.882 0.093 7.14 223.41 8.48
8/23/2021 9:30:00 AM 20.5 68.9 0.093 7.15 199.96 8.48
8/23/2021 9:45:00 AM 20.52 68.936 0.094 7.16 160.96 8.48
8/23/2021 10:00:00 AM 20.54 68.972 0.094 7.16 151.58 8.47
8/23/2021 10:15:00 AM 20.56 69.008 0.095 7.16 141.64 8.47
8/23/2021 10:30:00 AM 20.58 69.044 0.095 7.15 141.7 8.47
8/23/2021 10:45:00 AM 20.61 69.098 0.096 7.16 121.05 8.47
8/23/2021 11:00:00 AM 20.67 69.206 0.096 7.17 132.87 8.46
8/23/2021 11:15:00 AM 20.77 69.386 0.097 7.17 122 8.46
8/23/2021 11:30:00 AM 20.85 69.53 0.097 7.18 117.02 8.45
8/23/2021 11:45:00 AM 20.87 69.566 0.097 7.18 150.93 8.44
8/23/2021 12:00:00 PM 20.88 69.584 0.098 7.18 159.1 8.43
8/23/2021 12:15:00 PM 21.05 69.89 0.098 7.19 133.43 8.42
8/23/2021 12:30:00 PM 21.2 70.16 0.097 7.19 141.82 8.4
8/23/2021 12:45:00 PM 21.34 70.412 0.098 7.19 134.86 8.38
8/23/2021 1:00:00 PM 21.42 70.556 0.098 7.19 131.12 8.36
8/23/2021 1:15:00 PM 21.53 70.754 0.098 7.19 108.55 8.34
8/23/2021 1:30:00 PM 21.52 70.736 0.098 7.19 129.33 8.33
8/23/2021 1:45:00 PM 21.56 70.808 0.099 7.19 118.67 8.32
8/23/2021 2:00:00 PM 21.62 70.916 0.098 7.19 98.6 8.31
8/23/2021 2:15:00 PM 21.8 71.24 0.098 7.2 99.91 8.29
8/23/2021 2:30:00 PM 21.98 71.564 0.098 7.2 134.9 8.28
8/23/2021 2:45:00 PM 22.07 71.726 0.098 7.21 104.11 8.27
8/23/2021 3:00:00 PM 22.21 71.978 0.098 7.2 95.84 8.25
8/23/2021 3:15:00 PM 22.24 72.032 0.098 7.2 97.21 8.25
8/23/2021 3:30:00 PM 22.19 71.942 0.098 7.19 93.08 8.23
8/23/2021 3:45:00 PM 22.26 72.068 0.098 7.2 79.3 8.22
8/23/2021 4:00:00 PM 22.31 72.158 0.098 7.2 73.93 8.21
8/23/2021 4:15:00 PM 22.28 72.104 0.099 7.19 81.02 8.19
8/23/2021 4:30:00 PM 22.22 71.996 0.099 7.18 115.49 8.18
8/23/2021 4:45:00 PM 22.11 71.798 0.099 7.18 106.01 8.18
8/23/2021 5:00:00 PM 22.13 71.834 0.099 7.18 102.71 8.17
8/23/2021 5:15:00 PM 22.07 71.726 0.1 7.17 86.72 8.16
8/23/2021 5:30:00 PM 22.01 71.618 0.1 7.17 136.05 8.16
8/23/2021 5:45:00 PM 21.97 71.546 0.099 7.17 99.83 8.16
8/23/2021 6:00:00 PM 21.92 71.456 0.1 7.16 87.07 8.16
8/23/2021 6:15:00 PM 21.87 71.366 0.1 7.17 84.78 8.16
8/23/2021 6:30:00 PM 21.83 71.294 0.1 7.16 102.56 8.16
8/23/2021 6:45:00 PM 21.77 71.186 0.1 7.16 81.68 8.17
8/23/2021 7:00:00 PM 21.74 71.132 0.101 7.15 74.31 8.17
8/23/2021 7:15:00 PM 21.68 71.024 0.101 7.15 63.23 8.17
8/23/2021 7:30:00 PM 21.6 70.88 0.102 7.16 69.29 8.18
8/23/2021 7:45:00 PM 21.53 70.754 0.102 7.15 79.54 8.18
8/23/2021 8:00:00 PM 21.47 70.646 0.103 7.15 82.71 8.19
8/23/2021 8:15:00 PM 21.41 70.538 0.103 7.15 71.92 8.19
8/23/2021 8:30:00 PM 21.36 70.448 0.103 7.15 73.7 8.2
8/23/2021 8:45:00 PM 21.31 70.358 0.104 7.14 69.97 8.2
8/23/2021 9:00:00 PM 21.26 70.268 0.104 7.14 91.15 8.21
8/23/2021 9:15:00 PM 21.21 70.17799 0.105 7.14 93.85 8.22
8/23/2021 9:30:00 PM 21.17 70.106 0.105 7.14 51.52 8.21
8/23/2021 9:45:00 PM 21.13 70.034 0.107 7.15 64.84 8.2
8/23/2021 10:00:00 PM 21.09 69.962 0.108 7.14 71.7 8.2
8/23/2021 10:15:00 PM 21.05 69.89 0.108 7.14 69.91 8.2
8/23/2021 10:30:00 PM 21.01 69.818 0.109 7.14 52.92 8.21
8/23/2021 10:45:00 PM 20.97 69.746 0.109 7.13 60.81 8.22
8/23/2021 11:00:00 PM 20.93 69.674 0.109 7.13 56.39 8.23
8/23/2021 11:15:00 PM 20.88 69.584 0.109 7.13 71.27 8.23
8/23/2021 11:30:00 PM 20.83 69.494 0.109 7.13 71.99 8.24
8/23/2021 11:45:00 PM 20.78 69.404 0.11 7.12 52.53 8.25
8/24/2021 12:00:00 AM 20.73 69.314 0.109 7.12 47.57 8.25
8/24/2021 12:15:00 AM 20.68 69.224 0.11 7.13 68.19 8.26
8/24/2021 12:30:00 AM 20.64 69.152 0.11 7.12 52.53 8.26
8/24/2021 12:45:00 AM 20.6 69.08 0.111 7.13 56.78 8.27
8/24/2021 1:00:00 AM 20.56 69.008 0.11 7.13 66.81 8.27
8/24/2021 1:15:00 AM 20.51 68.918 0.111 7.13 45.12 8.28
8/24/2021 1:30:00 AM 20.47 68.846 0.111 7.13 55.85 8.28
8/24/2021 1:45:00 AM 20.44 68.792 0.111 7.13 56.56 8.29
8/24/2021 2:00:00 AM 20.4 68.72 0.112 7.12 52.39 8.29
8/24/2021 2:15:00 AM 20.37 68.666 0.112 7.12 55.3 8.29
8/24/2021 2:30:00 AM 20.34 68.612 0.113 7.13 44.99 8.3
8/24/2021 2:45:00 AM 20.31 68.558 0.113 7.12 40.51 8.3
8/24/2021 3:00:00 AM 20.28 68.504 0.113 7.13 55.71 8.3
8/24/2021 3:15:00 AM 20.25 68.45 0.113 7.13 56.64 8.31
8/24/2021 3:30:00 AM 20.23 68.414 0.114 7.13 40.72 8.31
8/24/2021 3:45:00 AM 20.2 68.36 0.114 7.13 44.81 8.31
8/24/2021 4:00:00 AM 20.17 68.306 0.115 7.13 37.72 8.31
8/24/2021 4:15:00 AM 20.13 68.234 0.115 7.13 34.53 8.32
8/24/2021 4:30:00 AM 20.09 68.162 0.116 7.12 37.22 8.33
8/24/2021 4:45:00 AM 20.06 68.108 0.116 7.13 40.58 8.33
8/24/2021 5:00:00 AM 20.03 68.054 0.116 7.13 57.53 8.33
8/24/2021 5:15:00 AM 20 68 0.117 7.13 36.16 8.34
8/24/2021 5:30:00 AM 19.97 67.946 0.117 7.13 40.85 8.34
8/24/2021 5:45:00 AM 19.94 67.892 0.117 7.13 56.92 8.35
8/24/2021 6:00:00 AM 19.91 67.838 0.117 7.13 46.97 8.36
8/24/2021 6:15:00 AM 19.89 67.802 0.118 7.13 40.85 8.36
8/24/2021 6:30:00 AM 19.86 67.748 0.118 7.14 30.79 8.36
8/24/2021 6:45:00 AM 19.84 67.712 0.118 7.13 41.35 8.36
8/24/2021 7:00:00 AM 19.82 67.676 0.118 7.14 38.63 8.37
8/24/2021 7:15:00 AM 19.81 67.658 0.118 7.14 39.54 8.38
8/24/2021 7:30:00 AM 19.81 67.658 0.119 7.14 32.06 8.39
8/24/2021 7:45:00 AM 19.82 67.676 0.119 7.15 37.95 8.39
8/24/2021 8:00:00 AM 19.84 67.712 0.119 7.15 42.81 8.4
8/24/2021 8:15:00 AM 19.87 67.766 0.119 7.16 41.79 8.4
8/24/2021 8:30:00 AM 19.9 67.82 0.119 7.16 31.83 8.41
8/24/2021 8:45:00 AM 19.94 67.892 0.12 7.16 29.45 8.41
8/24/2021 9:00:00 AM 20 68 0.12 7.17 29.83 8.41
8/24/2021 9:15:00 AM 20.08 68.144 0.12 7.17 33.9 8.41
8/24/2021 9:30:00 AM 20.17 68.306 0.12 7.17 28.82 8.4
8/24/2021 9:45:00 AM 20.26 68.468 0.121 7.18 30.89 8.4
8/24/2021 10:00:00 AM 20.37 68.666 0.121 7.18 26.58 8.39
8/24/2021 10:15:00 AM 20.48 68.864 0.12 7.19 28.17 8.38
8/24/2021 10:30:00 AM 20.65 69.17 0.121 7.19 34.6 8.37
8/24/2021 10:45:00 AM 20.76 69.368 0.121 7.2 26.23 8.36
8/24/2021 11:00:00 AM 20.88 69.584 0.122 7.2 32.82 8.34
8/24/2021 11:15:00 AM 21.08 69.944 0.121 7.21 37.3 8.32
8/24/2021 11:30:00 AM 21.29 70.32201 0.122 7.21 29.36 8.3
8/24/2021 11:45:00 AM 21.47 70.646 0.122 7.21 33.72 8.27
8/24/2021 12:00:00 PM 21.68 71.024 0.122 7.22 28.78 8.25
8/24/2021 12:15:00 PM 21.9 71.42 0.122 7.22 25.74 8.21
8/24/2021 12:30:00 PM 22.11 71.798 0.122 7.22 26.02 8.19
8/24/2021 12:45:00 PM 22.31 72.158 0.122 7.22 23.22 8.15
8/24/2021 1:00:00 PM 22.53 72.554 0.122 7.23 44.97 8.12
8/24/2021 1:15:00 PM 22.73 72.914 0.122 7.23 29.29 8.09
8/24/2021 1:30:00 PM 22.93 73.274 0.122 7.23 24.36 8.06
8/24/2021 1:45:00 PM 23.1 73.58 0.123 7.23 23.28 8.03
8/24/2021 2:00:00 PM 23.27 73.886 0.123 7.24 22.63 8
8/24/2021 2:15:00 PM 23.43 74.174 0.124 7.23 26.12 7.97
8/24/2021 2:30:00 PM 23.57 74.426 0.123 7.24 24.39 7.94
8/24/2021 2:45:00 PM 23.69 74.642 0.123 7.24 25.55 7.92
8/24/2021 3:00:00 PM 23.79 74.82201 0.123 7.24 20.86 7.89
8/24/2021 3:15:00 PM 23.87 74.966 0.124 7.24 24.9 7.88
8/24/2021 3:30:00 PM 23.92 75.056 0.124 7.24 34.48 7.85
8/24/2021 3:45:00 PM 23.95 75.11 0.125 7.24 23.65 7.84
8/24/2021 4:00:00 PM 23.97 75.146 0.125 7.23 25.64 7.82
8/24/2021 4:15:00 PM 23.98 75.164 0.125 7.24 27.61 7.81
8/24/2021 4:30:00 PM 23.95 75.11 0.125 7.23 18.86 7.8
8/24/2021 4:45:00 PM 23.91 75.038 0.126 7.23 24.11 7.79
8/24/2021 5:00:00 PM 23.86 74.948 0.126 7.23 28.19 7.79
8/24/2021 5:15:00 PM 23.78 74.804 0.127 7.23 28.91 7.78
8/24/2021 5:30:00 PM 23.68 74.624 0.127 7.22 22.14 7.78
8/24/2021 5:45:00 PM 23.58 74.444 0.128 7.22 20.3 7.78
8/24/2021 6:00:00 PM 23.47 74.246 0.128 7.22 22.67 7.78
8/24/2021 6:15:00 PM 23.37 74.066 0.128 7.22 21.55 7.77
8/24/2021 6:30:00 PM 23.25 73.85 0.129 7.21 20.57 7.77
8/24/2021 6:45:00 PM 23.13 73.634 0.129 7.2 20.13 7.77
8/24/2021 7:00:00 PM 23.03 73.454 0.129 7.2 20.35 7.77
8/24/2021 7:15:00 PM 22.93 73.274 0.13 7.19 21.1 7.76
8/24/2021 7:30:00 PM 22.82 73.076 0.13 7.19 22.42 7.76
8/24/2021 7:45:00 PM 22.73 72.914 0.131 7.19 21.02 7.75
8/24/2021 8:00:00 PM 22.64 72.752 0.131 7.18 19.24 7.76
8/24/2021 8:15:00 PM 22.55 72.59 0.131 7.18 19.7 7.76
8/24/2021 8:30:00 PM 22.46 72.42799 0.132 7.17 19.85 7.77
8/24/2021 8:45:00 PM 22.37 72.266 0.132 7.17 19.42 7.77
8/24/2021 9:00:00 PM 22.28 72.104 0.132 7.17 18.38 7.78
8/24/2021 9:15:00 PM 22.19 71.942 0.132 7.17 14.47 7.79
8/24/2021 9:30:00 PM 22.1 71.78 0.133 7.17 20.76 7.8
8/24/2021 9:45:00 PM 22.01 71.618 0.134 7.16 17.29 7.81
8/24/2021 10:00:00 PM 21.93 71.474 0.134 7.16 18.28 7.82
8/24/2021 10:15:00 PM 21.85 71.33 0.134 7.16 17.39 7.83
8/24/2021 10:30:00 PM 21.77 71.186 0.134 7.16 17.52 7.84
8/24/2021 10:45:00 PM 21.69 71.042 0.135 7.16 18.47 7.86
8/24/2021 11:00:00 PM 21.62 70.916 0.135 7.16 16.76 7.87
8/24/2021 11:15:00 PM 21.55 70.79 0.135 7.16 17.41 7.88
8/24/2021 11:30:00 PM 21.47 70.646 0.136 7.16 17.65 7.89
8/24/2021 11:45:00 PM 21.41 70.538 0.136 7.16 17.04 7.89
8/25/2021 12:00:00 AM 21.33 70.394 0.137 7.16 18.33 7.91
8/25/2021 12:15:00 AM 21.27 70.286 0.137 7.15 17.45 7.92
8/25/2021 12:30:00 AM 21.2 70.16 0.137 7.15 15.76 7.93
8/25/2021 12:45:00 AM 21.14 70.052 0.138 7.15 17.7 7.94
8/25/2021 1:00:00 AM 21.07 69.926 0.138 7.15 15.83 7.95
8/25/2021 1:15:00 AM 21.01 69.818 0.137 7.15 16.89 7.96
8/25/2021 1:30:00 AM 20.95 69.71 0.137 7.15 16.81 7.97
8/25/2021 1:45:00 AM 20.88 69.584 0.138 7.15 17.89 7.98
8/25/2021 2:00:00 AM 20.82 69.476 0.138 7.15 17.15 8
8/25/2021 2:15:00 AM 20.76 69.368 0.139 7.15 16.87 8
8/25/2021 2:30:00 AM 20.71 69.278 0.139 7.15 17.08 8.01
8/25/2021 2:45:00 AM 20.65 69.17 0.139 7.15 14.77 8.02
8/25/2021 3:00:00 AM 20.59 69.062 0.14 7.15 16.89 8.03
8/25/2021 3:15:00 AM 20.54 68.972 0.14 7.15 15.57 8.04
8/25/2021 3:30:00 AM 20.48 68.864 0.14 7.15 17.99 8.05
8/25/2021 3:45:00 AM 20.43 68.774 0.141 7.14 16.38 8.05
8/25/2021 4:00:00 AM 20.38 68.684 0.141 7.15 17.78 8.06
8/25/2021 4:15:00 AM 20.33 68.594 0.141 7.15 16.66 8.07
8/25/2021 4:30:00 AM 20.28 68.504 0.141 7.15 15.95 8.08
8/25/2021 4:45:00 AM 20.23 68.414 0.142 7.14 16.48 8.09
8/25/2021 5:00:00 AM 20.19 68.342 0.141 7.14 15.42 8.1
8/25/2021 5:15:00 AM 20.14 68.252 0.142 7.14 15.9 8.1
8/25/2021 5:30:00 AM 20.09 68.162 0.142 7.14 15.65 8.11
8/25/2021 5:45:00 AM 20.06 68.108 0.142 7.14 13.82 8.12
8/25/2021 6:00:00 AM 20.01 68.018 0.142 7.14 14.84 8.12
8/25/2021 6:15:00 AM 19.98 67.964 0.142 7.14 13.62 8.13
8/25/2021 6:30:00 AM 19.96 67.92799 0.142 7.14 12.99 8.14
8/25/2021 6:45:00 AM 19.94 67.892 0.143 7.14 14.27 8.14
8/25/2021 7:00:00 AM 19.92 67.856 0.144 7.14 13.64 8.15
8/25/2021 7:15:00 AM 19.89 67.802 0.144 7.14 13.04 8.17
8/25/2021 7:30:00 AM 19.88 67.784 0.144 7.15 13.37 8.18
8/25/2021 7:45:00 AM 19.87 67.766 0.144 7.15 13.48 8.2
8/25/2021 8:00:00 AM 19.88 67.784 0.144 7.15 12.29 8.21
8/25/2021 8:15:00 AM 19.91 67.838 0.144 7.15 11.87 8.22
8/25/2021 8:30:00 AM 19.94 67.892 0.145 7.16 12.83 8.24
8/25/2021 8:45:00 AM 20.02 68.036 0.145 7.16 11.73 8.25
8/25/2021 9:00:00 AM 20.11 68.198 0.145 7.17 11.61 8.26
8/25/2021 9:15:00 AM 20.23 68.414 0.145 7.17 11.58 8.26
8/25/2021 9:30:00 AM 20.33 68.594 0.146 7.17 11.43 8.25
8/25/2021 9:45:00 AM 20.44 68.792 0.145 7.18 10.55 8.25
8/25/2021 10:00:00 AM 20.55 68.99 0.146 7.18 9.84 8.25
8/25/2021 10:15:00 AM 20.65 69.17 0.146 7.19 11.15 8.24
8/25/2021 10:30:00 AM 20.76 69.368 0.146 7.19 10.83 8.23
8/25/2021 10:45:00 AM 20.88 69.584 0.147 7.19 9.75 8.23
8/25/2021 11:00:00 AM 20.99 69.782 0.148 7.2 10.33 8.22
8/25/2021 11:15:00 AM 21.11 69.998 0.146 7.2 10.45 8.2
8/25/2021 11:30:00 AM 21.24 70.232 0.147 7.2 11.03 8.19
8/25/2021 11:45:00 AM 21.41 70.538 0.148 7.2 9.86 8.17
8/25/2021 12:00:00 PM 21.59 70.862 0.147 7.21 9.84 8.15
8/25/2021 12:15:00 PM 21.84 71.312 0.149 7.21 10.45 8.13
8/25/2021 12:30:00 PM 22.07 71.726 0.148 7.22 9.92 8.1
8/25/2021 12:45:00 PM 22.34 72.212 0.15 7.22 9.51 8.06
8/25/2021 1:00:00 PM 22.56 72.608 0.148 7.22 9.13 8.04
8/25/2021 1:15:00 PM 22.76 72.968 0.149 7.23 9.54 8.01
8/25/2021 1:30:00 PM 22.9 73.22 0.15 7.23 9.4 7.98
8/25/2021 1:45:00 PM 23.04 73.472 0.15 7.23 9.39 7.96
8/25/2021 2:00:00 PM 23.15 73.67 0.149 7.23 8.59 7.93
8/25/2021 2:15:00 PM 23.27 73.886 0.15 7.23 9.65 7.91
8/25/2021 2:30:00 PM 23.41 74.138 0.149 7.24 9.5 7.89
8/25/2021 2:45:00 PM 23.57 74.426 0.15 7.24 10.07 7.87
8/25/2021 3:00:00 PM 23.73 74.714 0.151 7.24 8.4 7.84
8/25/2021 3:15:00 PM 23.89 75.002 0.151 7.24 9.08 7.82
8/25/2021 3:30:00 PM 24.02 75.236 0.151 7.23 9.45 7.78
8/25/2021 3:45:00 PM 24.08 75.344 0.151 7.24 8.91 7.76
8/25/2021 4:00:00 PM 24.05 75.29 0.15 7.24 9.46 7.73
8/25/2021 4:15:00 PM 24.06 75.308 0.151 7.24 9.01 7.73
8/25/2021 4:30:00 PM 24.04 75.272 0.151 7.23 9.23 7.71
8/25/2021 4:45:00 PM 24.01 75.218 0.151 7.23 8.91 7.7
8/25/2021 5:00:00 PM 23.97 75.146 0.151 7.23 9.05 7.7
8/25/2021 5:15:00 PM 23.93 75.074 0.152 7.23 8.87 7.7
8/25/2021 5:30:00 PM 23.87 74.966 0.151 7.23 8.35 7.69
8/25/2021 5:45:00 PM 23.8 74.84 0.152 7.22 7.98 7.69
8/25/2021 6:00:00 PM 23.73 74.714 0.151 7.22 7.49 7.68
8/25/2021 6:15:00 PM 23.63 74.534 0.152 7.22 8.47 7.68
8/25/2021 6:30:00 PM 23.51 74.318 0.153 7.21 8.25 7.66
8/25/2021 6:45:00 PM 23.39 74.102 0.152 7.2 8.31 7.64
8/25/2021 7:00:00 PM 23.26 73.868 0.153 7.2 8.24 7.64
8/25/2021 7:15:00 PM 23.15 73.67 0.153 7.19 7.96 7.61
8/25/2021 7:30:00 PM 23.04 73.472 0.153 7.18 8.4 7.6
8/25/2021 7:45:00 PM 22.94 73.292 0.153 7.18 7.58 7.6
8/25/2021 8:00:00 PM 22.84 73.112 0.153 7.17 7.36 7.59
8/25/2021 8:15:00 PM 22.75 72.95 0.153 7.16 8.09 7.58
8/25/2021 8:30:00 PM 22.67 72.806 0.154 7.16 7.55 7.58
8/25/2021 8:45:00 PM 22.59 72.662 0.153 7.16 8.26 7.58
8/25/2021 9:00:00 PM 22.52 72.536 0.153 7.15 7.35 7.59
8/25/2021 9:15:00 PM 22.45 72.41 0.153 7.15 8.69 7.59
8/25/2021 9:30:00 PM 22.39 72.302 0.153 7.15 7.47 7.6
8/25/2021 9:45:00 PM 22.33 72.194 0.154 7.15 8.18 7.6
8/25/2021 10:00:00 PM 22.28 72.104 0.154 7.15 9.29 7.61
8/25/2021 10:15:00 PM 22.21 71.978 0.155 7.15 7.56 7.61
8/25/2021 10:30:00 PM 22.16 71.888 0.154 7.15 7.73 7.62
8/25/2021 10:45:00 PM 22.1 71.78 0.154 7.15 8.34 7.63
8/25/2021 11:00:00 PM 22.05 71.69 0.155 7.15 7.93 7.63
8/25/2021 11:15:00 PM 21.98 71.564 0.155 7.14 9.15 7.64
8/25/2021 11:30:00 PM 21.93 71.474 0.155 7.14 8.7 7.65
8/25/2021 11:45:00 PM 21.87 71.366 0.155 7.14 6.53 7.65
8/26/2021 12:00:00 AM 21.83 71.294 0.155 7.14 8.77 7.66
8/26/2021 12:15:00 AM 21.77 71.186 0.155 7.14 6.87 7.66
8/26/2021 12:30:00 AM 21.72 71.096 0.155 7.14 9.33 7.67
8/26/2021 12:45:00 AM 21.67 71.006 0.156 7.14 7.43 7.67
8/26/2021 1:00:00 AM 21.63 70.934 0.155 7.14 7.95 7.68
8/26/2021 1:15:00 AM 21.58 70.844 0.156 7.14 8.25 7.69
8/26/2021 1:30:00 AM 21.54 70.772 0.155 7.14 7.55 7.69
8/26/2021 1:45:00 AM 21.49 70.682 0.156 7.14 7.21 7.7
8/26/2021 2:00:00 AM 21.45 70.61 0.156 7.14 6.91 7.71
8/26/2021 2:15:00 AM 21.41 70.538 0.156 7.14 7.83 7.71
8/26/2021 2:30:00 AM 21.37 70.466 0.156 7.13 7.61 7.71
8/26/2021 2:45:00 AM 21.33 70.394 0.157 7.13 8.48 7.73
8/26/2021 3:00:00 AM 21.29 70.32201 0.157 7.13 7.61 7.73
8/26/2021 3:15:00 AM 21.25 70.25 0.157 7.13 7.8 7.74
8/26/2021 3:30:00 AM 21.22 70.196 0.158 7.13 8 7.74
8/26/2021 3:45:00 AM 21.18 70.124 0.158 7.13 7.64 7.74
8/26/2021 4:00:00 AM 21.14 70.052 0.158 7.13 9.3 7.75
8/26/2021 4:15:00 AM 21.1 69.98 0.158 7.13 8.4 7.76
8/26/2021 4:30:00 AM 21.07 69.926 0.159 7.13 7.47 7.76
8/26/2021 4:45:00 AM 21.04 69.872 0.159 7.13 7.62 7.77
8/26/2021 5:00:00 AM 21.02 69.836 0.158 7.13 6.66 7.78
8/26/2021 5:15:00 AM 20.99 69.782 0.159 7.13 8.82 7.78
8/26/2021 5:30:00 AM 20.97 69.746 0.158 7.13 7.01 7.78
8/26/2021 5:45:00 AM 20.94 69.692 0.159 7.13 7.86 7.78
8/26/2021 6:00:00 AM 20.92 69.656 0.159 7.13 6.64 7.79
8/26/2021 6:15:00 AM 20.9 69.62 0.16 7.13 7.28 7.8
8/26/2021 6:30:00 AM 20.88 69.584 0.159 7.13 6.53 7.79
8/26/2021 6:45:00 AM 20.87 69.566 0.16 7.13 6.17 7.8
8/26/2021 7:00:00 AM 20.85 69.53 0.159 7.13 5.81 7.81
8/26/2021 7:15:00 AM 20.85 69.53 0.16 7.14 5.8 7.83
8/26/2021 7:30:00 AM 20.86 69.548 0.159 7.14 6.39 7.85
8/26/2021 7:45:00 AM 20.87 69.566 0.16 7.14 5.82 7.87
8/26/2021 8:00:00 AM 20.87 69.566 0.16 7.14 5.66 7.88
8/26/2021 8:15:00 AM 20.89 69.602 0.16 7.15 5.22 7.9
8/26/2021 8:30:00 AM 20.92 69.656 0.16 7.15 5.74 7.92
8/26/2021 8:45:00 AM 20.95 69.71 0.16 7.16 5.32 7.93
8/26/2021 9:00:00 AM 20.99 69.782 0.161 7.16 5.5 7.95
8/26/2021 9:15:00 AM 21.06 69.908 0.16 7.16 5.21 7.97
8/26/2021 9:30:00 AM 21.15 70.07 0.161 7.17 5.08 8
8/26/2021 9:45:00 AM 21.29 70.32201 0.16 7.18 4.95 8.01
8/26/2021 10:00:00 AM 21.44 70.592 0.162 7.18 5.02 8.02
8/26/2021 10:15:00 AM 21.55 70.79 0.161 7.19 5.45 8.01
8/26/2021 10:30:00 AM 21.6 70.88 0.161 7.19 4.82 7.99
8/26/2021 10:45:00 AM 21.63 70.934 0.161 7.19 4.78 7.97
8/26/2021 11:00:00 AM 21.63 70.934 0.162 7.19 4.69 7.96
8/26/2021 11:15:00 AM 21.65 70.97 0.162 7.19 4.85 7.96
8/26/2021 11:30:00 AM 21.68 71.024 0.161 7.19 4.89 7.96
8/26/2021 11:45:00 AM 21.72 71.096 0.162 7.19 4.92 7.96
8/26/2021 12:00:00 PM 21.77 71.186 0.162 7.2 4.47 7.97
8/26/2021 12:15:00 PM 21.84 71.312 0.162 7.2 4.85 7.97
8/26/2021 12:30:00 PM 21.92 71.456 0.162 7.2 4.55 7.97
8/26/2021 12:45:00 PM 21.99 71.582 0.162 7.2 5.35 7.97
8/26/2021 1:00:00 PM 22.08 71.744 0.163 7.2 5.44 7.97
8/26/2021 1:15:00 PM 22.18 71.924 0.163 7.21 5.15 7.97
8/26/2021 1:30:00 PM 22.29 72.122 0.163 7.21 5.16 7.97
8/26/2021 1:45:00 PM 22.39 72.302 0.163 7.21 4.98 7.96
8/26/2021 2:00:00 PM 22.51 72.518 0.164 7.21 5.38 7.96
8/26/2021 2:15:00 PM 22.61 72.698 0.164 7.22 5.03 7.94
8/26/2021 2:30:00 PM 22.7 72.86 0.163 7.22 5.06 7.94
8/26/2021 2:45:00 PM 22.8 73.04 0.163 7.22 4.64 7.93
8/26/2021 3:00:00 PM 22.87 73.166 0.163 7.22 4.74 7.92
8/26/2021 3:15:00 PM 22.93 73.274 0.163 7.22 5.02 7.9
8/26/2021 3:30:00 PM 22.96 73.328 0.163 7.22 4.75 7.88
8/26/2021 3:45:00 PM 22.98 73.364 0.164 7.22 4.41 7.86
8/26/2021 4:00:00 PM 23.01 73.418 0.164 7.22 4.56 7.85
8/26/2021 4:15:00 PM 23.04 73.472 0.165 7.22 4.77 7.85
8/26/2021 4:30:00 PM 23.07 73.526 0.164 7.22 4.94 7.84
8/26/2021 4:45:00 PM 23.08 73.544 0.165 7.22 3.98 7.83
8/26/2021 5:00:00 PM 23.08 73.544 0.165 7.22 4.02 7.81
8/26/2021 5:15:00 PM 23.07 73.526 0.165 7.21 4.39 7.79
8/26/2021 5:30:00 PM 23.06 73.508 0.165 7.21 4.85 7.77
8/26/2021 5:45:00 PM 23.04 73.472 0.166 7.21 4.16 7.75
8/26/2021 6:00:00 PM 23.01 73.418 0.166 7.21 4.65 7.73
8/26/2021 6:15:00 PM 22.97 73.346 0.166 7.2 4.06 7.71
8/26/2021 6:30:00 PM 22.91 73.238 0.166 7.2 3.91 7.69
8/26/2021 6:45:00 PM 22.86 73.148 0.165 7.19 4.46 7.67
8/26/2021 7:00:00 PM 22.81 73.058 0.166 7.18 4.32 7.65
8/26/2021 7:15:00 PM 22.75 72.95 0.167 7.18 4.23 7.63
8/26/2021 7:30:00 PM 22.68 72.824 0.167 7.17 4.37 7.6
8/26/2021 7:45:00 PM 22.61 72.698 0.165 7.16 4.34 7.56
8/26/2021 8:00:00 PM 22.54 72.57201 0.167 7.16 4.33 7.54
8/26/2021 8:15:00 PM 22.48 72.464 0.165 7.15 4.13 7.51
8/26/2021 8:30:00 PM 22.41 72.338 0.166 7.15 4.27 7.51
8/26/2021 8:45:00 PM 22.35 72.23 0.167 7.14 10.68 7.5
8/26/2021 9:00:00 PM 22.29 72.122 0.167 7.14 4.95 7.51
8/26/2021 9:15:00 PM 22.23 72.014 0.166 7.14 5.21 7.5
8/26/2021 9:30:00 PM 22.17 71.906 0.167 7.14 4.76 7.51
8/26/2021 9:45:00 PM 22.12 71.816 0.166 7.13 7.62 7.5
8/26/2021 10:00:00 PM 22.06 71.708 0.166 7.13 6.27 7.52
8/26/2021 10:15:00 PM 22.01 71.618 0.167 7.13 8.39 7.51
8/26/2021 10:30:00 PM 21.96 71.528 0.167 7.13 6.5 7.51
8/26/2021 10:45:00 PM 21.91 71.438 0.168 7.13 4.91 7.52
8/26/2021 11:00:00 PM 21.87 71.366 0.167 7.13 5.8 7.52
8/26/2021 11:15:00 PM 21.82 71.276 0.167 7.13 6.81 7.52
8/26/2021 11:30:00 PM 21.78 71.204 0.168 7.12 6.26 7.53
8/26/2021 11:45:00 PM 21.73 71.114 0.168 7.13 5.88 7.53
8/27/2021 12:00:00 AM 21.71 71.078 0.168 7.13 5.5 7.53
8/27/2021 12:15:00 AM 21.66 70.988 0.167 7.12 4.02 7.55
8/27/2021 12:30:00 AM 21.61 70.898 0.168 7.13 5 7.55
8/27/2021 12:45:00 AM 21.58 70.844 0.168 7.13 4.82 7.56
8/27/2021 1:00:00 AM 21.54 70.772 0.169 7.12 5.13 7.57
8/27/2021 1:15:00 AM 21.51 70.718 0.169 7.12 6.11 7.57
8/27/2021 1:30:00 AM 21.48 70.664 0.169 7.13 5.88 7.57
8/27/2021 1:45:00 AM 21.44 70.592 0.169 7.13 5.19 7.58
8/27/2021 2:00:00 AM 21.41 70.538 0.168 7.13 5.34 7.58
8/27/2021 2:15:00 AM 21.38 70.484 0.169 7.13 5.86 7.58
8/27/2021 2:30:00 AM 21.34 70.412 0.17 7.13 5.55 7.59
8/27/2021 2:45:00 AM 21.32 70.376 0.17 7.13 6.12 7.59
8/27/2021 3:00:00 AM 21.29 70.32201 0.169 7.13 6.17 7.6
8/27/2021 3:15:00 AM 21.26 70.268 0.17 7.13 5.15 7.6
8/27/2021 3:30:00 AM 21.23 70.214 0.17 7.12 4.96 7.6
8/27/2021 3:45:00 AM 21.22 70.196 0.169 7.13 5.42 7.6
8/27/2021 4:00:00 AM 21.2 70.16 0.167 7.12 4.86 7.61
8/27/2021 4:15:00 AM 21.18 70.124 0.169 7.13 5.31 7.61
8/27/2021 4:30:00 AM 21.16 70.088 0.169 7.13 7.96 7.61
8/27/2021 4:45:00 AM 21.13 70.034 0.169 7.12 5.61 7.61
8/27/2021 5:00:00 AM 21.09 69.962 0.17 7.12 5.04 7.62
8/27/2021 5:15:00 AM 21.06 69.908 0.17 7.12 4.74 7.63
8/27/2021 5:30:00 AM 21.04 69.872 0.169 7.13 3.48 7.63
8/27/2021 5:45:00 AM 21.01 69.818 0.171 7.12 3.57 7.64
8/27/2021 6:00:00 AM 20.99 69.782 0.17 7.12 3.39 7.64
8/27/2021 6:15:00 AM 20.96 69.728 0.17 7.12 3.94 7.64
8/27/2021 6:30:00 AM 20.94 69.692 0.171 7.12 3.58 7.64
8/27/2021 6:45:00 AM 20.92 69.656 0.17 7.12 3.52 7.66
8/27/2021 7:00:00 AM 20.9 69.62 0.171 7.12 3.06 7.67
8/27/2021 7:15:00 AM 20.88 69.584 0.17 7.13 3.01 7.69
8/27/2021 7:30:00 AM 20.89 69.602 0.17 7.13 2.88 7.7
8/27/2021 7:45:00 AM 20.9 69.62 0.171 7.13 3.32 7.73
8/27/2021 8:00:00 AM 20.92 69.656 0.171 7.14 3.1 7.76
8/27/2021 8:15:00 AM 20.95 69.71 0.172 7.14 2.92 7.77
8/27/2021 8:30:00 AM 20.98 69.764 0.171 7.14 3.03 7.8
8/27/2021 8:45:00 AM 21.01 69.818 0.17 7.15 2.84 7.82
8/27/2021 9:00:00 AM 21.04 69.872 0.171 7.15 2.49 7.84
8/27/2021 9:15:00 AM 21.09 69.962 0.171 7.16 2.55 7.87
8/27/2021 9:30:00 AM 21.14 70.052 0.172 7.16 2.54 7.91
8/27/2021 9:45:00 AM 21.21 70.17799 0.171 7.17 2.55 7.94
8/27/2021 10:00:00 AM 21.26 70.268 0.173 7.17 2.68 7.95
8/27/2021 10:15:00 AM 21.3 70.34 0.172 7.17 2.67 7.96
8/27/2021 10:30:00 AM 21.35 70.43 0.173 7.18 2.42 7.95
8/27/2021 10:45:00 AM 21.4 70.52 0.173 7.18 2.55 7.97
8/27/2021 11:00:00 AM 21.44 70.592 0.172 7.18 2.32 7.97
8/27/2021 11:15:00 AM 21.46 70.628 0.173 7.18 2.58 7.96
8/27/2021 11:30:00 AM 21.48 70.664 0.172 7.18 2.19 7.95
8/27/2021 11:45:00 AM 21.51 70.718 0.173 7.18 2.48 7.96
8/27/2021 12:00:00 PM 21.55 70.79 0.173 7.19 2.42 7.98
8/27/2021 12:15:00 PM 21.63 70.934 0.174 7.19 2.06 8.01
8/27/2021 12:30:00 PM 21.73 71.114 0.173 7.19 2.2 8.03
8/27/2021 12:45:00 PM 21.89 71.402 0.173 7.2 2.42 8.07
8/27/2021 1:00:00 PM 22.08 71.744 0.174 7.21 2.18 8.06
8/27/2021 1:15:00 PM 22.19 71.942 0.174 7.21 2.29 8.06
8/27/2021 1:30:00 PM 22.38 72.284 0.174 7.22 2.33 8.07
8/27/2021 1:45:00 PM 22.54 72.57201 0.173 7.22 2.34 8.05
8/27/2021 2:00:00 PM 22.68 72.824 0.173 7.22 2.3 8.04
8/27/2021 2:15:00 PM 22.93 73.274 0.174 7.22 2.31 8.02
8/27/2021 2:30:00 PM 23.17 73.706 0.174 7.23 2.41 8
8/27/2021 2:45:00 PM 23.39 74.102 0.176 7.23 2.25 7.96
8/27/2021 3:00:00 PM 23.61 74.498 0.174 7.23 2.28 7.93
8/27/2021 3:15:00 PM 23.8 74.84 0.175 7.23 2.47 7.88
8/27/2021 3:30:00 PM 23.95 75.11 0.174 7.24 2.52 7.85
8/27/2021 3:45:00 PM 23.97 75.146 0.174 7.23 2.26 7.8
8/27/2021 4:00:00 PM 23.94 75.092 0.175 7.23 2.7 7.77
8/27/2021 4:15:00 PM 24 75.2 0.175 7.23 3.04 7.75
8/27/2021 4:30:00 PM 23.95 75.11 0.173 7.23 2.84 7.74
8/27/2021 4:45:00 PM 23.9 75.02 0.174 7.22 2.49 7.73
8/27/2021 5:00:00 PM 23.88 74.984 0.174 7.23 2.56 7.74
8/27/2021 5:15:00 PM 23.82 74.876 0.174 7.22 2.49 7.72
8/27/2021 5:30:00 PM 23.79 74.82201 0.174 7.22 2.58 7.72
8/27/2021 5:45:00 PM 23.71 74.67799 0.174 7.22 4.36 7.7
8/27/2021 6:00:00 PM 23.61 74.498 0.174 7.22 3.65 7.68
8/27/2021 6:15:00 PM 23.5 74.3 0.174 7.21 2.93 7.62
8/27/2021 6:30:00 PM 23.39 74.102 0.175 7.2 2.13 7.6
8/27/2021 6:45:00 PM 23.31 73.958 0.173 7.2 2.61 7.57
8/27/2021 7:00:00 PM 23.19 73.742 0.175 7.19 4.23 7.55
8/27/2021 7:15:00 PM 23.1 73.58 0.174 7.19 2.37 7.53
8/27/2021 7:30:00 PM 23 73.4 0.175 7.18 2.47 7.5
8/27/2021 7:45:00 PM 22.91 73.238 0.175 7.18 2.41 7.48
8/27/2021 8:00:00 PM 22.82 73.076 0.174 7.17 2.36 7.44
8/27/2021 8:15:00 PM 22.71 72.878 0.176 7.16 2.19 7.42
8/27/2021 8:30:00 PM 22.65 72.77 0.174 7.16 2.61 7.4
8/27/2021 8:45:00 PM 22.55 72.59 0.175 7.15 2.62 7.39
8/27/2021 9:00:00 PM 22.48 72.464 0.174 7.14 2.53 7.38
8/27/2021 9:15:00 PM 22.42 72.356 0.176 7.14 2.79 7.38
8/27/2021 9:30:00 PM 22.36 72.248 0.174 7.14 2.63 7.38
8/27/2021 9:45:00 PM 22.3 72.14 0.177 7.14 2.92 7.38
8/27/2021 10:00:00 PM 22.26 72.068 0.177 7.13 3.14 7.38
8/27/2021 10:15:00 PM 22.22 71.996 0.175 7.13 2.58 7.39
8/27/2021 10:30:00 PM 22.17 71.906 0.175 7.13 3.37 7.38
8/27/2021 10:45:00 PM 22.13 71.834 0.176 7.13 3.06 7.38
8/27/2021 11:00:00 PM 22.08 71.744 0.177 7.13 3.82 7.39
8/27/2021 11:15:00 PM 22.05 71.69 0.177 7.13 4.51 7.39
8/27/2021 11:30:00 PM 22.02 71.636 0.177 7.12 3.71 7.4
8/27/2021 11:45:00 PM 21.98 71.564 0.177 7.12 3.4 7.4
8/28/2021 12:00:00 AM 21.95 71.51 0.175 7.12 3.2 7.41
8/28/2021 12:15:00 AM 21.92 71.456 0.176 7.12 3.31 7.4
8/28/2021 12:30:00 AM 21.89 71.402 0.178 7.12 3.36 7.41
8/28/2021 12:45:00 AM 21.87 71.366 0.177 7.12 3.87 7.4
8/28/2021 1:00:00 AM 21.84 71.312 0.178 7.12 3.74 7.41
8/28/2021 1:15:00 AM 21.81 71.258 0.176 7.12 3.93 7.42
8/28/2021 1:30:00 AM 21.79 71.222 0.178 7.12 3.57 7.42
8/28/2021 1:45:00 AM 21.76 71.168 0.178 7.12 3.11 7.42
8/28/2021 2:00:00 AM 21.73 71.114 0.178 7.12 3.42 7.42
8/28/2021 2:15:00 AM 21.71 71.078 0.178 7.12 3.52 7.42
8/28/2021 2:30:00 AM 21.68 71.024 0.178 7.12 4.1 7.43
8/28/2021 2:45:00 AM 21.66 70.988 0.178 7.12 3.63 7.44
8/28/2021 3:00:00 AM 21.65 70.97 0.178 7.12 4.01 7.44
8/28/2021 3:15:00 AM 21.63 70.934 0.178 7.12 3.62 7.44
8/28/2021 3:30:00 AM 21.61 70.898 0.178 7.12 3.88 7.45
8/28/2021 3:45:00 AM 21.6 70.88 0.178 7.12 3.91 7.46
8/28/2021 4:00:00 AM 21.58 70.844 0.178 7.12 3.74 7.46
8/28/2021 4:15:00 AM 21.57 70.826 0.178 7.12 3.84 7.47
8/28/2021 4:30:00 AM 21.55 70.79 0.176 7.12 4.56 7.47
8/28/2021 4:45:00 AM 21.53 70.754 0.177 7.12 3.25 7.48
8/28/2021 5:00:00 AM 21.51 70.718 0.178 7.12 3.86 7.48
8/28/2021 5:15:00 AM 21.49 70.682 0.177 7.12 3.56 7.48
8/28/2021 5:30:00 AM 21.48 70.664 0.177 7.12 3.6 7.49
8/28/2021 5:45:00 AM 21.46 70.628 0.178 7.12 3.44 7.49
8/28/2021 6:00:00 AM 21.44 70.592 0.178 7.12 3.15 7.49
8/28/2021 6:15:00 AM 21.43 70.574 0.178 7.12 2.85 7.5
8/28/2021 6:30:00 AM 21.41 70.538 0.178 7.12 2.73 7.5
8/28/2021 6:45:00 AM 21.39 70.502 0.177 7.12 2.64 7.51
8/28/2021 7:00:00 AM 21.37 70.466 0.178 7.12 2.65 7.52
8/28/2021 7:15:00 AM 21.35 70.43 0.177 7.12 2.42 7.52
8/28/2021 7:30:00 AM 21.34 70.412 0.178 7.12 2.08 7.55
8/28/2021 7:45:00 AM 21.34 70.412 0.177 7.13 2.21 7.57
8/28/2021 8:00:00 AM 21.35 70.43 0.179 7.13 2.26 7.63
8/28/2021 8:15:00 AM 21.35 70.43 0.177 7.14 2.17 7.65
8/28/2021 8:30:00 AM 21.36 70.448 0.178 7.14 2.24 7.68
8/28/2021 8:45:00 AM 21.37 70.466 0.178 7.14 1.88 7.72
8/28/2021 9:00:00 AM 21.38 70.484 0.178 7.15 1.9 7.73
8/28/2021 9:15:00 AM 21.39 70.502 0.177 7.15 1.99 7.75
8/28/2021 9:30:00 AM 21.4 70.52 0.178 7.15 1.88 7.77
8/28/2021 9:45:00 AM 21.42 70.556 0.178 7.16 1.86 7.8
8/28/2021 10:00:00 AM 21.44 70.592 0.178 7.16 1.94 7.85
8/28/2021 10:15:00 AM 21.48 70.664 0.177 7.17 1.67 7.89
8/28/2021 10:30:00 AM 21.5 70.7 0.177 7.17 1.78 7.92
8/28/2021 10:45:00 AM 21.54 70.772 0.179 7.18 1.8 7.96
8/28/2021 11:00:00 AM 21.57 70.826 0.179 7.19 1.74 7.99
8/28/2021 11:15:00 AM 21.57 70.826 0.177 7.19 1.96 7.97
8/28/2021 11:30:00 AM 21.59 70.862 0.177 7.19 2.17 7.96
8/28/2021 11:45:00 AM 21.6 70.88 0.177 7.19 1.78 7.98
8/28/2021 12:00:00 PM 21.64 70.952 0.177 7.19 1.77 8.03
8/28/2021 12:15:00 PM 21.74 71.132 0.178 7.2 1.82 8.1
8/28/2021 12:30:00 PM 21.88 71.384 0.178 7.21 1.93 8.15
8/28/2021 12:45:00 PM 22.06 71.708 0.177 7.22 1.66 8.2
8/28/2021 1:00:00 PM 22.25 72.05 0.178 7.23 1.67 8.23
8/28/2021 1:15:00 PM 22.38 72.284 0.177 7.23 1.79 8.22
8/28/2021 1:30:00 PM 22.58 72.644 0.179 7.24 1.82 8.22
8/28/2021 1:45:00 PM 22.77 72.986 0.18 7.24 1.61 8.22
8/28/2021 2:00:00 PM 22.96 73.328 0.178 7.25 1.5 8.2
8/28/2021 2:15:00 PM 23.08 73.544 0.176 7.25 1.62 8.19
8/28/2021 2:30:00 PM 23.18 73.724 0.178 7.25 1.56 8.16
8/28/2021 2:45:00 PM 23.22 73.796 0.177 7.25 1.92 8.14
8/28/2021 3:00:00 PM 23.24 73.832 0.176 7.25 1.53 8.1
8/28/2021 3:15:00 PM 23.26 73.868 0.178 7.25 1.66 8.08
8/28/2021 3:30:00 PM 23.27 73.886 0.176 7.25 1.71 8.09
8/28/2021 3:45:00 PM 23.26 73.868 0.177 7.25 1.69 8.1
8/28/2021 4:00:00 PM 23.19 73.742 0.179 7.25 1.66 8.07
8/28/2021 4:15:00 PM 23.1 73.58 0.178 7.24 1.51 8.03
8/28/2021 4:30:00 PM 23.06 73.508 0.177 7.24 1.65 8.02
8/28/2021 4:45:00 PM 23.02 73.436 0.177 7.24 1.58 8.03
8/28/2021 5:00:00 PM 23 73.4 0.177 7.24 1.66 8.06
8/28/2021 5:15:00 PM 22.99 73.382 0.178 7.24 1.71 8.07
8/28/2021 5:30:00 PM 23.01 73.418 0.177 7.25 1.62 8.09
8/28/2021 5:45:00 PM 22.99 73.382 0.177 7.25 1.65 8.07
8/28/2021 6:00:00 PM 22.92 73.256 0.176 7.24 1.72 8.02
8/28/2021 6:15:00 PM 22.86 73.148 0.178 7.23 1.72 7.99
8/28/2021 6:30:00 PM 22.75 72.95 0.173 7.22 1.81 7.95
8/28/2021 6:45:00 PM 22.65 72.77 0.173 7.21 1.74 7.87
8/28/2021 7:00:00 PM 22.53 72.554 0.173 7.2 1.67 7.78
8/28/2021 7:15:00 PM 22.41 72.338 0.174 7.19 1.77 7.71
8/28/2021 7:30:00 PM 22.31 72.158 0.171 7.18 1.65 7.67
8/28/2021 7:45:00 PM 22.23 72.014 0.173 7.17 1.98 7.62
8/28/2021 8:00:00 PM 22.12 71.816 0.173 7.16 1.95 7.56
8/28/2021 8:15:00 PM 22.05 71.69 0.176 7.15 1.85 7.54
8/28/2021 8:30:00 PM 21.99 71.582 0.18 7.15 1.98 7.51
8/28/2021 8:45:00 PM 21.93 71.474 0.181 7.15 1.94 7.49
8/28/2021 9:00:00 PM 21.87 71.366 0.182 7.14 1.91 7.48
8/28/2021 9:15:00 PM 21.82 71.276 0.182 7.14 2.04 7.47
8/28/2021 9:30:00 PM 21.78 71.204 0.18 7.14 2.11 7.45
8/28/2021 9:45:00 PM 21.74 71.132 0.181 7.13 2.33 7.45
8/28/2021 10:00:00 PM 21.71 71.078 0.182 7.13 2.98 7.44
8/28/2021 10:15:00 PM 21.68 71.024 0.182 7.12 2.62 7.44
8/28/2021 10:30:00 PM 21.66 70.988 0.181 7.13 2.55 7.44
8/28/2021 10:45:00 PM 21.63 70.934 0.181 7.12 2.51 7.44
8/28/2021 11:00:00 PM 21.6 70.88 0.183 7.12 2.8 7.44
8/28/2021 11:15:00 PM 21.58 70.844 0.181 7.12 2.85 7.44
8/28/2021 11:30:00 PM 21.55 70.79 0.183 7.12 3.58 7.44
8/28/2021 11:45:00 PM 21.53 70.754 0.181 7.12 3.98 7.43
8/29/2021 12:00:00 AM 21.5 70.7 0.182 7.12 3.63 7.44
8/29/2021 12:15:00 AM 21.48 70.664 0.184 7.12 3.96 7.43
8/29/2021 12:30:00 AM 21.46 70.628 0.183 7.12 4.46 7.44
8/29/2021 12:45:00 AM 21.43 70.574 0.183 7.12 3.96 7.44
8/29/2021 1:00:00 AM 21.41 70.538 0.183 7.12 3.98 7.44
8/29/2021 1:15:00 AM 21.39 70.502 0.184 7.12 3.89 7.44
8/29/2021 1:30:00 AM 21.37 70.466 0.182 7.12 4.51 7.44
8/29/2021 1:45:00 AM 21.35 70.43 0.184 7.12 4.34 7.44
8/29/2021 2:00:00 AM 21.33 70.394 0.183 7.12 3.76 7.44
8/29/2021 2:15:00 AM 21.31 70.358 0.183 7.12 3.98 7.42
8/29/2021 2:30:00 AM 21.29 70.32201 0.183 7.12 4.01 7.43
8/29/2021 2:45:00 AM 21.27 70.286 0.182 7.12 4 7.43
8/29/2021 3:00:00 AM 21.26 70.268 0.184 7.12 4.38 7.43
8/29/2021 3:15:00 AM 21.25 70.25 0.18 7.12 4.49 7.43
8/29/2021 3:30:00 AM 21.24 70.232 0.185 7.12 5.36 7.42
8/29/2021 3:45:00 AM 21.22 70.196 0.184 7.11 6.12 7.43
8/29/2021 4:00:00 AM 21.21 70.17799 0.183 7.11 6.93 7.44
8/29/2021 4:15:00 AM 21.2 70.16 0.183 7.11 7.22 7.43
8/29/2021 4:30:00 AM 21.18 70.124 0.184 7.11 7.57 7.43
8/29/2021 4:45:00 AM 21.17 70.106 0.184 7.11 7.93 7.42
8/29/2021 5:00:00 AM 21.16 70.088 0.183 7.11 7.35 7.43
8/29/2021 5:15:00 AM 21.15 70.07 0.184 7.11 7.9 7.42
8/29/2021 5:30:00 AM 21.13 70.034 0.184 7.11 5.93 7.43
8/29/2021 5:45:00 AM 21.12 70.016 0.184 7.11 5.12 7.43
8/29/2021 6:00:00 AM 21.11 69.998 0.185 7.11 5.5 7.43
8/29/2021 6:15:00 AM 21.09 69.962 0.185 7.11 4.9 7.43
8/29/2021 6:30:00 AM 21.07 69.926 0.183 7.11 4.09 7.43
8/29/2021 6:45:00 AM 21.06 69.908 0.185 7.11 3.99 7.43
8/29/2021 7:00:00 AM 21.04 69.872 0.184 7.11 3.41 7.45
8/29/2021 7:15:00 AM 21.03 69.854 0.184 7.12 2.94 7.48
8/29/2021 7:30:00 AM 21.02 69.836 0.183 7.12 3 7.52
8/29/2021 7:45:00 AM 21.03 69.854 0.181 7.12 2.86 7.56
8/29/2021 8:00:00 AM 21.04 69.872 0.183 7.13 2.45 7.63
8/29/2021 8:15:00 AM 21.06 69.908 0.183 7.14 2.42 7.7
8/29/2021 8:30:00 AM 21.08 69.944 0.184 7.14 2.3 7.76
8/29/2021 8:45:00 AM 21.12 70.016 0.183 7.15 2.07 7.83
8/29/2021 9:00:00 AM 21.16 70.088 0.185 7.16 1.84 7.9
8/29/2021 9:15:00 AM 21.21 70.17799 0.186 7.16 1.8 7.96
8/29/2021 9:30:00 AM 21.3 70.34 0.185 7.18 1.75 8.05
8/29/2021 9:45:00 AM 21.37 70.466 0.184 7.18 1.82 8.1
8/29/2021 10:00:00 AM 21.45 70.61 0.183 7.19 1.54 8.15
8/29/2021 10:15:00 AM 21.55 70.79 0.183 7.2 1.76 8.2
8/29/2021 10:30:00 AM 21.72 71.096 0.187 7.21 1.57 8.23
8/29/2021 10:45:00 AM 21.89 71.402 0.184 7.21 1.5 8.25
8/29/2021 11:00:00 AM 22.09 71.762 0.185 7.22 1.59 8.29
8/29/2021 11:15:00 AM 22.28 72.104 0.186 7.23 1.45 8.3
8/29/2021 11:30:00 AM 22.42 72.356 0.185 7.23 1.51 8.3
8/29/2021 11:45:00 AM 22.54 72.57201 0.187 7.24 1.45 8.31
8/29/2021 12:00:00 PM 22.64 72.752 0.185 7.24 1.5 8.31
8/29/2021 12:15:00 PM 22.69 72.842 0.184 7.24 1.42 8.29
8/29/2021 12:30:00 PM 22.75 72.95 0.187 7.24 1.38 8.31
8/29/2021 12:45:00 PM 22.83 73.094 0.187 7.24 1.31 8.34
8/29/2021 1:00:00 PM 22.87 73.166 0.184 7.25 1.42 8.34
8/29/2021 1:15:00 PM 22.88 73.184 0.185 7.25 1.3 8.34
8/29/2021 1:30:00 PM 22.87 73.166 0.185 7.25 1.2 8.29
8/29/2021 1:45:00 PM 22.87 73.166 0.184 7.24 1.24 8.27
8/29/2021 2:00:00 PM 22.91 73.238 0.184 7.25 1.41 8.29
8/29/2021 2:15:00 PM 22.91 73.238 0.186 7.24 1.27 8.25
8/29/2021 2:30:00 PM 22.89 73.202 0.183 7.24 1.27 8.21
8/29/2021 2:45:00 PM 22.88 73.184 0.184 7.24 1.25 8.2
8/29/2021 3:00:00 PM 22.95 73.31 0.185 7.24 1.28 8.25
8/29/2021 3:15:00 PM 23.01 73.418 0.186 7.24 1.29 8.27
8/29/2021 3:30:00 PM 23.05 73.49 0.185 7.25 1.28 8.26
8/29/2021 3:45:00 PM 23.1 73.58 0.184 7.25 1.34 8.27
8/29/2021 4:00:00 PM 23.26 73.868 0.185 7.25 1.37 8.29
8/29/2021 4:15:00 PM 23.31 73.958 0.185 7.25 1.38 8.26
8/29/2021 4:30:00 PM 23.31 73.958 0.182 7.25 1.56 8.22
8/29/2021 4:45:00 PM 23.29 73.922 0.185 7.24 1.35 8.16
8/29/2021 5:00:00 PM 23.26 73.868 0.184 7.24 1.42 8.1
8/29/2021 5:15:00 PM 23.25 73.85 0.184 7.23 1.17 8.06
8/29/2021 5:30:00 PM 23.19 73.742 0.185 7.22 1.42 8.01
8/29/2021 5:45:00 PM 23.14 73.652 0.185 7.22 1.41 7.96
8/29/2021 6:00:00 PM 23.08 73.544 0.184 7.21 1.41 7.91
8/29/2021 6:15:00 PM 23.03 73.454 0.185 7.21 1.37 7.9
8/29/2021 6:30:00 PM 22.98 73.364 0.186 7.2 1.4 7.87
8/29/2021 6:45:00 PM 22.91 73.238 0.185 7.2 1.4 7.81
8/29/2021 7:00:00 PM 22.83 73.094 0.185 7.18 1.42 7.69
8/29/2021 7:15:00 PM 22.74 72.932 0.185 7.17 1.47 7.58
8/29/2021 7:30:00 PM 22.67 72.806 0.186 7.16 1.72 7.5
8/29/2021 7:45:00 PM 22.6 72.68 0.184 7.15 1.34 7.43
8/29/2021 8:00:00 PM 22.52 72.536 0.187 7.14 1.92 7.36
8/29/2021 8:15:00 PM 22.44 72.392 0.187 7.13 1.49 7.31
8/29/2021 8:30:00 PM 22.37 72.266 0.186 7.12 1.75 7.26
8/29/2021 8:45:00 PM 22.29 72.122 0.187 7.12 1.56 7.23
8/29/2021 9:00:00 PM 22.23 72.014 0.188 7.11 1.48 7.22
8/29/2021 9:15:00 PM 22.15 71.87 0.187 7.11 1.39 7.18
8/29/2021 9:30:00 PM 22.1 71.78 0.187 7.11 1.52 7.18
8/29/2021 9:45:00 PM 22.04 71.672 0.185 7.1 1.77 7.18
8/29/2021 10:00:00 PM 21.99 71.582 0.188 7.1 1.66 7.19
8/29/2021 10:15:00 PM 21.94 71.492 0.186 7.1 2.06 7.16
8/29/2021 10:30:00 PM 21.9 71.42 0.188 7.1 2.28 7.19
8/29/2021 10:45:00 PM 21.86 71.348 0.187 7.1 2.47 7.17
8/29/2021 11:00:00 PM 21.83 71.294 0.188 7.09 1.89 7.18
8/29/2021 11:15:00 PM 21.79 71.222 0.187 7.09 2.11 7.18
8/29/2021 11:30:00 PM 21.77 71.186 0.188 7.09 1.84 7.18
8/29/2021 11:45:00 PM 21.74 71.132 0.189 7.09 1.85 7.19
8/30/2021 12:00:00 AM 21.73 71.114 0.188 7.09 1.71 7.17
8/30/2021 12:15:00 AM 21.71 71.078 0.189 7.09 2.18 7.17
8/30/2021 12:30:00 AM 21.69 71.042 0.189 7.09 1.98 7.18
8/30/2021 12:45:00 AM 21.67 71.006 0.188 7.09 1.82 7.17
8/30/2021 1:00:00 AM 21.65 70.97 0.189 7.09 1.76 7.18
8/30/2021 1:15:00 AM 21.63 70.934 0.188 7.09 2 7.17
8/30/2021 1:30:00 AM 21.61 70.898 0.187 7.08 1.79 7.18
8/30/2021 1:45:00 AM 21.59 70.862 0.19 7.08 1.81 7.17
8/30/2021 2:00:00 AM 21.56 70.808 0.189 7.08 1.97 7.17
8/30/2021 2:15:00 AM 21.55 70.79 0.188 7.08 2.3 7.16
8/30/2021 2:30:00 AM 21.53 70.754 0.187 7.08 2.02 7.17
8/30/2021 2:45:00 AM 21.51 70.718 0.188 7.08 1.93 7.17
8/30/2021 3:00:00 AM 21.5 70.7 0.192 7.08 1.83 7.16
8/30/2021 3:15:00 AM 21.49 70.682 0.189 7.08 1.66 7.17
8/30/2021 3:30:00 AM 21.47 70.646 0.191 7.08 1.83 7.15
8/30/2021 3:45:00 AM 21.45 70.61 0.19 7.08 2.29 7.17
8/30/2021 4:00:00 AM 21.44 70.592 0.19 7.08 1.75 7.16
8/30/2021 4:15:00 AM 21.43 70.574 0.19 7.08 1.4 7.16
8/30/2021 4:30:00 AM 21.41 70.538 0.191 7.08 1.6 7.16
8/30/2021 4:45:00 AM 21.4 70.52 0.19 7.08 1.45 7.15
8/30/2021 5:00:00 AM 21.38 70.484 0.191 7.08 1.74 7.15
8/30/2021 5:15:00 AM 21.36 70.448 0.191 7.08 1.23 7.15
8/30/2021 5:30:00 AM 21.35 70.43 0.191 7.08 1.5 7.15
8/30/2021 5:45:00 AM 21.34 70.412 0.193 7.08 1.6 7.15
8/30/2021 6:00:00 AM 21.33 70.394 0.192 7.08 1.35 7.15
8/30/2021 6:15:00 AM 21.32 70.376 0.191 7.08 1.63 7.15
8/30/2021 6:30:00 AM 21.31 70.358 0.191 7.08 1.58 7.15
8/30/2021 6:45:00 AM 21.29 70.32201 0.191 7.08 1.47 7.14
8/30/2021 7:00:00 AM 21.29 70.32201 0.192 7.08 1.39 7.18
8/30/2021 7:15:00 AM 21.29 70.32201 0.192 7.08 1.38 7.22
8/30/2021 7:30:00 AM 21.3 70.34 0.192 7.09 1.3 7.29
8/30/2021 7:45:00 AM 21.31 70.358 0.191 7.09 1.05 7.32
8/30/2021 8:00:00 AM 21.33 70.394 0.191 7.1 1.25 7.36
8/30/2021 8:15:00 AM 21.35 70.43 0.191 7.1 0.94 7.43
8/30/2021 8:30:00 AM 21.37 70.466 0.19 7.11 1.08 7.51
8/30/2021 8:45:00 AM 21.39 70.502 0.193 7.11 1.14 7.57
8/30/2021 9:00:00 AM 21.44 70.592 0.192 7.13 1.16 7.67
8/30/2021 9:15:00 AM 21.47 70.646 0.191 7.14 1.1 7.75
8/30/2021 9:30:00 AM 21.54 70.772 0.189 7.15 1.07 7.82
8/30/2021 9:45:00 AM 21.66 70.988 0.193 7.16 1.02 7.89
8/30/2021 10:00:00 AM 21.8 71.24 0.191 7.17 0.94 8.02
8/30/2021 10:15:00 AM 21.9 71.42 0.191 7.18 0.86 8.1
8/30/2021 10:30:00 AM 22.01 71.618 0.191 7.19 1 8.15
8/30/2021 10:45:00 AM 22.11 71.798 0.19 7.2 0.94 8.21
8/30/2021 11:00:00 AM 22.24 72.032 0.192 7.21 0.99 8.26
8/30/2021 11:15:00 AM 22.36 72.248 0.19 7.22 1.02 8.32
8/30/2021 11:30:00 AM 22.46 72.42799 0.19 7.23 1.01 8.35
8/30/2021 11:45:00 AM 22.59 72.662 0.191 7.23 0.95 8.4
8/30/2021 12:00:00 PM 22.7 72.86 0.191 7.24 0.93 8.42
8/30/2021 12:15:00 PM 22.9 73.22 0.192 7.25 0.86 8.45
8/30/2021 12:30:00 PM 23.13 73.634 0.193 7.25 0.9 8.41
8/30/2021 12:45:00 PM 23.22 73.796 0.187 7.26 0.83 8.42
8/30/2021 1:00:00 PM 23.42 74.156 0.189 7.26 0.88 8.42
8/30/2021 1:15:00 PM 23.69 74.642 0.187 7.26 0.84 8.42
8/30/2021 1:30:00 PM 23.91 75.038 0.187 7.27 0.92 8.41
8/30/2021 1:45:00 PM 24 75.2 0.187 7.27 0.81 8.4
8/30/2021 2:00:00 PM 24.06 75.308 0.187 7.27 0.83 8.39
8/30/2021 2:15:00 PM 24.21 75.578 0.188 7.27 0.89 8.37
8/30/2021 2:30:00 PM 24.34 75.812 0.189 7.28 0.82 8.38
8/30/2021 2:45:00 PM 24.48 76.064 0.188 7.28 0.75 8.36
8/30/2021 3:00:00 PM 24.59 76.262 0.189 7.28 0.8 8.34
8/30/2021 3:15:00 PM 24.61 76.298 0.189 7.28 0.82 8.31
8/30/2021 3:30:00 PM 24.58 76.244 0.189 7.28 0.91 8.3
8/30/2021 3:45:00 PM 24.61 76.298 0.189 7.28 0.82 8.28
8/30/2021 4:00:00 PM 24.64 76.352 0.188 7.27 0.9 8.26
8/30/2021 4:15:00 PM 24.67 76.406 0.19 7.27 0.89 8.25
8/30/2021 4:30:00 PM 24.59 76.262 0.187 7.27 0.85 8.15
8/30/2021 4:45:00 PM 24.47 76.046 0.187 7.25 0.85 8.05
8/30/2021 5:00:00 PM 24.32 75.776 0.187 7.24 0.9 7.97
8/30/2021 5:15:00 PM 24.29 75.722 0.187 7.24 1.03 8.02
8/30/2021 5:30:00 PM 24.21 75.578 0.187 7.24 0.87 8
8/30/2021 5:45:00 PM 24.12 75.416 0.186 7.23 0.98 7.96
8/30/2021 6:00:00 PM 24.02 75.236 0.186 7.22 0.8 7.87
8/30/2021 6:15:00 PM 23.91 75.038 0.185 7.21 0.93 7.76
8/30/2021 6:30:00 PM 23.74 74.732 0.186 7.19 0.89 7.64
8/30/2021 6:45:00 PM 23.61 74.498 0.186 7.18 0.85 7.57
8/30/2021 7:00:00 PM 23.49 74.282 0.185 7.17 1.04 7.51
8/30/2021 7:15:00 PM 23.4 74.12 0.188 7.16 1.51 7.45
8/30/2021 7:30:00 PM 23.23 73.814 0.185 7.14 0.95 7.36
8/30/2021 7:45:00 PM 23.14 73.652 0.189 7.13 0.84 7.28
8/30/2021 8:00:00 PM 22.99 73.382 0.185 7.12 0.91 7.18
8/30/2021 8:15:00 PM 22.93 73.274 0.188 7.11 0.89 7.11
8/30/2021 8:30:00 PM 22.8 73.04 0.192 7.1 0.82 7.03
8/30/2021 8:45:00 PM 22.68 72.824 0.193 7.1 1.27 7.02
8/30/2021 9:00:00 PM 22.6 72.68 0.19 7.09 0.91 6.98
8/30/2021 9:15:00 PM 22.51 72.518 0.19 7.09 1.06 6.96
8/30/2021 9:30:00 PM 22.47 72.446 0.191 7.08 0.87 6.94
8/30/2021 9:45:00 PM 22.36 72.248 0.192 7.08 0.95 6.95
8/30/2021 10:00:00 PM 22.28 72.104 0.196 7.08 1.05 6.95
8/30/2021 10:15:00 PM 22.24 72.032 0.185 7.08 1.01 6.92
8/30/2021 10:30:00 PM 22.16 71.888 0.19 7.07 1.26 6.95
8/30/2021 10:45:00 PM 22.08 71.744 0.188 7.07 1.18 6.94
8/30/2021 11:00:00 PM 22.02 71.636 0.187 7.07 1.17 6.95
8/30/2021 11:15:00 PM 21.97 71.546 0.189 7.07 1.41 6.94
8/30/2021 11:30:00 PM 21.9 71.42 0.189 7.07 1.5 6.96
8/30/2021 11:45:00 PM 21.86 71.348 0.187 7.07 1.57 6.95
8/31/2021 12:00:00 AM 21.8 71.24 0.189 7.06 1.41 6.96
8/31/2021 12:15:00 AM 21.76 71.168 0.19 7.06 1.55 6.96
8/31/2021 12:30:00 AM 21.71 71.078 0.188 7.06 1.33 6.96
8/31/2021 12:45:00 AM 21.67 71.006 0.194 7.06 1.27 6.96
8/31/2021 1:00:00 AM 21.62 70.916 0.198 7.06 1.27 6.97
8/31/2021 1:15:00 AM 21.59 70.862 0.197 7.06 1.25 6.97
8/31/2021 1:30:00 AM 21.56 70.808 0.198 7.06 1.33 6.97
8/31/2021 1:45:00 AM 21.53 70.754 0.197 7.06 1.34 6.97
8/31/2021 2:00:00 AM 21.51 70.718 0.198 7.06 1.4 6.96
8/31/2021 2:15:00 AM 21.49 70.682 0.199 7.06 1.23 6.96
8/31/2021 2:30:00 AM 21.47 70.646 0.198 7.06 1.49 6.95
8/31/2021 2:45:00 AM 21.43 70.574 0.197 7.06 1.35 6.94
8/31/2021 3:00:00 AM 21.4 70.52 0.199 7.06 1.2 6.96
8/31/2021 3:15:00 AM 21.36 70.448 0.199 7.06 1.4 6.96
8/31/2021 3:30:00 AM 21.32 70.376 0.198 7.06 1.18 6.97
8/31/2021 3:45:00 AM 21.29 70.32201 0.198 7.06 1.31 6.98
8/31/2021 4:00:00 AM 21.25 70.25 0.199 7.06 1.35 6.98
8/31/2021 4:15:00 AM 21.22 70.196 0.198 7.06 1.23 6.98
8/31/2021 4:30:00 AM 21.18 70.124 0.198 7.06 1.12 6.98
8/31/2021 4:45:00 AM 21.14 70.052 0.198 7.06 1.55 7
8/31/2021 5:00:00 AM 21.1 69.98 0.199 7.06 1.2 7.01
8/31/2021 5:15:00 AM 21.08 69.944 0.197 7.06 1.11 6.99
8/31/2021 5:30:00 AM 21.03 69.854 0.201 7.06 1.09 7.01
8/31/2021 5:45:00 AM 21 69.8 0.199 7.06 1.07 6.98
8/31/2021 6:00:00 AM 20.97 69.746 0.2 7.06 1.25 7
8/31/2021 6:15:00 AM 20.93 69.674 0.2 7.06 1.09 7.01
8/31/2021 6:30:00 AM 20.9 69.62 0.198 7.06 1.09 7
8/31/2021 6:45:00 AM 20.88 69.584 0.198 7.06 0.94 7.01
8/31/2021 7:00:00 AM 20.86 69.548 0.2 7.05 1.37 7.01
8/31/2021 7:15:00 AM 20.84 69.512 0.2 7.06 0.98 7.08
8/31/2021 7:30:00 AM 20.82 69.476 0.199 7.06 0.99 7.15
8/31/2021 7:45:00 AM 20.82 69.476 0.2 7.07 0.84 7.26
8/31/2021 8:00:00 AM 20.82 69.476 0.198 7.08 0.84 7.35
8/31/2021 8:15:00 AM 20.83 69.494 0.2 7.09 0.8 7.47
8/31/2021 8:30:00 AM 20.85 69.53 0.199 7.1 0.8 7.58
8/31/2021 8:45:00 AM 20.89 69.602 0.199 7.11 0.83 7.72
8/31/2021 9:00:00 AM 20.94 69.692 0.199 7.12 0.88 7.86
8/31/2021 9:15:00 AM 21 69.8 0.199 7.14 0.71 7.99
8/31/2021 9:30:00 AM 21.09 69.962 0.199 7.15 0.86 8.12
8/31/2021 9:45:00 AM 21.17 70.106 0.198 7.17 0.72 8.21
8/31/2021 10:00:00 AM 21.32 70.376 0.199 7.18 0.76 8.34
8/31/2021 10:15:00 AM 21.36 70.448 0.198 7.19 0.78 8.37
8/31/2021 10:30:00 AM 21.43 70.574 0.199 7.19 0.81 8.39
8/31/2021 10:45:00 AM 21.57 70.826 0.197 7.2 0.68 8.47
8/31/2021 11:00:00 AM 21.67 71.006 0.198 7.21 0.71 8.52
8/31/2021 11:15:00 AM 21.83 71.294 0.197 7.22 0.75 8.56
8/31/2021 11:30:00 AM 21.98 71.564 0.198 7.23 0.72 8.59
8/31/2021 11:45:00 AM 22.17 71.906 0.197 7.23 0.66 8.6
8/31/2021 12:00:00 PM 22.34 72.212 0.197 7.24 0.74 8.62
8/31/2021 12:15:00 PM 22.52 72.536 0.198 7.25 0.71 8.63
8/31/2021 12:30:00 PM 22.7 72.86 0.197 7.25 0.67 8.65
8/31/2021 12:45:00 PM 22.79 73.022 0.199 7.25 0.73 8.57
8/31/2021 1:00:00 PM 22.9 73.22 0.198 7.25 0.66 8.6
8/31/2021 1:15:00 PM 23.04 73.472 0.199 7.26 0.65 8.65
8/31/2021 1:30:00 PM 23.19 73.742 0.197 7.27 0.63 8.68
8/31/2021 1:45:00 PM 23.39 74.102 0.198 7.28 0.61 8.7
8/31/2021 2:00:00 PM 23.48 74.264 0.196 7.28 0.61 8.72
8/31/2021 2:15:00 PM 23.58 74.444 0.198 7.28 0.59 8.69
8/31/2021 2:30:00 PM 23.58 74.444 0.199 7.28 0.62 8.67
8/31/2021 2:45:00 PM 23.64 74.552 0.198 7.28 0.63 8.63
8/31/2021 3:00:00 PM 23.74 74.732 0.197 7.28 0.64 8.65
8/31/2021 3:15:00 PM 23.73 74.714 0.198 7.27 0.67 8.56
8/31/2021 3:30:00 PM 23.73 74.714 0.197 7.27 0.59 8.52
8/31/2021 3:45:00 PM 23.7 74.66 0.196 7.27 0.64 8.47
8/31/2021 4:00:00 PM 23.73 74.714 0.197 7.26 0.78 8.42
8/31/2021 4:15:00 PM 23.76 74.768 0.196 7.26 0.71 8.43
8/31/2021 4:30:00 PM 23.75 74.75 0.195 7.26 0.56 8.4
8/31/2021 4:45:00 PM 23.67 74.606 0.195 7.25 0.68 8.37
8/31/2021 5:00:00 PM 23.63 74.534 0.195 7.24 0.73 8.31
8/31/2021 5:15:00 PM 23.59 74.462 0.196 7.24 0.82 8.29
8/31/2021 5:30:00 PM 23.5 74.3 0.195 7.23 0.88 8.22
8/31/2021 5:45:00 PM 23.39 74.102 0.194 7.22 0.84 8.09
8/31/2021 6:00:00 PM 23.34 74.012 0.192 7.21 0.74 8.06
8/31/2021 6:15:00 PM 23.27 73.886 0.194 7.2 0.75 8.02
8/31/2021 6:30:00 PM 23.2 73.76 0.195 7.2 0.79 7.97
8/31/2021 6:45:00 PM 23.05 73.49 0.192 7.18 0.83 7.84
8/31/2021 7:00:00 PM 22.95 73.31 0.195 7.17 0.86 7.71
8/31/2021 7:15:00 PM 22.86 73.148 0.194 7.15 0.73 7.6
8/31/2021 7:30:00 PM 22.74 72.932 0.19 7.13 0.7 7.43
8/31/2021 7:45:00 PM 22.64 72.752 0.193 7.12 0.66 7.33
8/31/2021 8:00:00 PM 22.57 72.626 0.195 7.11 0.77 7.21
8/31/2021 8:15:00 PM 22.45 72.41 0.192 7.1 0.7 7.11
8/31/2021 8:30:00 PM 22.38 72.284 0.195 7.09 0.9 6.98
8/31/2021 8:45:00 PM 22.28 72.104 0.197 7.08 0.69 6.96
8/31/2021 9:00:00 PM 22.2 71.96 0.197 7.07 0.65 6.92
8/31/2021 9:15:00 PM 22.17 71.906 0.197 7.07 0.74 6.88
8/31/2021 9:30:00 PM 22.09 71.762 0.196 7.07 0.77 6.87
8/31/2021 9:45:00 PM 22.02 71.636 0.196 7.06 0.82 6.85
8/31/2021 10:00:00 PM 21.99 71.582 0.198 7.06 0.7 6.84
8/31/2021 10:15:00 PM 21.95 71.51 0.195 7.05 0.83 6.83
8/31/2021 10:30:00 PM 21.91 71.438 0.196 7.05 0.79 6.82
8/31/2021 10:45:00 PM 21.85 71.33 0.2 7.05 0.73 6.83
8/31/2021 11:00:00 PM 21.83 71.294 0.196 7.05 0.69 6.83
8/31/2021 11:15:00 PM 21.8 71.24 0.199 7.05 0.8 6.82
8/31/2021 11:30:00 PM 21.77 71.186 0.197 7.05 0.8 6.79
8/31/2021 11:45:00 PM 21.75 71.15 0.198 7.04 0.8 6.78
9/1/2021 12:00:00 AM 21.72 71.096 0.198 7.04 1.12 6.78
9/1/2021 12:15:00 AM 21.67 71.006 0.198 7.04 0.71 6.8
9/1/2021 12:30:00 AM 21.65 70.97 0.199 7.04 0.83 6.77
9/1/2021 12:45:00 AM 21.6 70.88 0.199 7.04 0.72 6.8
9/1/2021 1:00:00 AM 21.58 70.844 0.198 7.04 0.74 6.79
9/1/2021 1:15:00 AM 21.54 70.772 0.2 7.03 0.76 6.8
9/1/2021 1:30:00 AM 21.53 70.754 0.197 7.03 0.84 6.77
9/1/2021 1:45:00 AM 21.49 70.682 0.199 7.04 0.84 6.79
9/1/2021 2:00:00 AM 21.46 70.628 0.197 7.04 0.77 6.81
9/1/2021 2:15:00 AM 21.43 70.574 0.2 7.03 0.85 6.79
9/1/2021 2:30:00 AM 21.39 70.502 0.199 7.04 0.83 6.8
9/1/2021 2:45:00 AM 21.36 70.448 0.2 7.03 0.99 6.8
9/1/2021 3:00:00 AM 21.33 70.394 0.2 7.03 0.88 6.82
9/1/2021 3:15:00 AM 21.32 70.376 0.198 7.03 0.81 6.79
9/1/2021 3:30:00 AM 21.29 70.32201 0.198 7.03 0.81 6.81
9/1/2021 3:45:00 AM 21.26 70.268 0.201 7.03 0.79 6.83
9/1/2021 4:00:00 AM 21.25 70.25 0.2 7.03 0.88 6.81
9/1/2021 4:15:00 AM 21.23 70.214 0.199 7.03 0.95 6.82
9/1/2021 4:30:00 AM 21.21 70.17799 0.201 7.03 0.68 6.83
9/1/2021 4:45:00 AM 21.2 70.16 0.199 7.03 0.72 6.81
9/1/2021 5:00:00 AM 21.19 70.142 0.202 7.03 0.73 6.82
9/1/2021 5:15:00 AM 21.18 70.124 0.198 7.03 0.8 6.82
9/1/2021 5:30:00 AM 21.16 70.088 0.203 7.04 0.77 6.83
9/1/2021 5:45:00 AM 21.15 70.07 0.2 7.03 0.67 6.81
9/1/2021 6:00:00 AM 21.13 70.034 0.202 7.03 0.78 6.83
9/1/2021 6:15:00 AM 21.12 70.016 0.199 7.03 1.04 6.81
9/1/2021 6:30:00 AM 21.11 69.998 0.202 7.03 0.68 6.81
9/1/2021 6:45:00 AM 21.1 69.98 0.2 7.03 0.82 6.82
9/1/2021 7:00:00 AM 21.08 69.944 0.201 7.04 0.73 6.83
9/1/2021 7:15:00 AM 21.07 69.926 0.202 7.04 0.67 6.85
9/1/2021 7:30:00 AM 21.07 69.926 0.204 7.04 0.48 6.87
9/1/2021 7:45:00 AM 21.06 69.908 0.203 7.04 0.65 6.92
9/1/2021 8:00:00 AM 21.05 69.89 0.204 7.04 0.68 6.94
9/1/2021 8:15:00 AM 21.05 69.89 0.203 7.05 0.58 7
9/1/2021 8:30:00 AM 21.05 69.89 0.204 7.05 0.63 7.05
9/1/2021 8:45:00 AM 21.04 69.872 0.201 7.06 0.56 7.09
9/1/2021 9:00:00 AM 21.04 69.872 0.201 7.06 0.55 7.15
9/1/2021 9:15:00 AM 21.04 69.872 0.204 7.07 0.71 7.23
9/1/2021 9:30:00 AM 21.05 69.89 0.201 7.07 0.82 7.28
9/1/2021 9:45:00 AM 21.06 69.908 0.199 7.08 0.58 7.39
9/1/2021 10:00:00 AM 21.07 69.926 0.201 7.08 0.75 7.42
9/1/2021 10:15:00 AM 21.08 69.944 0.201 7.09 0.64 7.54
9/1/2021 10:30:00 AM 21.1 69.98 0.202 7.1 0.65 7.65
9/1/2021 10:45:00 AM 21.12 70.016 0.201 7.11 0.63 7.77
9/1/2021 11:00:00 AM 21.13 70.034 0.201 7.11 0.63 7.81
9/1/2021 11:15:00 AM 21.13 70.034 0.203 7.12 0.55 7.87
9/1/2021 11:30:00 AM 21.14 70.052 0.201 7.12 0.45 7.95
9/1/2021 11:45:00 AM 21.14 70.052 0.201 7.13 0.66 7.97
9/1/2021 12:00:00 PM 21.16 70.088 0.199 7.14 0.71 8.03
9/1/2021 12:15:00 PM 21.18 70.124 0.199 7.15 0.65 8.12
9/1/2021 12:30:00 PM 21.18 70.124 0.198 7.15 0.69 8.18
9/1/2021 12:45:00 PM 21.19 70.142 0.199 7.16 0.72 8.19
9/1/2021 1:00:00 PM 21.19 70.142 0.197 7.16 0.61 8.22
9/1/2021 1:15:00 PM 21.19 70.142 0.199 7.17 0.66 8.23
9/1/2021 1:30:00 PM 21.19 70.142 0.198 7.17 0.65 8.27
9/1/2021 1:45:00 PM 21.19 70.142 0.191 7.17 0.61 8.3
9/1/2021 2:00:00 PM 21.18 70.124 0.191 7.18 0.65 8.27
9/1/2021 2:15:00 PM 21.17 70.106 0.192 7.17 0.62 8.22
9/1/2021 2:30:00 PM 21.16 70.088 0.191 7.17 0.51 8.16
9/1/2021 2:45:00 PM 21.14 70.052 0.191 7.16 0.77 8.11
9/1/2021 3:00:00 PM 21.12 70.016 0.192 7.16 0.77 8.07
9/1/2021 3:15:00 PM 21.1 69.98 0.192 7.15 0.7 7.98
9/1/2021 3:30:00 PM 21.07 69.926 0.191 7.15 0.66 7.97
9/1/2021 3:45:00 PM 21.04 69.872 0.192 7.16 1.09 7.97
9/1/2021 4:00:00 PM 21.02 69.836 0.19 7.16 0.71 7.96
9/1/2021 4:15:00 PM 21 69.8 0.189 7.16 0.87 7.96
9/1/2021 4:30:00 PM 20.96 69.728 0.203 7.16 0.87 7.92
9/1/2021 4:45:00 PM 20.94 69.692 0.204 7.16 0.8 7.89
9/1/2021 5:00:00 PM 20.9 69.62 0.201 7.15 0.97 7.83
9/1/2021 5:15:00 PM 20.85 69.53 0.203 7.15 0.8 7.76
9/1/2021 5:30:00 PM 20.8 69.44 0.199 7.14 0.92 7.7
9/1/2021 5:45:00 PM 20.75 69.35 0.199 7.14 1.31 7.66
9/1/2021 6:00:00 PM 20.69 69.242 0.197 7.15 2.45 7.64
9/1/2021 6:15:00 PM 20.62 69.116 0.195 7.15 1.95 7.63
9/1/2021 6:30:00 PM 20.57 69.026 0.196 7.15 1.81 7.62
9/1/2021 6:45:00 PM 20.52 68.936 0.195 7.15 2.01 7.59
9/1/2021 7:00:00 PM 20.47 68.846 0.195 7.15 1.78 7.61
9/1/2021 7:15:00 PM 20.42 68.756 0.196 7.15 1.6 7.59
9/1/2021 7:30:00 PM 20.39 68.702 0.196 7.15 1.73 7.56
9/1/2021 7:45:00 PM 20.37 68.666 0.195 7.15 1.97 7.57
9/1/2021 8:00:00 PM 20.32 68.576 0.194 7.15 2.47 7.57
9/1/2021 8:15:00 PM 20.25 68.45 0.196 7.15 2.78 7.58
9/1/2021 8:30:00 PM 20.17 68.306 0.197 7.15 2.84 7.57
9/1/2021 8:45:00 PM 20.09 68.162 0.201 7.16 3.73 7.61
9/1/2021 9:00:00 PM 20.02 68.036 0.201 7.17 4.28 7.69
9/1/2021 9:15:00 PM 19.98 67.964 0.199 7.2 4.64 7.77
9/1/2021 9:30:00 PM 19.94 67.892 0.192 7.23 6.69 7.84
9/1/2021 9:45:00 PM 19.91 67.838 0.188 7.24 8.43 7.88
9/1/2021 10:00:00 PM 19.89 67.802 0.191 7.25 12.4 7.91
9/1/2021 10:15:00 PM 19.83 67.694 0.193 7.25 18.51 7.93
9/1/2021 10:30:00 PM 19.74 67.532 0.191 7.26 30.82 7.99
9/1/2021 10:45:00 PM 19.66 67.388 0.188 7.27 33.93 8.05
9/1/2021 11:00:00 PM 19.59 67.262 0.187 7.28 32.88 8.09
9/1/2021 11:15:00 PM 19.53 67.154 0.186 7.28 30.37 8.11
9/1/2021 11:30:00 PM 19.47 67.046 0.183 7.29 28.16 8.14
9/1/2021 11:45:00 PM 19.4 66.92 0.183 7.29 40.13 8.17
9/2/2021 12:00:00 AM 19.34 66.812 0.181 7.28 25.14 8.19
9/2/2021 12:15:00 AM 19.28 66.704 0.179 7.28 24.87 8.2
9/2/2021 12:30:00 AM 19.23 66.614 0.178 7.28 14.45 8.22
9/2/2021 12:45:00 AM 19.17 66.506 0.177 7.28 18.6 8.24
9/2/2021 1:00:00 AM 19.11 66.398 0.176 7.28 18.01 8.26
9/2/2021 1:15:00 AM 19.04 66.272 0.176 7.28 15.43 8.29
9/2/2021 1:30:00 AM 18.97 66.146 0.175 7.27 18.28 8.3
9/2/2021 1:45:00 AM 18.91 66.038 0.174 7.28 17.37 8.33
9/2/2021 2:00:00 AM 18.84 65.912 0.173 7.27 17.52 8.34
9/2/2021 2:15:00 AM 18.77 65.786 0.172 7.27 17.6 8.36
9/2/2021 2:30:00 AM 18.71 65.67799 0.172 7.27 18.88 8.37
9/2/2021 2:45:00 AM 18.66 65.588 0.17 7.26 24.99 8.38
9/2/2021 3:00:00 AM 18.61 65.498 0.169 7.26 24.89 8.38
9/2/2021 3:15:00 AM 18.56 65.408 0.168 7.26 35.79 8.39
9/2/2021 3:30:00 AM 18.51 65.318 0.168 7.26 39.11 8.39
9/2/2021 3:45:00 AM 18.47 65.246 0.168 7.25 48.31 8.39
9/2/2021 4:00:00 AM 18.42 65.156 0.168 7.25 34.88 8.38
9/2/2021 4:15:00 AM 18.37 65.066 0.169 7.25 33.87 8.4
9/2/2021 4:30:00 AM 18.32 64.976 0.168 7.24 33.45 8.4
9/2/2021 4:45:00 AM 18.27 64.886 0.167 7.24 28.59 8.4
9/2/2021 5:00:00 AM 18.22 64.796 0.167 7.23 29.56 8.4
9/2/2021 5:15:00 AM 18.17 64.706 0.167 7.23 24.53 8.41
9/2/2021 5:30:00 AM 18.12 64.616 0.167 7.22 25.04 8.4
9/2/2021 5:45:00 AM 18.08 64.544 0.167 7.22 22.36 8.4
9/2/2021 6:00:00 AM 18.03 64.454 0.167 7.22 20.01 8.42
9/2/2021 6:15:00 AM 17.98 64.364 0.167 7.21 18.3 8.41
9/2/2021 6:30:00 AM 17.94 64.292 0.166 7.21 18.27 8.41
9/2/2021 6:45:00 AM 17.9 64.22 0.167 7.21 16.29 8.43
9/2/2021 7:00:00 AM 17.87 64.166 0.167 7.21 16.29 8.45
9/2/2021 7:15:00 AM 17.83 64.094 0.167 7.21 15.08 8.48
9/2/2021 7:30:00 AM 17.82 64.076 0.166 7.22 14.41 8.53
9/2/2021 7:45:00 AM 17.81 64.058 0.167 7.22 12.83 8.59
9/2/2021 8:00:00 AM 17.83 64.094 0.167 7.23 13.63 8.66
9/2/2021 8:15:00 AM 17.86 64.148 0.167 7.24 11.37 8.74
9/2/2021 8:30:00 AM 17.91 64.238 0.166 7.25 12.18 8.8
9/2/2021 8:45:00 AM 17.97 64.346 0.167 7.27 10.71 8.87
9/2/2021 9:00:00 AM 18.03 64.454 0.166 7.28 11.51 8.92
9/2/2021 9:15:00 AM 18.11 64.598 0.166 7.29 9.17 9
9/2/2021 9:30:00 AM 18.21 64.778 0.167 7.3 8.89 9.05
9/2/2021 9:45:00 AM 18.33 64.994 0.168 7.32 8.68 9.11
9/2/2021 10:00:00 AM 18.45 65.21 0.168 7.33 7.74 9.16